<?xml version="1.0" encoding="UTF-8" standalone="no" ?>
<gpx xmlns="http://www.topografix.com/GPX/1/1" xmlns:xsi="http://www.w3.org/2001/XMLSchema-instance" xsi:schemaLocation="http://www.topografix.com/GPX/1/1 http://www.topografix.com/GPX/1/1/gpx.xsd" version="1.1" creator="VisuGPX - https://www.visugpx.com">
  <metadata>
    <name>Port D'Alon</name>
    <desc><![CDATA[Itinéraire facile.
Superbe panorama sur la portion littorale. ]]></desc>
  </metadata>
  <trk>
    <name><![CDATA[Port D'Alon_1]]></name>
    <trkseg>
      <trkpt lat="43.16045" lon="5.70417">
        <ele>75.2</ele>
        <time>2021-09-22T08:31:03Z</time>
      </trkpt>
      <trkpt lat="43.1604" lon="5.70416">
        <ele>74.9</ele>
        <time>2021-09-22T08:31:23Z</time>
      </trkpt>
      <trkpt lat="43.16039" lon="5.7041">
        <ele>74.7</ele>
        <time>2021-09-22T08:31:39Z</time>
      </trkpt>
      <trkpt lat="43.16036" lon="5.70405">
        <ele>74.5</ele>
        <time>2021-09-22T08:31:51Z</time>
      </trkpt>
      <trkpt lat="43.1603" lon="5.70402">
        <ele>74.2</ele>
        <time>2021-09-22T08:32:01Z</time>
      </trkpt>
      <trkpt lat="43.16025" lon="5.70401">
        <ele>74</ele>
        <time>2021-09-22T08:32:07Z</time>
      </trkpt>
      <trkpt lat="43.1602" lon="5.70396">
        <ele>73.9</ele>
        <time>2021-09-22T08:32:17Z</time>
      </trkpt>
      <trkpt lat="43.16015" lon="5.70391">
        <ele>73.7</ele>
        <time>2021-09-22T08:32:23Z</time>
      </trkpt>
      <trkpt lat="43.16011" lon="5.70389">
        <ele>73.6</ele>
        <time>2021-09-22T08:32:27Z</time>
      </trkpt>
      <trkpt lat="43.16006" lon="5.70384">
        <ele>73.5</ele>
        <time>2021-09-22T08:32:33Z</time>
      </trkpt>
      <trkpt lat="43.16003" lon="5.70379">
        <ele>73.5</ele>
        <time>2021-09-22T08:32:41Z</time>
      </trkpt>
      <trkpt lat="43.16003" lon="5.70371">
        <ele>73.6</ele>
        <time>2021-09-22T08:32:49Z</time>
      </trkpt>
      <trkpt lat="43.16003" lon="5.70365">
        <ele>73.6</ele>
        <time>2021-09-22T08:32:59Z</time>
      </trkpt>
      <trkpt lat="43.16003" lon="5.70358">
        <ele>73.7</ele>
        <time>2021-09-22T08:33:03Z</time>
      </trkpt>
      <trkpt lat="43.16004" lon="5.70351">
        <ele>73.8</ele>
        <time>2021-09-22T08:33:07Z</time>
      </trkpt>
      <trkpt lat="43.16004" lon="5.70342">
        <ele>73.8</ele>
        <time>2021-09-22T08:33:13Z</time>
      </trkpt>
      <trkpt lat="43.16004" lon="5.70336">
        <ele>73.9</ele>
        <time>2021-09-22T08:33:19Z</time>
      </trkpt>
      <trkpt lat="43.16004" lon="5.70328">
        <ele>73.8</ele>
        <time>2021-09-22T08:33:25Z</time>
      </trkpt>
      <trkpt lat="43.16003" lon="5.7032">
        <ele>73.7</ele>
        <time>2021-09-22T08:33:31Z</time>
      </trkpt>
      <trkpt lat="43.16003" lon="5.70312">
        <ele>73.6</ele>
        <time>2021-09-22T08:33:37Z</time>
      </trkpt>
      <trkpt lat="43.16003" lon="5.70303">
        <ele>73.5</ele>
        <time>2021-09-22T08:33:43Z</time>
      </trkpt>
      <trkpt lat="43.16003" lon="5.70293">
        <ele>73.3</ele>
        <time>2021-09-22T08:33:49Z</time>
      </trkpt>
      <trkpt lat="43.16003" lon="5.70284">
        <ele>73.2</ele>
        <time>2021-09-22T08:33:55Z</time>
      </trkpt>
      <trkpt lat="43.16003" lon="5.70276">
        <ele>73.1</ele>
        <time>2021-09-22T08:34:01Z</time>
      </trkpt>
      <trkpt lat="43.16002" lon="5.70269">
        <ele>73</ele>
        <time>2021-09-22T08:34:11Z</time>
      </trkpt>
      <trkpt lat="43.16003" lon="5.70263">
        <ele>72.9</ele>
        <time>2021-09-22T08:34:19Z</time>
      </trkpt>
      <trkpt lat="43.16005" lon="5.70256">
        <ele>72.6</ele>
        <time>2021-09-22T08:34:25Z</time>
      </trkpt>
      <trkpt lat="43.16007" lon="5.70247">
        <ele>72.1</ele>
        <time>2021-09-22T08:34:31Z</time>
      </trkpt>
      <trkpt lat="43.16008" lon="5.70239">
        <ele>71.9</ele>
        <time>2021-09-22T08:34:35Z</time>
      </trkpt>
      <trkpt lat="43.16007" lon="5.70233">
        <ele>71.7</ele>
        <time>2021-09-22T08:34:39Z</time>
      </trkpt>
      <trkpt lat="43.16006" lon="5.70225">
        <ele>71.6</ele>
        <time>2021-09-22T08:34:45Z</time>
      </trkpt>
      <trkpt lat="43.16007" lon="5.70217">
        <ele>71.3</ele>
        <time>2021-09-22T08:34:51Z</time>
      </trkpt>
      <trkpt lat="43.16009" lon="5.70211">
        <ele>70.9</ele>
        <time>2021-09-22T08:34:57Z</time>
      </trkpt>
      <trkpt lat="43.16013" lon="5.70207">
        <ele>70.2</ele>
        <time>2021-09-22T08:35:05Z</time>
      </trkpt>
      <trkpt lat="43.16016" lon="5.70202">
        <ele>69.7</ele>
        <time>2021-09-22T08:35:11Z</time>
      </trkpt>
      <trkpt lat="43.16021" lon="5.70197">
        <ele>68.9</ele>
        <time>2021-09-22T08:35:19Z</time>
      </trkpt>
      <trkpt lat="43.16025" lon="5.70192">
        <ele>68.1</ele>
        <time>2021-09-22T08:35:25Z</time>
      </trkpt>
      <trkpt lat="43.16029" lon="5.70187">
        <ele>67.4</ele>
        <time>2021-09-22T08:35:33Z</time>
      </trkpt>
      <trkpt lat="43.1603" lon="5.70181">
        <ele>66.9</ele>
        <time>2021-09-22T08:35:39Z</time>
      </trkpt>
      <trkpt lat="43.1603" lon="5.70173">
        <ele>66.5</ele>
        <time>2021-09-22T08:35:45Z</time>
      </trkpt>
      <trkpt lat="43.16031" lon="5.70165">
        <ele>66.1</ele>
        <time>2021-09-22T08:35:53Z</time>
      </trkpt>
      <trkpt lat="43.16032" lon="5.70158">
        <ele>65.8</ele>
        <time>2021-09-22T08:35:57Z</time>
      </trkpt>
      <trkpt lat="43.16033" lon="5.7015">
        <ele>65.4</ele>
        <time>2021-09-22T08:36:03Z</time>
      </trkpt>
      <trkpt lat="43.16035" lon="5.70143">
        <ele>65</ele>
        <time>2021-09-22T08:36:09Z</time>
      </trkpt>
      <trkpt lat="43.16037" lon="5.70134">
        <ele>64.4</ele>
        <time>2021-09-22T08:36:15Z</time>
      </trkpt>
      <trkpt lat="43.16039" lon="5.70128">
        <ele>63.9</ele>
        <time>2021-09-22T08:36:19Z</time>
      </trkpt>
      <trkpt lat="43.16041" lon="5.70121">
        <ele>63.5</ele>
        <time>2021-09-22T08:36:25Z</time>
      </trkpt>
      <trkpt lat="43.16042" lon="5.70114">
        <ele>63.1</ele>
        <time>2021-09-22T08:36:31Z</time>
      </trkpt>
      <trkpt lat="43.16046" lon="5.70107">
        <ele>62.4</ele>
        <time>2021-09-22T08:36:39Z</time>
      </trkpt>
      <trkpt lat="43.16052" lon="5.70103">
        <ele>61.3</ele>
        <time>2021-09-22T08:36:45Z</time>
      </trkpt>
      <trkpt lat="43.16057" lon="5.70097">
        <ele>60.5</ele>
        <time>2021-09-22T08:36:51Z</time>
      </trkpt>
      <trkpt lat="43.16059" lon="5.7009">
        <ele>60</ele>
        <time>2021-09-22T08:36:57Z</time>
      </trkpt>
      <trkpt lat="43.16062" lon="5.70083">
        <ele>59.3</ele>
        <time>2021-09-22T08:37:03Z</time>
      </trkpt>
      <trkpt lat="43.16065" lon="5.70077">
        <ele>58.8</ele>
        <time>2021-09-22T08:37:09Z</time>
      </trkpt>
      <trkpt lat="43.16066" lon="5.70069">
        <ele>58.8</ele>
        <time>2021-09-22T08:37:15Z</time>
      </trkpt>
      <trkpt lat="43.16066" lon="5.70062">
        <ele>58.7</ele>
        <time>2021-09-22T08:37:21Z</time>
      </trkpt>
      <trkpt lat="43.16069" lon="5.70054">
        <ele>58.4</ele>
        <time>2021-09-22T08:37:27Z</time>
      </trkpt>
      <trkpt lat="43.1607" lon="5.70047">
        <ele>58.2</ele>
        <time>2021-09-22T08:37:33Z</time>
      </trkpt>
      <trkpt lat="43.16071" lon="5.70041">
        <ele>58.1</ele>
        <time>2021-09-22T08:37:39Z</time>
      </trkpt>
      <trkpt lat="43.16071" lon="5.70033">
        <ele>58.1</ele>
        <time>2021-09-22T08:37:45Z</time>
      </trkpt>
      <trkpt lat="43.16073" lon="5.70026">
        <ele>57.9</ele>
        <time>2021-09-22T08:37:51Z</time>
      </trkpt>
      <trkpt lat="43.16076" lon="5.70019">
        <ele>57.7</ele>
        <time>2021-09-22T08:37:57Z</time>
      </trkpt>
      <trkpt lat="43.16077" lon="5.70012">
        <ele>57.5</ele>
        <time>2021-09-22T08:38:07Z</time>
      </trkpt>
      <trkpt lat="43.1608" lon="5.70006">
        <ele>57.3</ele>
        <time>2021-09-22T08:38:19Z</time>
      </trkpt>
      <trkpt lat="43.16082" lon="5.69998">
        <ele>57.1</ele>
        <time>2021-09-22T08:38:25Z</time>
      </trkpt>
      <trkpt lat="43.16084" lon="5.69992">
        <ele>57.2</ele>
        <time>2021-09-22T08:38:29Z</time>
      </trkpt>
      <trkpt lat="43.16086" lon="5.69986">
        <ele>57.4</ele>
        <time>2021-09-22T08:38:33Z</time>
      </trkpt>
      <trkpt lat="43.16089" lon="5.6998">
        <ele>57.5</ele>
        <time>2021-09-22T08:38:37Z</time>
      </trkpt>
      <trkpt lat="43.16091" lon="5.69975">
        <ele>57.7</ele>
        <time>2021-09-22T08:38:41Z</time>
      </trkpt>
      <trkpt lat="43.16093" lon="5.69968">
        <ele>57.9</ele>
        <time>2021-09-22T08:38:45Z</time>
      </trkpt>
      <trkpt lat="43.16095" lon="5.69961">
        <ele>58.1</ele>
        <time>2021-09-22T08:38:51Z</time>
      </trkpt>
      <trkpt lat="43.16097" lon="5.69955">
        <ele>58.2</ele>
        <time>2021-09-22T08:38:55Z</time>
      </trkpt>
      <trkpt lat="43.16098" lon="5.69948">
        <ele>58.4</ele>
        <time>2021-09-22T08:38:59Z</time>
      </trkpt>
      <trkpt lat="43.16101" lon="5.69941">
        <ele>58.6</ele>
        <time>2021-09-22T08:39:05Z</time>
      </trkpt>
      <trkpt lat="43.16105" lon="5.69935">
        <ele>58.8</ele>
        <time>2021-09-22T08:39:11Z</time>
      </trkpt>
      <trkpt lat="43.16106" lon="5.69929">
        <ele>59</ele>
        <time>2021-09-22T08:39:19Z</time>
      </trkpt>
      <trkpt lat="43.16109" lon="5.69923">
        <ele>59.2</ele>
        <time>2021-09-22T08:39:27Z</time>
      </trkpt>
      <trkpt lat="43.16113" lon="5.69917">
        <ele>59.3</ele>
        <time>2021-09-22T08:39:35Z</time>
      </trkpt>
      <trkpt lat="43.16114" lon="5.69909">
        <ele>58.7</ele>
        <time>2021-09-22T08:39:41Z</time>
      </trkpt>
      <trkpt lat="43.16117" lon="5.69902">
        <ele>58.1</ele>
        <time>2021-09-22T08:39:47Z</time>
      </trkpt>
      <trkpt lat="43.16121" lon="5.69897">
        <ele>57.7</ele>
        <time>2021-09-22T08:39:53Z</time>
      </trkpt>
      <trkpt lat="43.16123" lon="5.69891">
        <ele>57.2</ele>
        <time>2021-09-22T08:40:01Z</time>
      </trkpt>
      <trkpt lat="43.16124" lon="5.69885">
        <ele>56.6</ele>
        <time>2021-09-22T08:40:17Z</time>
      </trkpt>
      <trkpt lat="43.16124" lon="5.69878">
        <ele>56</ele>
        <time>2021-09-22T08:40:23Z</time>
      </trkpt>
      <trkpt lat="43.16124" lon="5.6987">
        <ele>55.3</ele>
        <time>2021-09-22T08:40:31Z</time>
      </trkpt>
      <trkpt lat="43.16126" lon="5.69863">
        <ele>54.7</ele>
        <time>2021-09-22T08:40:39Z</time>
      </trkpt>
      <trkpt lat="43.16127" lon="5.69857">
        <ele>54.1</ele>
        <time>2021-09-22T08:40:45Z</time>
      </trkpt>
      <trkpt lat="43.16127" lon="5.6985">
        <ele>53.5</ele>
        <time>2021-09-22T08:40:51Z</time>
      </trkpt>
      <trkpt lat="43.16126" lon="5.69843">
        <ele>52.8</ele>
        <time>2021-09-22T08:40:57Z</time>
      </trkpt>
      <trkpt lat="43.16125" lon="5.69835">
        <ele>52.2</ele>
        <time>2021-09-22T08:41:03Z</time>
      </trkpt>
      <trkpt lat="43.16123" lon="5.69829">
        <ele>51.9</ele>
        <time>2021-09-22T08:41:09Z</time>
      </trkpt>
      <trkpt lat="43.1612" lon="5.69822">
        <ele>51.8</ele>
        <time>2021-09-22T08:41:15Z</time>
      </trkpt>
      <trkpt lat="43.16116" lon="5.69815">
        <ele>51.8</ele>
        <time>2021-09-22T08:41:21Z</time>
      </trkpt>
      <trkpt lat="43.16114" lon="5.69809">
        <ele>51.8</ele>
        <time>2021-09-22T08:41:25Z</time>
      </trkpt>
      <trkpt lat="43.1611" lon="5.69803">
        <ele>51.9</ele>
        <time>2021-09-22T08:41:29Z</time>
      </trkpt>
      <trkpt lat="43.16108" lon="5.69797">
        <ele>52</ele>
        <time>2021-09-22T08:41:37Z</time>
      </trkpt>
      <trkpt lat="43.16109" lon="5.69791">
        <ele>52</ele>
        <time>2021-09-22T08:41:43Z</time>
      </trkpt>
      <trkpt lat="43.16113" lon="5.69784">
        <ele>51.7</ele>
        <time>2021-09-22T08:41:49Z</time>
      </trkpt>
      <trkpt lat="43.16116" lon="5.69779">
        <ele>51.4</ele>
        <time>2021-09-22T08:41:53Z</time>
      </trkpt>
      <trkpt lat="43.1612" lon="5.69775">
        <ele>51.1</ele>
        <time>2021-09-22T08:41:57Z</time>
      </trkpt>
      <trkpt lat="43.16123" lon="5.69769">
        <ele>50.7</ele>
        <time>2021-09-22T08:42:01Z</time>
      </trkpt>
      <trkpt lat="43.16123" lon="5.6976">
        <ele>50.4</ele>
        <time>2021-09-22T08:42:07Z</time>
      </trkpt>
      <trkpt lat="43.16122" lon="5.69753">
        <ele>50.5</ele>
        <time>2021-09-22T08:42:11Z</time>
      </trkpt>
      <trkpt lat="43.16124" lon="5.69747">
        <ele>50.5</ele>
        <time>2021-09-22T08:42:17Z</time>
      </trkpt>
      <trkpt lat="43.16127" lon="5.69741">
        <ele>50.8</ele>
        <time>2021-09-22T08:42:27Z</time>
      </trkpt>
      <trkpt lat="43.16131" lon="5.69737">
        <ele>50.6</ele>
        <time>2021-09-22T08:42:33Z</time>
      </trkpt>
      <trkpt lat="43.16135" lon="5.69733">
        <ele>50.6</ele>
        <time>2021-09-22T08:42:41Z</time>
      </trkpt>
      <trkpt lat="43.16139" lon="5.69729">
        <ele>50.6</ele>
        <time>2021-09-22T08:42:47Z</time>
      </trkpt>
      <trkpt lat="43.16143" lon="5.69722">
        <ele>50.9</ele>
        <time>2021-09-22T08:43:01Z</time>
      </trkpt>
      <trkpt lat="43.16146" lon="5.69718">
        <ele>51</ele>
        <time>2021-09-22T08:43:05Z</time>
      </trkpt>
      <trkpt lat="43.1615" lon="5.69713">
        <ele>51</ele>
        <time>2021-09-22T08:43:11Z</time>
      </trkpt>
      <trkpt lat="43.16154" lon="5.69707">
        <ele>51.2</ele>
        <time>2021-09-22T08:43:19Z</time>
      </trkpt>
      <trkpt lat="43.16154" lon="5.69701">
        <ele>51.9</ele>
        <time>2021-09-22T08:43:27Z</time>
      </trkpt>
      <trkpt lat="43.16149" lon="5.697">
        <ele>52.5</ele>
        <time>2021-09-22T08:43:39Z</time>
      </trkpt>
      <trkpt lat="43.16145" lon="5.69703">
        <ele>52.6</ele>
        <time>2021-09-22T08:43:43Z</time>
      </trkpt>
      <trkpt lat="43.16141" lon="5.69708">
        <ele>52.6</ele>
        <time>2021-09-22T08:43:47Z</time>
      </trkpt>
      <trkpt lat="43.16136" lon="5.69707">
        <ele>53.4</ele>
        <time>2021-09-22T08:43:53Z</time>
      </trkpt>
      <trkpt lat="43.16132" lon="5.69704">
        <ele>54.2</ele>
        <time>2021-09-22T08:43:59Z</time>
      </trkpt>
      <trkpt lat="43.16129" lon="5.69698">
        <ele>55.2</ele>
        <time>2021-09-22T08:44:07Z</time>
      </trkpt>
      <trkpt lat="43.16129" lon="5.69692">
        <ele>55.9</ele>
        <time>2021-09-22T08:44:21Z</time>
      </trkpt>
      <trkpt lat="43.16127" lon="5.69685">
        <ele>56.7</ele>
        <time>2021-09-22T08:44:35Z</time>
      </trkpt>
      <trkpt lat="43.16127" lon="5.69678">
        <ele>57.6</ele>
        <time>2021-09-22T08:44:45Z</time>
      </trkpt>
      <trkpt lat="43.16128" lon="5.6967">
        <ele>58.2</ele>
        <time>2021-09-22T08:44:53Z</time>
      </trkpt>
      <trkpt lat="43.16126" lon="5.69665">
        <ele>59.4</ele>
        <time>2021-09-22T08:45:01Z</time>
      </trkpt>
      <trkpt lat="43.16126" lon="5.69658">
        <ele>60.9</ele>
        <time>2021-09-22T08:45:07Z</time>
      </trkpt>
      <trkpt lat="43.16124" lon="5.69652">
        <ele>62.7</ele>
        <time>2021-09-22T08:45:13Z</time>
      </trkpt>
      <trkpt lat="43.16127" lon="5.69645">
        <ele>64</ele>
        <time>2021-09-22T08:45:19Z</time>
      </trkpt>
      <trkpt lat="43.16128" lon="5.69638">
        <ele>65.4</ele>
        <time>2021-09-22T08:45:27Z</time>
      </trkpt>
      <trkpt lat="43.1613" lon="5.69632">
        <ele>66.6</ele>
        <time>2021-09-22T08:45:39Z</time>
      </trkpt>
      <trkpt lat="43.16131" lon="5.69626">
        <ele>67.8</ele>
        <time>2021-09-22T08:45:49Z</time>
      </trkpt>
      <trkpt lat="43.16132" lon="5.69619">
        <ele>69.4</ele>
        <time>2021-09-22T08:46:01Z</time>
      </trkpt>
      <trkpt lat="43.16129" lon="5.69612">
        <ele>71.6</ele>
        <time>2021-09-22T08:46:13Z</time>
      </trkpt>
      <trkpt lat="43.16128" lon="5.69605">
        <ele>73.2</ele>
        <time>2021-09-22T08:46:33Z</time>
      </trkpt>
      <trkpt lat="43.16129" lon="5.69599">
        <ele>74.5</ele>
        <time>2021-09-22T08:48:33Z</time>
      </trkpt>
      <trkpt lat="43.16133" lon="5.69594">
        <ele>75.2</ele>
        <time>2021-09-22T08:48:39Z</time>
      </trkpt>
      <trkpt lat="43.16138" lon="5.69588">
        <ele>75.7</ele>
        <time>2021-09-22T08:48:45Z</time>
      </trkpt>
      <trkpt lat="43.16142" lon="5.69585">
        <ele>75.8</ele>
        <time>2021-09-22T08:48:51Z</time>
      </trkpt>
      <trkpt lat="43.16147" lon="5.69581">
        <ele>76</ele>
        <time>2021-09-22T08:48:59Z</time>
      </trkpt>
      <trkpt lat="43.1615" lon="5.69577">
        <ele>76.4</ele>
        <time>2021-09-22T08:49:05Z</time>
      </trkpt>
      <trkpt lat="43.16154" lon="5.69572">
        <ele>77.1</ele>
        <time>2021-09-22T08:49:11Z</time>
      </trkpt>
      <trkpt lat="43.16159" lon="5.69567">
        <ele>77.8</ele>
        <time>2021-09-22T08:49:17Z</time>
      </trkpt>
      <trkpt lat="43.16162" lon="5.69563">
        <ele>78.5</ele>
        <time>2021-09-22T08:49:23Z</time>
      </trkpt>
      <trkpt lat="43.16167" lon="5.69557">
        <ele>79.2</ele>
        <time>2021-09-22T08:49:31Z</time>
      </trkpt>
      <trkpt lat="43.1617" lon="5.69553">
        <ele>79.6</ele>
        <time>2021-09-22T08:49:35Z</time>
      </trkpt>
      <trkpt lat="43.16176" lon="5.69549">
        <ele>79.7</ele>
        <time>2021-09-22T08:49:41Z</time>
      </trkpt>
      <trkpt lat="43.16181" lon="5.69545">
        <ele>79.9</ele>
        <time>2021-09-22T08:49:47Z</time>
      </trkpt>
      <trkpt lat="43.16186" lon="5.69541">
        <ele>80.2</ele>
        <time>2021-09-22T08:49:53Z</time>
      </trkpt>
      <trkpt lat="43.16191" lon="5.69537">
        <ele>80.3</ele>
        <time>2021-09-22T08:49:59Z</time>
      </trkpt>
      <trkpt lat="43.16195" lon="5.69533">
        <ele>80.5</ele>
        <time>2021-09-22T08:50:03Z</time>
      </trkpt>
      <trkpt lat="43.162" lon="5.69528">
        <ele>80.7</ele>
        <time>2021-09-22T08:50:09Z</time>
      </trkpt>
      <trkpt lat="43.16205" lon="5.69523">
        <ele>81.3</ele>
        <time>2021-09-22T08:50:15Z</time>
      </trkpt>
      <trkpt lat="43.16211" lon="5.6952">
        <ele>80.8</ele>
        <time>2021-09-22T08:50:21Z</time>
      </trkpt>
      <trkpt lat="43.16216" lon="5.69517">
        <ele>80.6</ele>
        <time>2021-09-22T08:50:27Z</time>
      </trkpt>
      <trkpt lat="43.16222" lon="5.69513">
        <ele>80.6</ele>
        <time>2021-09-22T08:50:33Z</time>
      </trkpt>
      <trkpt lat="43.16227" lon="5.69507">
        <ele>81.1</ele>
        <time>2021-09-22T08:50:39Z</time>
      </trkpt>
      <trkpt lat="43.16231" lon="5.695">
        <ele>81.8</ele>
        <time>2021-09-22T08:50:45Z</time>
      </trkpt>
      <trkpt lat="43.16234" lon="5.69495">
        <ele>81.4</ele>
        <time>2021-09-22T08:50:51Z</time>
      </trkpt>
      <trkpt lat="43.16238" lon="5.69488">
        <ele>80.9</ele>
        <time>2021-09-22T08:50:57Z</time>
      </trkpt>
      <trkpt lat="43.16242" lon="5.69482">
        <ele>80.5</ele>
        <time>2021-09-22T08:51:03Z</time>
      </trkpt>
      <trkpt lat="43.16245" lon="5.69476">
        <ele>80.2</ele>
        <time>2021-09-22T08:51:09Z</time>
      </trkpt>
      <trkpt lat="43.16246" lon="5.6947">
        <ele>80.2</ele>
        <time>2021-09-22T08:51:15Z</time>
      </trkpt>
      <trkpt lat="43.16247" lon="5.69464">
        <ele>80.2</ele>
        <time>2021-09-22T08:51:19Z</time>
      </trkpt>
      <trkpt lat="43.1625" lon="5.69456">
        <ele>80.1</ele>
        <time>2021-09-22T08:51:25Z</time>
      </trkpt>
      <trkpt lat="43.16251" lon="5.6945">
        <ele>80.1</ele>
        <time>2021-09-22T08:51:29Z</time>
      </trkpt>
      <trkpt lat="43.16254" lon="5.69443">
        <ele>79.5</ele>
        <time>2021-09-22T08:51:35Z</time>
      </trkpt>
      <trkpt lat="43.16258" lon="5.69435">
        <ele>78.8</ele>
        <time>2021-09-22T08:51:41Z</time>
      </trkpt>
      <trkpt lat="43.1626" lon="5.69428">
        <ele>78.5</ele>
        <time>2021-09-22T08:51:51Z</time>
      </trkpt>
      <trkpt lat="43.1626" lon="5.69421">
        <ele>78.8</ele>
        <time>2021-09-22T08:51:57Z</time>
      </trkpt>
      <trkpt lat="43.16258" lon="5.69415">
        <ele>79.5</ele>
        <time>2021-09-22T08:52:03Z</time>
      </trkpt>
      <trkpt lat="43.16256" lon="5.69408">
        <ele>78.9</ele>
        <time>2021-09-22T08:52:13Z</time>
      </trkpt>
      <trkpt lat="43.16251" lon="5.69403">
        <ele>79.3</ele>
        <time>2021-09-22T08:52:19Z</time>
      </trkpt>
      <trkpt lat="43.16247" lon="5.69399">
        <ele>79.4</ele>
        <time>2021-09-22T08:52:25Z</time>
      </trkpt>
      <trkpt lat="43.16246" lon="5.69392">
        <ele>78.5</ele>
        <time>2021-09-22T08:52:33Z</time>
      </trkpt>
      <trkpt lat="43.16243" lon="5.69384">
        <ele>77.6</ele>
        <time>2021-09-22T08:52:41Z</time>
      </trkpt>
      <trkpt lat="43.1624" lon="5.69378">
        <ele>77.1</ele>
        <time>2021-09-22T08:52:49Z</time>
      </trkpt>
      <trkpt lat="43.16237" lon="5.69373">
        <ele>76.7</ele>
        <time>2021-09-22T08:52:57Z</time>
      </trkpt>
      <trkpt lat="43.16234" lon="5.69368">
        <ele>76.5</ele>
        <time>2021-09-22T08:53:01Z</time>
      </trkpt>
      <trkpt lat="43.16229" lon="5.69362">
        <ele>76.1</ele>
        <time>2021-09-22T08:53:07Z</time>
      </trkpt>
      <trkpt lat="43.16226" lon="5.69355">
        <ele>75.4</ele>
        <time>2021-09-22T08:53:15Z</time>
      </trkpt>
      <trkpt lat="43.16223" lon="5.69348">
        <ele>74.7</ele>
        <time>2021-09-22T08:53:21Z</time>
      </trkpt>
      <trkpt lat="43.1622" lon="5.69342">
        <ele>74.2</ele>
        <time>2021-09-22T08:53:29Z</time>
      </trkpt>
      <trkpt lat="43.16215" lon="5.69339">
        <ele>74.5</ele>
        <time>2021-09-22T08:53:37Z</time>
      </trkpt>
      <trkpt lat="43.1621" lon="5.6934">
        <ele>75.3</ele>
        <time>2021-09-22T08:53:43Z</time>
      </trkpt>
      <trkpt lat="43.16204" lon="5.69344">
        <ele>77</ele>
        <time>2021-09-22T08:53:49Z</time>
      </trkpt>
      <trkpt lat="43.16199" lon="5.69351">
        <ele>79</ele>
        <time>2021-09-22T08:53:53Z</time>
      </trkpt>
      <trkpt lat="43.16194" lon="5.69355">
        <ele>80.5</ele>
        <time>2021-09-22T08:53:59Z</time>
      </trkpt>
      <trkpt lat="43.16189" lon="5.69358">
        <ele>81.9</ele>
        <time>2021-09-22T08:54:07Z</time>
      </trkpt>
      <trkpt lat="43.16184" lon="5.69361">
        <ele>83.1</ele>
        <time>2021-09-22T08:54:15Z</time>
      </trkpt>
      <trkpt lat="43.16179" lon="5.6936">
        <ele>83.9</ele>
        <time>2021-09-22T08:54:21Z</time>
      </trkpt>
      <trkpt lat="43.16174" lon="5.69362">
        <ele>84.9</ele>
        <time>2021-09-22T08:54:25Z</time>
      </trkpt>
      <trkpt lat="43.1617" lon="5.69363">
        <ele>85.9</ele>
        <time>2021-09-22T08:54:29Z</time>
      </trkpt>
      <trkpt lat="43.16164" lon="5.69361">
        <ele>86.3</ele>
        <time>2021-09-22T08:54:35Z</time>
      </trkpt>
      <trkpt lat="43.1616" lon="5.69357">
        <ele>86</ele>
        <time>2021-09-22T08:54:41Z</time>
      </trkpt>
      <trkpt lat="43.16156" lon="5.69351">
        <ele>85.4</ele>
        <time>2021-09-22T08:54:47Z</time>
      </trkpt>
      <trkpt lat="43.16153" lon="5.69344">
        <ele>84.7</ele>
        <time>2021-09-22T08:54:53Z</time>
      </trkpt>
      <trkpt lat="43.1615" lon="5.69336">
        <ele>83.6</ele>
        <time>2021-09-22T08:54:59Z</time>
      </trkpt>
      <trkpt lat="43.16148" lon="5.69329">
        <ele>82.8</ele>
        <time>2021-09-22T08:55:05Z</time>
      </trkpt>
      <trkpt lat="43.16145" lon="5.6932">
        <ele>82</ele>
        <time>2021-09-22T08:55:11Z</time>
      </trkpt>
      <trkpt lat="43.16142" lon="5.69315">
        <ele>81.6</ele>
        <time>2021-09-22T08:55:15Z</time>
      </trkpt>
      <trkpt lat="43.16138" lon="5.69308">
        <ele>81.1</ele>
        <time>2021-09-22T08:55:21Z</time>
      </trkpt>
      <trkpt lat="43.16134" lon="5.69302">
        <ele>80.9</ele>
        <time>2021-09-22T08:55:27Z</time>
      </trkpt>
      <trkpt lat="43.16129" lon="5.69298">
        <ele>81</ele>
        <time>2021-09-22T08:55:33Z</time>
      </trkpt>
      <trkpt lat="43.16125" lon="5.69295">
        <ele>81.2</ele>
        <time>2021-09-22T08:55:39Z</time>
      </trkpt>
      <trkpt lat="43.16121" lon="5.69292">
        <ele>81.4</ele>
        <time>2021-09-22T08:55:49Z</time>
      </trkpt>
      <trkpt lat="43.16115" lon="5.6929">
        <ele>82</ele>
        <time>2021-09-22T08:56:15Z</time>
      </trkpt>
      <trkpt lat="43.16111" lon="5.69286">
        <ele>82.2</ele>
        <time>2021-09-22T08:56:21Z</time>
      </trkpt>
      <trkpt lat="43.16106" lon="5.69282">
        <ele>82.5</ele>
        <time>2021-09-22T08:56:29Z</time>
      </trkpt>
      <trkpt lat="43.16102" lon="5.69279">
        <ele>82.6</ele>
        <time>2021-09-22T08:56:35Z</time>
      </trkpt>
      <trkpt lat="43.16097" lon="5.69274">
        <ele>82.6</ele>
        <time>2021-09-22T08:56:43Z</time>
      </trkpt>
      <trkpt lat="43.16092" lon="5.69271">
        <ele>83.2</ele>
        <time>2021-09-22T08:56:49Z</time>
      </trkpt>
      <trkpt lat="43.16088" lon="5.69268">
        <ele>83.5</ele>
        <time>2021-09-22T08:56:57Z</time>
      </trkpt>
      <trkpt lat="43.16084" lon="5.69262">
        <ele>83.4</ele>
        <time>2021-09-22T08:57:03Z</time>
      </trkpt>
      <trkpt lat="43.16081" lon="5.69257">
        <ele>82.9</ele>
        <time>2021-09-22T08:57:09Z</time>
      </trkpt>
      <trkpt lat="43.16078" lon="5.69252">
        <ele>82.4</ele>
        <time>2021-09-22T08:57:15Z</time>
      </trkpt>
      <trkpt lat="43.16072" lon="5.69252">
        <ele>82.6</ele>
        <time>2021-09-22T08:57:21Z</time>
      </trkpt>
      <trkpt lat="43.16067" lon="5.69253">
        <ele>82.9</ele>
        <time>2021-09-22T08:57:29Z</time>
      </trkpt>
      <trkpt lat="43.16063" lon="5.69257">
        <ele>83.4</ele>
        <time>2021-09-22T08:57:39Z</time>
      </trkpt>
      <trkpt lat="43.16058" lon="5.69258">
        <ele>83.6</ele>
        <time>2021-09-22T08:57:45Z</time>
      </trkpt>
      <trkpt lat="43.16053" lon="5.69254">
        <ele>83.4</ele>
        <time>2021-09-22T08:57:51Z</time>
      </trkpt>
      <trkpt lat="43.16049" lon="5.69249">
        <ele>83.3</ele>
        <time>2021-09-22T08:57:57Z</time>
      </trkpt>
      <trkpt lat="43.16045" lon="5.69242">
        <ele>83.8</ele>
        <time>2021-09-22T08:58:03Z</time>
      </trkpt>
      <trkpt lat="43.16041" lon="5.69236">
        <ele>84.4</ele>
        <time>2021-09-22T08:58:09Z</time>
      </trkpt>
      <trkpt lat="43.16036" lon="5.69231">
        <ele>84.9</ele>
        <time>2021-09-22T08:58:15Z</time>
      </trkpt>
      <trkpt lat="43.16031" lon="5.69226">
        <ele>85.4</ele>
        <time>2021-09-22T08:58:21Z</time>
      </trkpt>
      <trkpt lat="43.16027" lon="5.69222">
        <ele>85.8</ele>
        <time>2021-09-22T08:58:27Z</time>
      </trkpt>
      <trkpt lat="43.16024" lon="5.69217">
        <ele>86.3</ele>
        <time>2021-09-22T08:58:33Z</time>
      </trkpt>
      <trkpt lat="43.1602" lon="5.69212">
        <ele>86.8</ele>
        <time>2021-09-22T08:58:39Z</time>
      </trkpt>
      <trkpt lat="43.16017" lon="5.69205">
        <ele>87.4</ele>
        <time>2021-09-22T08:58:45Z</time>
      </trkpt>
      <trkpt lat="43.16013" lon="5.692">
        <ele>87.9</ele>
        <time>2021-09-22T08:58:51Z</time>
      </trkpt>
      <trkpt lat="43.16008" lon="5.69194">
        <ele>88.6</ele>
        <time>2021-09-22T08:58:57Z</time>
      </trkpt>
      <trkpt lat="43.16005" lon="5.69188">
        <ele>89.2</ele>
        <time>2021-09-22T08:59:03Z</time>
      </trkpt>
      <trkpt lat="43.16001" lon="5.69182">
        <ele>89.8</ele>
        <time>2021-09-22T08:59:09Z</time>
      </trkpt>
      <trkpt lat="43.15997" lon="5.69178">
        <ele>90</ele>
        <time>2021-09-22T08:59:15Z</time>
      </trkpt>
      <trkpt lat="43.15993" lon="5.69173">
        <ele>90.2</ele>
        <time>2021-09-22T08:59:21Z</time>
      </trkpt>
      <trkpt lat="43.15989" lon="5.69167">
        <ele>90.4</ele>
        <time>2021-09-22T08:59:27Z</time>
      </trkpt>
      <trkpt lat="43.15986" lon="5.69161">
        <ele>91</ele>
        <time>2021-09-22T08:59:33Z</time>
      </trkpt>
      <trkpt lat="43.15984" lon="5.69155">
        <ele>91.6</ele>
        <time>2021-09-22T08:59:39Z</time>
      </trkpt>
      <trkpt lat="43.1598" lon="5.6915">
        <ele>92</ele>
        <time>2021-09-22T08:59:45Z</time>
      </trkpt>
      <trkpt lat="43.15975" lon="5.69145">
        <ele>92.4</ele>
        <time>2021-09-22T08:59:51Z</time>
      </trkpt>
      <trkpt lat="43.1597" lon="5.69141">
        <ele>92.7</ele>
        <time>2021-09-22T08:59:57Z</time>
      </trkpt>
      <trkpt lat="43.15964" lon="5.69138">
        <ele>92.8</ele>
        <time>2021-09-22T09:00:03Z</time>
      </trkpt>
      <trkpt lat="43.15958" lon="5.69135">
        <ele>93</ele>
        <time>2021-09-22T09:00:11Z</time>
      </trkpt>
      <trkpt lat="43.15953" lon="5.69133">
        <ele>93.1</ele>
        <time>2021-09-22T09:00:17Z</time>
      </trkpt>
      <trkpt lat="43.15948" lon="5.6913">
        <ele>93.3</ele>
        <time>2021-09-22T09:00:23Z</time>
      </trkpt>
      <trkpt lat="43.15942" lon="5.69127">
        <ele>93.5</ele>
        <time>2021-09-22T09:00:29Z</time>
      </trkpt>
      <trkpt lat="43.15938" lon="5.69125">
        <ele>93.7</ele>
        <time>2021-09-22T09:00:35Z</time>
      </trkpt>
      <trkpt lat="43.15933" lon="5.69123">
        <ele>93.8</ele>
        <time>2021-09-22T09:00:41Z</time>
      </trkpt>
      <trkpt lat="43.15928" lon="5.69119">
        <ele>94.1</ele>
        <time>2021-09-22T09:00:49Z</time>
      </trkpt>
      <trkpt lat="43.15924" lon="5.69116">
        <ele>94.5</ele>
        <time>2021-09-22T09:00:55Z</time>
      </trkpt>
      <trkpt lat="43.1592" lon="5.69111">
        <ele>95.1</ele>
        <time>2021-09-22T09:01:01Z</time>
      </trkpt>
      <trkpt lat="43.15916" lon="5.69106">
        <ele>95.7</ele>
        <time>2021-09-22T09:01:07Z</time>
      </trkpt>
      <trkpt lat="43.15911" lon="5.69101">
        <ele>96.3</ele>
        <time>2021-09-22T09:01:13Z</time>
      </trkpt>
      <trkpt lat="43.15906" lon="5.69097">
        <ele>96.8</ele>
        <time>2021-09-22T09:01:19Z</time>
      </trkpt>
      <trkpt lat="43.15901" lon="5.69092">
        <ele>97.3</ele>
        <time>2021-09-22T09:01:27Z</time>
      </trkpt>
      <trkpt lat="43.15897" lon="5.69088">
        <ele>97.7</ele>
        <time>2021-09-22T09:01:33Z</time>
      </trkpt>
      <trkpt lat="43.15893" lon="5.69082">
        <ele>98.4</ele>
        <time>2021-09-22T09:01:39Z</time>
      </trkpt>
      <trkpt lat="43.15889" lon="5.69077">
        <ele>98.9</ele>
        <time>2021-09-22T09:01:45Z</time>
      </trkpt>
      <trkpt lat="43.15885" lon="5.69072">
        <ele>99.4</ele>
        <time>2021-09-22T09:01:51Z</time>
      </trkpt>
      <trkpt lat="43.1588" lon="5.69068">
        <ele>99.6</ele>
        <time>2021-09-22T09:01:57Z</time>
      </trkpt>
      <trkpt lat="43.15875" lon="5.69064">
        <ele>99.8</ele>
        <time>2021-09-22T09:02:03Z</time>
      </trkpt>
      <trkpt lat="43.1587" lon="5.6906">
        <ele>99.9</ele>
        <time>2021-09-22T09:02:09Z</time>
      </trkpt>
      <trkpt lat="43.15865" lon="5.69056">
        <ele>100.1</ele>
        <time>2021-09-22T09:02:15Z</time>
      </trkpt>
      <trkpt lat="43.1586" lon="5.69053">
        <ele>100</ele>
        <time>2021-09-22T09:02:21Z</time>
      </trkpt>
      <trkpt lat="43.15855" lon="5.69048">
        <ele>100</ele>
        <time>2021-09-22T09:02:27Z</time>
      </trkpt>
      <trkpt lat="43.1585" lon="5.69043">
        <ele>100</ele>
        <time>2021-09-22T09:02:33Z</time>
      </trkpt>
      <trkpt lat="43.15846" lon="5.69038">
        <ele>99.9</ele>
        <time>2021-09-22T09:02:39Z</time>
      </trkpt>
      <trkpt lat="43.1584" lon="5.69034">
        <ele>99.7</ele>
        <time>2021-09-22T09:02:45Z</time>
      </trkpt>
      <trkpt lat="43.15836" lon="5.69031">
        <ele>99.5</ele>
        <time>2021-09-22T09:02:49Z</time>
      </trkpt>
      <trkpt lat="43.15831" lon="5.69028">
        <ele>99.3</ele>
        <time>2021-09-22T09:02:55Z</time>
      </trkpt>
      <trkpt lat="43.15825" lon="5.69023">
        <ele>99.4</ele>
        <time>2021-09-22T09:03:01Z</time>
      </trkpt>
      <trkpt lat="43.15821" lon="5.6902">
        <ele>99.4</ele>
        <time>2021-09-22T09:03:05Z</time>
      </trkpt>
      <trkpt lat="43.15817" lon="5.69016">
        <ele>99.5</ele>
        <time>2021-09-22T09:03:11Z</time>
      </trkpt>
      <trkpt lat="43.15815" lon="5.69011">
        <ele>99.5</ele>
        <time>2021-09-22T09:03:17Z</time>
      </trkpt>
      <trkpt lat="43.15815" lon="5.69004">
        <ele>99.8</ele>
        <time>2021-09-22T09:07:01Z</time>
      </trkpt>
      <trkpt lat="43.15816" lon="5.68997">
        <ele>100</ele>
        <time>2021-09-22T09:07:45Z</time>
      </trkpt>
      <trkpt lat="43.15816" lon="5.6899">
        <ele>100.3</ele>
        <time>2021-09-22T09:07:53Z</time>
      </trkpt>
      <trkpt lat="43.15814" lon="5.68984">
        <ele>100.3</ele>
        <time>2021-09-22T09:07:57Z</time>
      </trkpt>
      <trkpt lat="43.1581" lon="5.68978">
        <ele>100.1</ele>
        <time>2021-09-22T09:08:05Z</time>
      </trkpt>
      <trkpt lat="43.15805" lon="5.68979">
        <ele>99.6</ele>
        <time>2021-09-22T09:08:11Z</time>
      </trkpt>
      <trkpt lat="43.15807" lon="5.68973">
        <ele>99.9</ele>
        <time>2021-09-22T09:08:37Z</time>
      </trkpt>
      <trkpt lat="43.15809" lon="5.68965">
        <ele>100.3</ele>
        <time>2021-09-22T09:08:43Z</time>
      </trkpt>
      <trkpt lat="43.15809" lon="5.68959">
        <ele>100.4</ele>
        <time>2021-09-22T09:08:49Z</time>
      </trkpt>
      <trkpt lat="43.15809" lon="5.68951">
        <ele>100.5</ele>
        <time>2021-09-22T09:08:55Z</time>
      </trkpt>
      <trkpt lat="43.15808" lon="5.68944">
        <ele>100.6</ele>
        <time>2021-09-22T09:09:01Z</time>
      </trkpt>
      <trkpt lat="43.15808" lon="5.68936">
        <ele>100.8</ele>
        <time>2021-09-22T09:09:07Z</time>
      </trkpt>
      <trkpt lat="43.15808" lon="5.68929">
        <ele>100.9</ele>
        <time>2021-09-22T09:09:13Z</time>
      </trkpt>
      <trkpt lat="43.15808" lon="5.68922">
        <ele>101.1</ele>
        <time>2021-09-22T09:09:19Z</time>
      </trkpt>
      <trkpt lat="43.15809" lon="5.68915">
        <ele>101.5</ele>
        <time>2021-09-22T09:09:25Z</time>
      </trkpt>
      <trkpt lat="43.15813" lon="5.6891">
        <ele>102.7</ele>
        <time>2021-09-22T09:09:31Z</time>
      </trkpt>
      <trkpt lat="43.15813" lon="5.68902">
        <ele>103.3</ele>
        <time>2021-09-22T09:09:37Z</time>
      </trkpt>
      <trkpt lat="43.1581" lon="5.68895">
        <ele>103.4</ele>
        <time>2021-09-22T09:09:43Z</time>
      </trkpt>
      <trkpt lat="43.15806" lon="5.68889">
        <ele>103.2</ele>
        <time>2021-09-22T09:09:47Z</time>
      </trkpt>
      <trkpt lat="43.15802" lon="5.68884">
        <ele>102.9</ele>
        <time>2021-09-22T09:09:53Z</time>
      </trkpt>
      <trkpt lat="43.15798" lon="5.68879">
        <ele>102.6</ele>
        <time>2021-09-22T09:09:59Z</time>
      </trkpt>
      <trkpt lat="43.15795" lon="5.68874">
        <ele>102.5</ele>
        <time>2021-09-22T09:10:05Z</time>
      </trkpt>
      <trkpt lat="43.15792" lon="5.68868">
        <ele>102.5</ele>
        <time>2021-09-22T09:10:11Z</time>
      </trkpt>
      <trkpt lat="43.15789" lon="5.68863">
        <ele>102.3</ele>
        <time>2021-09-22T09:10:17Z</time>
      </trkpt>
      <trkpt lat="43.15785" lon="5.68857">
        <ele>102.1</ele>
        <time>2021-09-22T09:10:23Z</time>
      </trkpt>
      <trkpt lat="43.15782" lon="5.68852">
        <ele>102</ele>
        <time>2021-09-22T09:10:29Z</time>
      </trkpt>
      <trkpt lat="43.15779" lon="5.68846">
        <ele>102</ele>
        <time>2021-09-22T09:10:37Z</time>
      </trkpt>
      <trkpt lat="43.15775" lon="5.68842">
        <ele>101.7</ele>
        <time>2021-09-22T09:10:43Z</time>
      </trkpt>
      <trkpt lat="43.15772" lon="5.68837">
        <ele>101.7</ele>
        <time>2021-09-22T09:10:49Z</time>
      </trkpt>
      <trkpt lat="43.15769" lon="5.6883">
        <ele>101.9</ele>
        <time>2021-09-22T09:10:57Z</time>
      </trkpt>
      <trkpt lat="43.15766" lon="5.68825">
        <ele>101.8</ele>
        <time>2021-09-22T09:11:05Z</time>
      </trkpt>
      <trkpt lat="43.15762" lon="5.68819">
        <ele>101.8</ele>
        <time>2021-09-22T09:11:11Z</time>
      </trkpt>
      <trkpt lat="43.15759" lon="5.68815">
        <ele>101.7</ele>
        <time>2021-09-22T09:11:17Z</time>
      </trkpt>
      <trkpt lat="43.15756" lon="5.68808">
        <ele>102</ele>
        <time>2021-09-22T09:11:23Z</time>
      </trkpt>
      <trkpt lat="43.15754" lon="5.68803">
        <ele>102.1</ele>
        <time>2021-09-22T09:11:29Z</time>
      </trkpt>
      <trkpt lat="43.1575" lon="5.68797">
        <ele>102</ele>
        <time>2021-09-22T09:11:37Z</time>
      </trkpt>
      <trkpt lat="43.15747" lon="5.68792">
        <ele>102.1</ele>
        <time>2021-09-22T09:11:43Z</time>
      </trkpt>
      <trkpt lat="43.15744" lon="5.68787">
        <ele>102.1</ele>
        <time>2021-09-22T09:11:49Z</time>
      </trkpt>
      <trkpt lat="43.15741" lon="5.68782">
        <ele>102.2</ele>
        <time>2021-09-22T09:11:55Z</time>
      </trkpt>
      <trkpt lat="43.15737" lon="5.68777">
        <ele>102.3</ele>
        <time>2021-09-22T09:12:01Z</time>
      </trkpt>
      <trkpt lat="43.15734" lon="5.68771">
        <ele>102.4</ele>
        <time>2021-09-22T09:12:07Z</time>
      </trkpt>
      <trkpt lat="43.15729" lon="5.68766">
        <ele>102.3</ele>
        <time>2021-09-22T09:12:13Z</time>
      </trkpt>
      <trkpt lat="43.15726" lon="5.68761">
        <ele>102.4</ele>
        <time>2021-09-22T09:12:19Z</time>
      </trkpt>
      <trkpt lat="43.15723" lon="5.68756">
        <ele>102.5</ele>
        <time>2021-09-22T09:12:25Z</time>
      </trkpt>
      <trkpt lat="43.15722" lon="5.6875">
        <ele>103</ele>
        <time>2021-09-22T09:12:31Z</time>
      </trkpt>
      <trkpt lat="43.15723" lon="5.68742">
        <ele>102.6</ele>
        <time>2021-09-22T09:12:37Z</time>
      </trkpt>
      <trkpt lat="43.15726" lon="5.68735">
        <ele>102.5</ele>
        <time>2021-09-22T09:12:43Z</time>
      </trkpt>
      <trkpt lat="43.15728" lon="5.68729">
        <ele>102.5</ele>
        <time>2021-09-22T09:12:49Z</time>
      </trkpt>
      <trkpt lat="43.15732" lon="5.68724">
        <ele>102.8</ele>
        <time>2021-09-22T09:12:55Z</time>
      </trkpt>
      <trkpt lat="43.15735" lon="5.68719">
        <ele>103.2</ele>
        <time>2021-09-22T09:13:01Z</time>
      </trkpt>
      <trkpt lat="43.15739" lon="5.68712">
        <ele>103.5</ele>
        <time>2021-09-22T09:13:07Z</time>
      </trkpt>
      <trkpt lat="43.15742" lon="5.68705">
        <ele>103.8</ele>
        <time>2021-09-22T09:13:13Z</time>
      </trkpt>
      <trkpt lat="43.15745" lon="5.68699">
        <ele>104</ele>
        <time>2021-09-22T09:13:17Z</time>
      </trkpt>
      <trkpt lat="43.15746" lon="5.68694">
        <ele>104.2</ele>
        <time>2021-09-22T09:13:21Z</time>
      </trkpt>
      <trkpt lat="43.15749" lon="5.68686">
        <ele>104.6</ele>
        <time>2021-09-22T09:13:27Z</time>
      </trkpt>
      <trkpt lat="43.15753" lon="5.68679">
        <ele>105.3</ele>
        <time>2021-09-22T09:13:33Z</time>
      </trkpt>
      <trkpt lat="43.15757" lon="5.68674">
        <ele>106.5</ele>
        <time>2021-09-22T09:13:39Z</time>
      </trkpt>
      <trkpt lat="43.1576" lon="5.68668">
        <ele>107.4</ele>
        <time>2021-09-22T09:13:45Z</time>
      </trkpt>
      <trkpt lat="43.15763" lon="5.68661">
        <ele>108.3</ele>
        <time>2021-09-22T09:13:51Z</time>
      </trkpt>
      <trkpt lat="43.15766" lon="5.68655">
        <ele>109.2</ele>
        <time>2021-09-22T09:13:57Z</time>
      </trkpt>
      <trkpt lat="43.15767" lon="5.68648">
        <ele>109.6</ele>
        <time>2021-09-22T09:14:03Z</time>
      </trkpt>
      <trkpt lat="43.15769" lon="5.68641">
        <ele>110.1</ele>
        <time>2021-09-22T09:14:09Z</time>
      </trkpt>
      <trkpt lat="43.15769" lon="5.68634">
        <ele>110.3</ele>
        <time>2021-09-22T09:14:15Z</time>
      </trkpt>
      <trkpt lat="43.15768" lon="5.68628">
        <ele>109.9</ele>
        <time>2021-09-22T09:14:21Z</time>
      </trkpt>
      <trkpt lat="43.15766" lon="5.68622">
        <ele>109.5</ele>
        <time>2021-09-22T09:14:27Z</time>
      </trkpt>
      <trkpt lat="43.15764" lon="5.68616">
        <ele>109</ele>
        <time>2021-09-22T09:14:33Z</time>
      </trkpt>
      <trkpt lat="43.15761" lon="5.68611">
        <ele>108.3</ele>
        <time>2021-09-22T09:14:37Z</time>
      </trkpt>
      <trkpt lat="43.15756" lon="5.68607">
        <ele>107.5</ele>
        <time>2021-09-22T09:14:41Z</time>
      </trkpt>
      <trkpt lat="43.15752" lon="5.68603">
        <ele>106.7</ele>
        <time>2021-09-22T09:14:45Z</time>
      </trkpt>
      <trkpt lat="43.15747" lon="5.68597">
        <ele>105.7</ele>
        <time>2021-09-22T09:14:51Z</time>
      </trkpt>
      <trkpt lat="43.15743" lon="5.68591">
        <ele>104.7</ele>
        <time>2021-09-22T09:14:57Z</time>
      </trkpt>
      <trkpt lat="43.15738" lon="5.68585">
        <ele>103.7</ele>
        <time>2021-09-22T09:15:03Z</time>
      </trkpt>
      <trkpt lat="43.15734" lon="5.68581">
        <ele>102.6</ele>
        <time>2021-09-22T09:15:07Z</time>
      </trkpt>
      <trkpt lat="43.15731" lon="5.68578">
        <ele>101.4</ele>
        <time>2021-09-22T09:15:11Z</time>
      </trkpt>
      <trkpt lat="43.15727" lon="5.68574">
        <ele>100.1</ele>
        <time>2021-09-22T09:15:15Z</time>
      </trkpt>
      <trkpt lat="43.15722" lon="5.68571">
        <ele>98.8</ele>
        <time>2021-09-22T09:15:21Z</time>
      </trkpt>
      <trkpt lat="43.15716" lon="5.68567">
        <ele>97.4</ele>
        <time>2021-09-22T09:15:27Z</time>
      </trkpt>
      <trkpt lat="43.15711" lon="5.68565">
        <ele>96.3</ele>
        <time>2021-09-22T09:15:33Z</time>
      </trkpt>
      <trkpt lat="43.15708" lon="5.68558">
        <ele>95.6</ele>
        <time>2021-09-22T09:15:39Z</time>
      </trkpt>
      <trkpt lat="43.15705" lon="5.6855">
        <ele>95</ele>
        <time>2021-09-22T09:15:45Z</time>
      </trkpt>
      <trkpt lat="43.15701" lon="5.68543">
        <ele>94.5</ele>
        <time>2021-09-22T09:15:51Z</time>
      </trkpt>
      <trkpt lat="43.15699" lon="5.68536">
        <ele>94.3</ele>
        <time>2021-09-22T09:15:57Z</time>
      </trkpt>
      <trkpt lat="43.15696" lon="5.68528">
        <ele>94.3</ele>
        <time>2021-09-22T09:16:03Z</time>
      </trkpt>
      <trkpt lat="43.15693" lon="5.68522">
        <ele>94.2</ele>
        <time>2021-09-22T09:16:09Z</time>
      </trkpt>
      <trkpt lat="43.15689" lon="5.68516">
        <ele>94.1</ele>
        <time>2021-09-22T09:16:15Z</time>
      </trkpt>
      <trkpt lat="43.15685" lon="5.68511">
        <ele>94.1</ele>
        <time>2021-09-22T09:16:21Z</time>
      </trkpt>
      <trkpt lat="43.1568" lon="5.68505">
        <ele>94.3</ele>
        <time>2021-09-22T09:16:27Z</time>
      </trkpt>
      <trkpt lat="43.15676" lon="5.68501">
        <ele>94.3</ele>
        <time>2021-09-22T09:16:31Z</time>
      </trkpt>
      <trkpt lat="43.15672" lon="5.68499">
        <ele>94.1</ele>
        <time>2021-09-22T09:16:35Z</time>
      </trkpt>
      <trkpt lat="43.15667" lon="5.68496">
        <ele>93.5</ele>
        <time>2021-09-22T09:16:39Z</time>
      </trkpt>
      <trkpt lat="43.15664" lon="5.68492">
        <ele>92</ele>
        <time>2021-09-22T09:16:45Z</time>
      </trkpt>
      <trkpt lat="43.15658" lon="5.68488">
        <ele>89.8</ele>
        <time>2021-09-22T09:16:51Z</time>
      </trkpt>
      <trkpt lat="43.15653" lon="5.68486">
        <ele>87.7</ele>
        <time>2021-09-22T09:16:57Z</time>
      </trkpt>
      <trkpt lat="43.15649" lon="5.68483">
        <ele>86.1</ele>
        <time>2021-09-22T09:17:01Z</time>
      </trkpt>
      <trkpt lat="43.15643" lon="5.68482">
        <ele>84.3</ele>
        <time>2021-09-22T09:17:05Z</time>
      </trkpt>
      <trkpt lat="43.15639" lon="5.68479">
        <ele>82.7</ele>
        <time>2021-09-22T09:17:09Z</time>
      </trkpt>
      <trkpt lat="43.15635" lon="5.68474">
        <ele>80.8</ele>
        <time>2021-09-22T09:17:15Z</time>
      </trkpt>
      <trkpt lat="43.15632" lon="5.68469">
        <ele>79.7</ele>
        <time>2021-09-22T09:17:21Z</time>
      </trkpt>
      <trkpt lat="43.15632" lon="5.68462">
        <ele>79.1</ele>
        <time>2021-09-22T09:17:29Z</time>
      </trkpt>
      <trkpt lat="43.15634" lon="5.68454">
        <ele>79.2</ele>
        <time>2021-09-22T09:17:37Z</time>
      </trkpt>
      <trkpt lat="43.15636" lon="5.68449">
        <ele>79.1</ele>
        <time>2021-09-22T09:17:43Z</time>
      </trkpt>
      <trkpt lat="43.15637" lon="5.68441">
        <ele>79</ele>
        <time>2021-09-22T09:17:49Z</time>
      </trkpt>
      <trkpt lat="43.15639" lon="5.68435">
        <ele>78.9</ele>
        <time>2021-09-22T09:17:57Z</time>
      </trkpt>
      <trkpt lat="43.15643" lon="5.68429">
        <ele>79.3</ele>
        <time>2021-09-22T09:18:05Z</time>
      </trkpt>
      <trkpt lat="43.15646" lon="5.68424">
        <ele>79.5</ele>
        <time>2021-09-22T09:18:11Z</time>
      </trkpt>
      <trkpt lat="43.15649" lon="5.68417">
        <ele>79.5</ele>
        <time>2021-09-22T09:18:25Z</time>
      </trkpt>
      <trkpt lat="43.15654" lon="5.68414">
        <ele>79.8</ele>
        <time>2021-09-22T09:18:35Z</time>
      </trkpt>
      <trkpt lat="43.15657" lon="5.68409">
        <ele>78.9</ele>
        <time>2021-09-22T09:18:43Z</time>
      </trkpt>
      <trkpt lat="43.15661" lon="5.68408">
        <ele>79.5</ele>
        <time>2021-09-22T09:19:21Z</time>
      </trkpt>
      <trkpt lat="43.15663" lon="5.68401">
        <ele>77.9</ele>
        <time>2021-09-22T09:22:19Z</time>
      </trkpt>
      <trkpt lat="43.15663" lon="5.68395">
        <ele>76.1</ele>
        <time>2021-09-22T09:22:33Z</time>
      </trkpt>
      <trkpt lat="43.15662" lon="5.68388">
        <ele>74.4</ele>
        <time>2021-09-22T09:22:47Z</time>
      </trkpt>
      <trkpt lat="43.15658" lon="5.68385">
        <ele>72.7</ele>
        <time>2021-09-22T09:22:59Z</time>
      </trkpt>
      <trkpt lat="43.15652" lon="5.68386">
        <ele>71.9</ele>
        <time>2021-09-22T09:23:23Z</time>
      </trkpt>
      <trkpt lat="43.15647" lon="5.68385">
        <ele>70.6</ele>
        <time>2021-09-22T09:23:29Z</time>
      </trkpt>
      <trkpt lat="43.1564" lon="5.68383">
        <ele>68.8</ele>
        <time>2021-09-22T09:23:41Z</time>
      </trkpt>
      <trkpt lat="43.15636" lon="5.6838">
        <ele>67.1</ele>
        <time>2021-09-22T09:23:47Z</time>
      </trkpt>
      <trkpt lat="43.15631" lon="5.68378">
        <ele>65.6</ele>
        <time>2021-09-22T09:23:53Z</time>
      </trkpt>
      <trkpt lat="43.15631" lon="5.68371">
        <ele>63.7</ele>
        <time>2021-09-22T09:24:03Z</time>
      </trkpt>
      <trkpt lat="43.15634" lon="5.68366">
        <ele>63.1</ele>
        <time>2021-09-22T09:24:11Z</time>
      </trkpt>
      <trkpt lat="43.15632" lon="5.6836">
        <ele>61.1</ele>
        <time>2021-09-22T09:24:29Z</time>
      </trkpt>
      <trkpt lat="43.15628" lon="5.68356">
        <ele>59.2</ele>
        <time>2021-09-22T09:24:39Z</time>
      </trkpt>
      <trkpt lat="43.15624" lon="5.68351">
        <ele>57.4</ele>
        <time>2021-09-22T09:24:47Z</time>
      </trkpt>
      <trkpt lat="43.1562" lon="5.68347">
        <ele>55.8</ele>
        <time>2021-09-22T09:24:59Z</time>
      </trkpt>
      <trkpt lat="43.15623" lon="5.68342">
        <ele>54.8</ele>
        <time>2021-09-22T09:25:15Z</time>
      </trkpt>
      <trkpt lat="43.15619" lon="5.68337">
        <ele>53.1</ele>
        <time>2021-09-22T09:25:27Z</time>
      </trkpt>
      <trkpt lat="43.15615" lon="5.68335">
        <ele>51.8</ele>
        <time>2021-09-22T09:25:43Z</time>
      </trkpt>
      <trkpt lat="43.1561" lon="5.68334">
        <ele>50.5</ele>
        <time>2021-09-22T09:25:55Z</time>
      </trkpt>
      <trkpt lat="43.15605" lon="5.68331">
        <ele>48.7</ele>
        <time>2021-09-22T09:26:05Z</time>
      </trkpt>
      <trkpt lat="43.156" lon="5.68333">
        <ele>48.4</ele>
        <time>2021-09-22T09:26:15Z</time>
      </trkpt>
      <trkpt lat="43.15595" lon="5.68335">
        <ele>48.4</ele>
        <time>2021-09-22T09:26:43Z</time>
      </trkpt>
      <trkpt lat="43.15592" lon="5.68341">
        <ele>49.2</ele>
        <time>2021-09-22T09:26:53Z</time>
      </trkpt>
      <trkpt lat="43.15588" lon="5.68345">
        <ele>49.5</ele>
        <time>2021-09-22T09:27:11Z</time>
      </trkpt>
      <trkpt lat="43.15585" lon="5.6835">
        <ele>50.4</ele>
        <time>2021-09-22T09:27:19Z</time>
      </trkpt>
      <trkpt lat="43.15583" lon="5.68356">
        <ele>51.4</ele>
        <time>2021-09-22T09:27:27Z</time>
      </trkpt>
      <trkpt lat="43.15579" lon="5.6836">
        <ele>50.2</ele>
        <time>2021-09-22T09:27:37Z</time>
      </trkpt>
      <trkpt lat="43.15573" lon="5.68361">
        <ele>48.3</ele>
        <time>2021-09-22T09:27:45Z</time>
      </trkpt>
      <trkpt lat="43.15569" lon="5.68365">
        <ele>47.2</ele>
        <time>2021-09-22T09:27:57Z</time>
      </trkpt>
      <trkpt lat="43.15567" lon="5.68372">
        <ele>47.9</ele>
        <time>2021-09-22T09:28:09Z</time>
      </trkpt>
      <trkpt lat="43.15566" lon="5.68379">
        <ele>48.5</ele>
        <time>2021-09-22T09:28:17Z</time>
      </trkpt>
      <trkpt lat="43.15565" lon="5.68386">
        <ele>49.5</ele>
        <time>2021-09-22T09:28:25Z</time>
      </trkpt>
      <trkpt lat="43.15564" lon="5.68392">
        <ele>50.4</ele>
        <time>2021-09-22T09:28:33Z</time>
      </trkpt>
      <trkpt lat="43.15563" lon="5.68398">
        <ele>50.8</ele>
        <time>2021-09-22T09:28:41Z</time>
      </trkpt>
      <trkpt lat="43.15559" lon="5.68403">
        <ele>49.9</ele>
        <time>2021-09-22T09:29:09Z</time>
      </trkpt>
      <trkpt lat="43.15558" lon="5.68409">
        <ele>50.5</ele>
        <time>2021-09-22T09:29:17Z</time>
      </trkpt>
      <trkpt lat="43.15556" lon="5.68416">
        <ele>50.4</ele>
        <time>2021-09-22T09:29:25Z</time>
      </trkpt>
      <trkpt lat="43.15554" lon="5.68421">
        <ele>49.5</ele>
        <time>2021-09-22T09:29:31Z</time>
      </trkpt>
      <trkpt lat="43.15553" lon="5.68428">
        <ele>48.6</ele>
        <time>2021-09-22T09:29:41Z</time>
      </trkpt>
      <trkpt lat="43.1555" lon="5.68433">
        <ele>47.3</ele>
        <time>2021-09-22T09:29:47Z</time>
      </trkpt>
      <trkpt lat="43.15546" lon="5.68438">
        <ele>44.8</ele>
        <time>2021-09-22T09:29:53Z</time>
      </trkpt>
      <trkpt lat="43.15542" lon="5.68445">
        <ele>42.8</ele>
        <time>2021-09-22T09:30:01Z</time>
      </trkpt>
      <trkpt lat="43.15538" lon="5.68451">
        <ele>40.5</ele>
        <time>2021-09-22T09:30:07Z</time>
      </trkpt>
      <trkpt lat="43.15535" lon="5.68454">
        <ele>38.3</ele>
        <time>2021-09-22T09:30:13Z</time>
      </trkpt>
      <trkpt lat="43.15529" lon="5.68458">
        <ele>35.3</ele>
        <time>2021-09-22T09:30:21Z</time>
      </trkpt>
      <trkpt lat="43.15526" lon="5.68464">
        <ele>33.3</ele>
        <time>2021-09-22T09:30:27Z</time>
      </trkpt>
      <trkpt lat="43.15526" lon="5.68472">
        <ele>33.6</ele>
        <time>2021-09-22T09:30:35Z</time>
      </trkpt>
      <trkpt lat="43.15527" lon="5.6848">
        <ele>34.2</ele>
        <time>2021-09-22T09:30:41Z</time>
      </trkpt>
      <trkpt lat="43.15528" lon="5.68488">
        <ele>34.4</ele>
        <time>2021-09-22T09:30:47Z</time>
      </trkpt>
      <trkpt lat="43.15527" lon="5.68494">
        <ele>34.2</ele>
        <time>2021-09-22T09:30:53Z</time>
      </trkpt>
      <trkpt lat="43.15527" lon="5.68502">
        <ele>33.8</ele>
        <time>2021-09-22T09:31:03Z</time>
      </trkpt>
      <trkpt lat="43.15525" lon="5.68509">
        <ele>32.4</ele>
        <time>2021-09-22T09:31:11Z</time>
      </trkpt>
      <trkpt lat="43.15527" lon="5.68516">
        <ele>32.8</ele>
        <time>2021-09-22T09:31:23Z</time>
      </trkpt>
      <trkpt lat="43.15527" lon="5.68524">
        <ele>32.2</ele>
        <time>2021-09-22T09:31:33Z</time>
      </trkpt>
      <trkpt lat="43.15526" lon="5.68532">
        <ele>31.2</ele>
        <time>2021-09-22T09:31:39Z</time>
      </trkpt>
      <trkpt lat="43.15526" lon="5.6854">
        <ele>30.3</ele>
        <time>2021-09-22T09:31:45Z</time>
      </trkpt>
      <trkpt lat="43.15526" lon="5.68548">
        <ele>29.8</ele>
        <time>2021-09-22T09:31:51Z</time>
      </trkpt>
      <trkpt lat="43.15526" lon="5.68556">
        <ele>29.3</ele>
        <time>2021-09-22T09:31:57Z</time>
      </trkpt>
      <trkpt lat="43.15526" lon="5.68562">
        <ele>28.9</ele>
        <time>2021-09-22T09:32:01Z</time>
      </trkpt>
      <trkpt lat="43.15527" lon="5.68569">
        <ele>29.1</ele>
        <time>2021-09-22T09:32:07Z</time>
      </trkpt>
      <trkpt lat="43.15529" lon="5.68576">
        <ele>29.6</ele>
        <time>2021-09-22T09:32:13Z</time>
      </trkpt>
      <trkpt lat="43.15534" lon="5.68582">
        <ele>31.2</ele>
        <time>2021-09-22T09:32:19Z</time>
      </trkpt>
      <trkpt lat="43.15537" lon="5.68588">
        <ele>33.3</ele>
        <time>2021-09-22T09:32:25Z</time>
      </trkpt>
      <trkpt lat="43.15541" lon="5.68593">
        <ele>35.9</ele>
        <time>2021-09-22T09:32:33Z</time>
      </trkpt>
      <trkpt lat="43.15546" lon="5.68595">
        <ele>38.6</ele>
        <time>2021-09-22T09:32:47Z</time>
      </trkpt>
      <trkpt lat="43.15551" lon="5.68599">
        <ele>41.3</ele>
        <time>2021-09-22T09:32:53Z</time>
      </trkpt>
      <trkpt lat="43.15556" lon="5.68603">
        <ele>44.3</ele>
        <time>2021-09-22T09:33:01Z</time>
      </trkpt>
      <trkpt lat="43.15561" lon="5.68606">
        <ele>47.2</ele>
        <time>2021-09-22T09:33:07Z</time>
      </trkpt>
      <trkpt lat="43.15565" lon="5.6861">
        <ele>49.4</ele>
        <time>2021-09-22T09:33:17Z</time>
      </trkpt>
      <trkpt lat="43.15562" lon="5.68616">
        <ele>48.7</ele>
        <time>2021-09-22T09:33:33Z</time>
      </trkpt>
      <trkpt lat="43.15559" lon="5.68621">
        <ele>47.8</ele>
        <time>2021-09-22T09:33:45Z</time>
      </trkpt>
      <trkpt lat="43.15555" lon="5.68626">
        <ele>46.9</ele>
        <time>2021-09-22T09:33:53Z</time>
      </trkpt>
      <trkpt lat="43.15551" lon="5.6863">
        <ele>45.3</ele>
        <time>2021-09-22T09:34:01Z</time>
      </trkpt>
      <trkpt lat="43.15547" lon="5.68632">
        <ele>43.8</ele>
        <time>2021-09-22T09:34:07Z</time>
      </trkpt>
      <trkpt lat="43.15543" lon="5.68639">
        <ele>43.1</ele>
        <time>2021-09-22T09:34:13Z</time>
      </trkpt>
      <trkpt lat="43.15542" lon="5.68647">
        <ele>43.5</ele>
        <time>2021-09-22T09:34:19Z</time>
      </trkpt>
      <trkpt lat="43.1554" lon="5.68653">
        <ele>43.5</ele>
        <time>2021-09-22T09:34:27Z</time>
      </trkpt>
      <trkpt lat="43.15537" lon="5.68661">
        <ele>43</ele>
        <time>2021-09-22T09:34:35Z</time>
      </trkpt>
      <trkpt lat="43.15535" lon="5.68667">
        <ele>43.1</ele>
        <time>2021-09-22T09:34:39Z</time>
      </trkpt>
      <trkpt lat="43.1553" lon="5.68673">
        <ele>42.5</ele>
        <time>2021-09-22T09:34:45Z</time>
      </trkpt>
      <trkpt lat="43.15525" lon="5.68675">
        <ele>41.3</ele>
        <time>2021-09-22T09:34:51Z</time>
      </trkpt>
      <trkpt lat="43.15521" lon="5.68678">
        <ele>40.4</ele>
        <time>2021-09-22T09:34:59Z</time>
      </trkpt>
      <trkpt lat="43.15516" lon="5.68681">
        <ele>39.2</ele>
        <time>2021-09-22T09:35:05Z</time>
      </trkpt>
      <trkpt lat="43.1551" lon="5.68684">
        <ele>37.6</ele>
        <time>2021-09-22T09:35:09Z</time>
      </trkpt>
      <trkpt lat="43.15505" lon="5.6869">
        <ele>37.7</ele>
        <time>2021-09-22T09:35:15Z</time>
      </trkpt>
      <trkpt lat="43.15502" lon="5.68695">
        <ele>37.8</ele>
        <time>2021-09-22T09:35:23Z</time>
      </trkpt>
      <trkpt lat="43.15499" lon="5.68701">
        <ele>38.9</ele>
        <time>2021-09-22T09:35:33Z</time>
      </trkpt>
      <trkpt lat="43.15497" lon="5.68708">
        <ele>40.4</ele>
        <time>2021-09-22T09:35:39Z</time>
      </trkpt>
      <trkpt lat="43.15496" lon="5.68716">
        <ele>42.2</ele>
        <time>2021-09-22T09:35:45Z</time>
      </trkpt>
      <trkpt lat="43.15491" lon="5.6872">
        <ele>41.8</ele>
        <time>2021-09-22T09:35:53Z</time>
      </trkpt>
      <trkpt lat="43.15488" lon="5.68725">
        <ele>42.2</ele>
        <time>2021-09-22T09:36:13Z</time>
      </trkpt>
      <trkpt lat="43.15484" lon="5.68731">
        <ele>42.3</ele>
        <time>2021-09-22T09:36:39Z</time>
      </trkpt>
      <trkpt lat="43.15481" lon="5.68736">
        <ele>42.9</ele>
        <time>2021-09-22T09:38:07Z</time>
      </trkpt>
      <trkpt lat="43.15478" lon="5.68731">
        <ele>40.3</ele>
        <time>2021-09-22T09:39:23Z</time>
      </trkpt>
      <trkpt lat="43.15482" lon="5.68735">
        <ele>43.2</ele>
        <time>2021-09-22T09:40:51Z</time>
      </trkpt>
      <trkpt lat="43.15482" lon="5.68742">
        <ele>45</ele>
        <time>2021-09-22T09:42:11Z</time>
      </trkpt>
      <trkpt lat="43.15479" lon="5.68747">
        <ele>45.4</ele>
        <time>2021-09-22T09:42:17Z</time>
      </trkpt>
      <trkpt lat="43.15474" lon="5.68752">
        <ele>44.6</ele>
        <time>2021-09-22T09:42:23Z</time>
      </trkpt>
      <trkpt lat="43.15471" lon="5.68756">
        <ele>44.1</ele>
        <time>2021-09-22T09:42:29Z</time>
      </trkpt>
      <trkpt lat="43.15468" lon="5.68762">
        <ele>44.5</ele>
        <time>2021-09-22T09:42:35Z</time>
      </trkpt>
      <trkpt lat="43.15465" lon="5.68767">
        <ele>44.7</ele>
        <time>2021-09-22T09:42:43Z</time>
      </trkpt>
      <trkpt lat="43.1546" lon="5.68771">
        <ele>43.9</ele>
        <time>2021-09-22T09:42:47Z</time>
      </trkpt>
      <trkpt lat="43.15456" lon="5.68775">
        <ele>43.3</ele>
        <time>2021-09-22T09:42:53Z</time>
      </trkpt>
      <trkpt lat="43.15451" lon="5.68778">
        <ele>42.6</ele>
        <time>2021-09-22T09:42:59Z</time>
      </trkpt>
      <trkpt lat="43.15445" lon="5.68781">
        <ele>41.3</ele>
        <time>2021-09-22T09:43:05Z</time>
      </trkpt>
      <trkpt lat="43.15439" lon="5.68783">
        <ele>39.9</ele>
        <time>2021-09-22T09:43:11Z</time>
      </trkpt>
      <trkpt lat="43.15434" lon="5.68785">
        <ele>38.9</ele>
        <time>2021-09-22T09:43:15Z</time>
      </trkpt>
      <trkpt lat="43.1543" lon="5.68788">
        <ele>39</ele>
        <time>2021-09-22T09:43:21Z</time>
      </trkpt>
      <trkpt lat="43.15425" lon="5.68792">
        <ele>38.8</ele>
        <time>2021-09-22T09:43:27Z</time>
      </trkpt>
      <trkpt lat="43.15421" lon="5.68794">
        <ele>38.2</ele>
        <time>2021-09-22T09:43:31Z</time>
      </trkpt>
      <trkpt lat="43.15417" lon="5.68797">
        <ele>38.1</ele>
        <time>2021-09-22T09:43:35Z</time>
      </trkpt>
      <trkpt lat="43.15412" lon="5.68802">
        <ele>38.2</ele>
        <time>2021-09-22T09:43:41Z</time>
      </trkpt>
      <trkpt lat="43.15407" lon="5.68804">
        <ele>37.1</ele>
        <time>2021-09-22T09:43:45Z</time>
      </trkpt>
      <trkpt lat="43.15402" lon="5.68805">
        <ele>35.6</ele>
        <time>2021-09-22T09:43:49Z</time>
      </trkpt>
      <trkpt lat="43.15397" lon="5.68804">
        <ele>33.5</ele>
        <time>2021-09-22T09:43:55Z</time>
      </trkpt>
      <trkpt lat="43.15391" lon="5.68806">
        <ele>31.6</ele>
        <time>2021-09-22T09:44:03Z</time>
      </trkpt>
      <trkpt lat="43.15385" lon="5.68807">
        <ele>29.8</ele>
        <time>2021-09-22T09:44:09Z</time>
      </trkpt>
      <trkpt lat="43.15381" lon="5.6881">
        <ele>28.8</ele>
        <time>2021-09-22T09:44:21Z</time>
      </trkpt>
      <trkpt lat="43.15376" lon="5.68811">
        <ele>27.3</ele>
        <time>2021-09-22T09:44:29Z</time>
      </trkpt>
      <trkpt lat="43.15372" lon="5.68815">
        <ele>26.4</ele>
        <time>2021-09-22T09:44:41Z</time>
      </trkpt>
      <trkpt lat="43.15369" lon="5.68819">
        <ele>26</ele>
        <time>2021-09-22T09:44:47Z</time>
      </trkpt>
      <trkpt lat="43.15366" lon="5.68825">
        <ele>26</ele>
        <time>2021-09-22T09:44:53Z</time>
      </trkpt>
      <trkpt lat="43.15363" lon="5.68833">
        <ele>26</ele>
        <time>2021-09-22T09:44:59Z</time>
      </trkpt>
      <trkpt lat="43.15362" lon="5.68841">
        <ele>26.2</ele>
        <time>2021-09-22T09:45:05Z</time>
      </trkpt>
      <trkpt lat="43.15363" lon="5.68847">
        <ele>27.1</ele>
        <time>2021-09-22T09:45:09Z</time>
      </trkpt>
      <trkpt lat="43.15364" lon="5.68855">
        <ele>27.6</ele>
        <time>2021-09-22T09:45:15Z</time>
      </trkpt>
      <trkpt lat="43.15364" lon="5.68864">
        <ele>28.1</ele>
        <time>2021-09-22T09:45:21Z</time>
      </trkpt>
      <trkpt lat="43.15365" lon="5.68872">
        <ele>28.9</ele>
        <time>2021-09-22T09:45:27Z</time>
      </trkpt>
      <trkpt lat="43.15367" lon="5.68878">
        <ele>30.2</ele>
        <time>2021-09-22T09:45:31Z</time>
      </trkpt>
      <trkpt lat="43.15369" lon="5.68886">
        <ele>31.5</ele>
        <time>2021-09-22T09:45:37Z</time>
      </trkpt>
      <trkpt lat="43.15369" lon="5.68893">
        <ele>31.7</ele>
        <time>2021-09-22T09:45:51Z</time>
      </trkpt>
      <trkpt lat="43.1537" lon="5.68899">
        <ele>32.4</ele>
        <time>2021-09-22T09:45:57Z</time>
      </trkpt>
      <trkpt lat="43.15371" lon="5.68906">
        <ele>32.9</ele>
        <time>2021-09-22T09:46:03Z</time>
      </trkpt>
      <trkpt lat="43.15372" lon="5.68913">
        <ele>33.7</ele>
        <time>2021-09-22T09:46:09Z</time>
      </trkpt>
      <trkpt lat="43.1537" lon="5.6892">
        <ele>33</ele>
        <time>2021-09-22T09:46:25Z</time>
      </trkpt>
      <trkpt lat="43.15366" lon="5.68925">
        <ele>31.5</ele>
        <time>2021-09-22T09:46:39Z</time>
      </trkpt>
      <trkpt lat="43.15367" lon="5.68931">
        <ele>31.5</ele>
        <time>2021-09-22T09:47:05Z</time>
      </trkpt>
      <trkpt lat="43.15365" lon="5.68938">
        <ele>30.6</ele>
        <time>2021-09-22T09:47:11Z</time>
      </trkpt>
      <trkpt lat="43.15363" lon="5.68944">
        <ele>29.9</ele>
        <time>2021-09-22T09:47:17Z</time>
      </trkpt>
      <trkpt lat="43.15362" lon="5.6895">
        <ele>29.4</ele>
        <time>2021-09-22T09:47:21Z</time>
      </trkpt>
      <trkpt lat="43.15361" lon="5.68957">
        <ele>29</ele>
        <time>2021-09-22T09:47:25Z</time>
      </trkpt>
      <trkpt lat="43.15361" lon="5.68964">
        <ele>28.7</ele>
        <time>2021-09-22T09:47:29Z</time>
      </trkpt>
      <trkpt lat="43.1536" lon="5.68973">
        <ele>28.2</ele>
        <time>2021-09-22T09:47:35Z</time>
      </trkpt>
      <trkpt lat="43.15363" lon="5.68978">
        <ele>29.2</ele>
        <time>2021-09-22T09:47:47Z</time>
      </trkpt>
      <trkpt lat="43.15369" lon="5.68978">
        <ele>30.8</ele>
        <time>2021-09-22T09:47:53Z</time>
      </trkpt>
      <trkpt lat="43.15374" lon="5.6898">
        <ele>32.4</ele>
        <time>2021-09-22T09:48:01Z</time>
      </trkpt>
      <trkpt lat="43.15379" lon="5.68982">
        <ele>33.8</ele>
        <time>2021-09-22T09:48:05Z</time>
      </trkpt>
      <trkpt lat="43.15384" lon="5.68984">
        <ele>35.5</ele>
        <time>2021-09-22T09:48:13Z</time>
      </trkpt>
      <trkpt lat="43.15391" lon="5.68987">
        <ele>37.2</ele>
        <time>2021-09-22T09:48:21Z</time>
      </trkpt>
      <trkpt lat="43.15392" lon="5.68994">
        <ele>37.4</ele>
        <time>2021-09-22T09:48:27Z</time>
      </trkpt>
      <trkpt lat="43.15392" lon="5.69001">
        <ele>36.9</ele>
        <time>2021-09-22T09:48:33Z</time>
      </trkpt>
      <trkpt lat="43.15388" lon="5.69004">
        <ele>36</ele>
        <time>2021-09-22T09:48:39Z</time>
      </trkpt>
      <trkpt lat="43.15383" lon="5.69006">
        <ele>34.9</ele>
        <time>2021-09-22T09:48:49Z</time>
      </trkpt>
      <trkpt lat="43.15378" lon="5.69007">
        <ele>33.6</ele>
        <time>2021-09-22T09:49:55Z</time>
      </trkpt>
      <trkpt lat="43.15374" lon="5.69014">
        <ele>32.9</ele>
        <time>2021-09-22T09:50:03Z</time>
      </trkpt>
      <trkpt lat="43.15371" lon="5.69019">
        <ele>32.3</ele>
        <time>2021-09-22T09:50:09Z</time>
      </trkpt>
      <trkpt lat="43.15368" lon="5.69025">
        <ele>31.6</ele>
        <time>2021-09-22T09:50:15Z</time>
      </trkpt>
      <trkpt lat="43.15365" lon="5.69031">
        <ele>31.3</ele>
        <time>2021-09-22T09:50:23Z</time>
      </trkpt>
      <trkpt lat="43.15363" lon="5.69037">
        <ele>30.7</ele>
        <time>2021-09-22T09:50:29Z</time>
      </trkpt>
      <trkpt lat="43.15359" lon="5.69042">
        <ele>29.7</ele>
        <time>2021-09-22T09:50:37Z</time>
      </trkpt>
      <trkpt lat="43.15354" lon="5.69045">
        <ele>28.2</ele>
        <time>2021-09-22T09:50:45Z</time>
      </trkpt>
      <trkpt lat="43.15349" lon="5.6905">
        <ele>26.8</ele>
        <time>2021-09-22T09:50:53Z</time>
      </trkpt>
      <trkpt lat="43.15346" lon="5.69056">
        <ele>25.9</ele>
        <time>2021-09-22T09:51:01Z</time>
      </trkpt>
      <trkpt lat="43.15343" lon="5.69062">
        <ele>25.1</ele>
        <time>2021-09-22T09:51:07Z</time>
      </trkpt>
      <trkpt lat="43.15341" lon="5.69069">
        <ele>24.4</ele>
        <time>2021-09-22T09:51:13Z</time>
      </trkpt>
      <trkpt lat="43.15338" lon="5.69076">
        <ele>23.7</ele>
        <time>2021-09-22T09:51:19Z</time>
      </trkpt>
      <trkpt lat="43.15337" lon="5.69082">
        <ele>23.4</ele>
        <time>2021-09-22T09:51:27Z</time>
      </trkpt>
      <trkpt lat="43.15336" lon="5.69089">
        <ele>23.8</ele>
        <time>2021-09-22T09:51:33Z</time>
      </trkpt>
      <trkpt lat="43.15335" lon="5.69095">
        <ele>24.2</ele>
        <time>2021-09-22T09:51:39Z</time>
      </trkpt>
      <trkpt lat="43.15334" lon="5.69102">
        <ele>24.7</ele>
        <time>2021-09-22T09:51:45Z</time>
      </trkpt>
      <trkpt lat="43.15334" lon="5.6911">
        <ele>25.7</ele>
        <time>2021-09-22T09:51:51Z</time>
      </trkpt>
      <trkpt lat="43.15335" lon="5.69117">
        <ele>26.9</ele>
        <time>2021-09-22T09:51:57Z</time>
      </trkpt>
      <trkpt lat="43.15337" lon="5.69124">
        <ele>28.6</ele>
        <time>2021-09-22T09:52:05Z</time>
      </trkpt>
      <trkpt lat="43.15339" lon="5.6913">
        <ele>30.2</ele>
        <time>2021-09-22T09:52:11Z</time>
      </trkpt>
      <trkpt lat="43.15341" lon="5.69136">
        <ele>31.6</ele>
        <time>2021-09-22T09:52:17Z</time>
      </trkpt>
      <trkpt lat="43.15343" lon="5.69143">
        <ele>33.1</ele>
        <time>2021-09-22T09:52:23Z</time>
      </trkpt>
      <trkpt lat="43.15344" lon="5.69149">
        <ele>34.3</ele>
        <time>2021-09-22T09:52:27Z</time>
      </trkpt>
      <trkpt lat="43.15346" lon="5.69155">
        <ele>35.6</ele>
        <time>2021-09-22T09:52:31Z</time>
      </trkpt>
      <trkpt lat="43.15348" lon="5.69162">
        <ele>36.9</ele>
        <time>2021-09-22T09:52:37Z</time>
      </trkpt>
      <trkpt lat="43.1535" lon="5.6917">
        <ele>38.2</ele>
        <time>2021-09-22T09:52:45Z</time>
      </trkpt>
      <trkpt lat="43.15352" lon="5.69177">
        <ele>38.6</ele>
        <time>2021-09-22T09:52:51Z</time>
      </trkpt>
      <trkpt lat="43.15352" lon="5.69186">
        <ele>38.6</ele>
        <time>2021-09-22T09:52:57Z</time>
      </trkpt>
      <trkpt lat="43.15351" lon="5.69192">
        <ele>38.1</ele>
        <time>2021-09-22T09:53:03Z</time>
      </trkpt>
      <trkpt lat="43.15348" lon="5.69199">
        <ele>37.3</ele>
        <time>2021-09-22T09:53:09Z</time>
      </trkpt>
      <trkpt lat="43.15344" lon="5.69205">
        <ele>36.3</ele>
        <time>2021-09-22T09:53:15Z</time>
      </trkpt>
      <trkpt lat="43.15338" lon="5.69208">
        <ele>35</ele>
        <time>2021-09-22T09:53:21Z</time>
      </trkpt>
      <trkpt lat="43.15333" lon="5.69214">
        <ele>34.2</ele>
        <time>2021-09-22T09:53:29Z</time>
      </trkpt>
      <trkpt lat="43.15329" lon="5.69218">
        <ele>33.3</ele>
        <time>2021-09-22T09:53:35Z</time>
      </trkpt>
      <trkpt lat="43.15327" lon="5.69223">
        <ele>32.9</ele>
        <time>2021-09-22T09:53:41Z</time>
      </trkpt>
      <trkpt lat="43.15322" lon="5.69228">
        <ele>32</ele>
        <time>2021-09-22T09:53:53Z</time>
      </trkpt>
      <trkpt lat="43.15318" lon="5.69229">
        <ele>31</ele>
        <time>2021-09-22T09:53:57Z</time>
      </trkpt>
      <trkpt lat="43.15314" lon="5.69232">
        <ele>30.2</ele>
        <time>2021-09-22T09:54:03Z</time>
      </trkpt>
      <trkpt lat="43.15309" lon="5.69238">
        <ele>29.5</ele>
        <time>2021-09-22T09:54:09Z</time>
      </trkpt>
      <trkpt lat="43.15305" lon="5.69241">
        <ele>28.8</ele>
        <time>2021-09-22T09:54:17Z</time>
      </trkpt>
      <trkpt lat="43.153" lon="5.69242">
        <ele>27.8</ele>
        <time>2021-09-22T09:54:23Z</time>
      </trkpt>
      <trkpt lat="43.15295" lon="5.69244">
        <ele>26.8</ele>
        <time>2021-09-22T09:54:31Z</time>
      </trkpt>
      <trkpt lat="43.1529" lon="5.69246">
        <ele>25.8</ele>
        <time>2021-09-22T09:54:37Z</time>
      </trkpt>
      <trkpt lat="43.15285" lon="5.69249">
        <ele>25</ele>
        <time>2021-09-22T09:54:41Z</time>
      </trkpt>
      <trkpt lat="43.1528" lon="5.69252">
        <ele>24.3</ele>
        <time>2021-09-22T09:54:47Z</time>
      </trkpt>
      <trkpt lat="43.15276" lon="5.69256">
        <ele>23.6</ele>
        <time>2021-09-22T09:54:53Z</time>
      </trkpt>
      <trkpt lat="43.15271" lon="5.69258">
        <ele>23</ele>
        <time>2021-09-22T09:54:59Z</time>
      </trkpt>
      <trkpt lat="43.15266" lon="5.69261">
        <ele>22.3</ele>
        <time>2021-09-22T09:55:07Z</time>
      </trkpt>
      <trkpt lat="43.15262" lon="5.69266">
        <ele>22.2</ele>
        <time>2021-09-22T09:55:15Z</time>
      </trkpt>
      <trkpt lat="43.1526" lon="5.69271">
        <ele>22.3</ele>
        <time>2021-09-22T09:55:21Z</time>
      </trkpt>
      <trkpt lat="43.15258" lon="5.69278">
        <ele>22.8</ele>
        <time>2021-09-22T09:55:27Z</time>
      </trkpt>
      <trkpt lat="43.15256" lon="5.69285">
        <ele>23.3</ele>
        <time>2021-09-22T09:55:35Z</time>
      </trkpt>
      <trkpt lat="43.15255" lon="5.69292">
        <ele>24.1</ele>
        <time>2021-09-22T09:55:41Z</time>
      </trkpt>
      <trkpt lat="43.15253" lon="5.69299">
        <ele>24.8</ele>
        <time>2021-09-22T09:55:47Z</time>
      </trkpt>
      <trkpt lat="43.1525" lon="5.69306">
        <ele>25.4</ele>
        <time>2021-09-22T09:55:53Z</time>
      </trkpt>
      <trkpt lat="43.15248" lon="5.69312">
        <ele>25.8</ele>
        <time>2021-09-22T09:55:59Z</time>
      </trkpt>
      <trkpt lat="43.15246" lon="5.69317">
        <ele>26.2</ele>
        <time>2021-09-22T09:56:07Z</time>
      </trkpt>
      <trkpt lat="43.15245" lon="5.69324">
        <ele>26.8</ele>
        <time>2021-09-22T09:56:13Z</time>
      </trkpt>
      <trkpt lat="43.15246" lon="5.69333">
        <ele>28.2</ele>
        <time>2021-09-22T09:56:21Z</time>
      </trkpt>
      <trkpt lat="43.15242" lon="5.69337">
        <ele>27.6</ele>
        <time>2021-09-22T09:56:27Z</time>
      </trkpt>
      <trkpt lat="43.15238" lon="5.69341">
        <ele>26.9</ele>
        <time>2021-09-22T09:56:33Z</time>
      </trkpt>
      <trkpt lat="43.15234" lon="5.69346">
        <ele>26.3</ele>
        <time>2021-09-22T09:56:39Z</time>
      </trkpt>
      <trkpt lat="43.15229" lon="5.69348">
        <ele>25.5</ele>
        <time>2021-09-22T09:56:47Z</time>
      </trkpt>
      <trkpt lat="43.15225" lon="5.6935">
        <ele>24.8</ele>
        <time>2021-09-22T09:56:55Z</time>
      </trkpt>
      <trkpt lat="43.15225" lon="5.69344">
        <ele>24.8</ele>
        <time>2021-09-22T09:58:11Z</time>
      </trkpt>
      <trkpt lat="43.15226" lon="5.69337">
        <ele>24.8</ele>
        <time>2021-09-22T10:01:15Z</time>
      </trkpt>
      <trkpt lat="43.15227" lon="5.69343">
        <ele>25.1</ele>
        <time>2021-09-22T10:02:21Z</time>
      </trkpt>
      <trkpt lat="43.15227" lon="5.6935">
        <ele>25.2</ele>
        <time>2021-09-22T10:09:41Z</time>
      </trkpt>
      <trkpt lat="43.15223" lon="5.69354">
        <ele>24.6</ele>
        <time>2021-09-22T10:10:15Z</time>
      </trkpt>
      <trkpt lat="43.1522" lon="5.69349">
        <ele>24</ele>
        <time>2021-09-22T10:11:11Z</time>
      </trkpt>
      <trkpt lat="43.15215" lon="5.6935">
        <ele>23.3</ele>
        <time>2021-09-22T10:11:45Z</time>
      </trkpt>
      <trkpt lat="43.1521" lon="5.69351">
        <ele>22.4</ele>
        <time>2021-09-22T10:11:55Z</time>
      </trkpt>
      <trkpt lat="43.15205" lon="5.69354">
        <ele>21.9</ele>
        <time>2021-09-22T10:12:05Z</time>
      </trkpt>
      <trkpt lat="43.15201" lon="5.69356">
        <ele>21.4</ele>
        <time>2021-09-22T10:12:11Z</time>
      </trkpt>
      <trkpt lat="43.15197" lon="5.6936">
        <ele>21</ele>
        <time>2021-09-22T10:12:23Z</time>
      </trkpt>
      <trkpt lat="43.15195" lon="5.69366">
        <ele>21.1</ele>
        <time>2021-09-22T10:12:43Z</time>
      </trkpt>
      <trkpt lat="43.15195" lon="5.69372">
        <ele>21.5</ele>
        <time>2021-09-22T10:12:57Z</time>
      </trkpt>
      <trkpt lat="43.15195" lon="5.69379">
        <ele>21.8</ele>
        <time>2021-09-22T10:13:07Z</time>
      </trkpt>
      <trkpt lat="43.15191" lon="5.69385">
        <ele>21.7</ele>
        <time>2021-09-22T10:13:19Z</time>
      </trkpt>
      <trkpt lat="43.15185" lon="5.69385">
        <ele>21.1</ele>
        <time>2021-09-22T10:13:27Z</time>
      </trkpt>
      <trkpt lat="43.15181" lon="5.69389">
        <ele>20.9</ele>
        <time>2021-09-22T10:13:35Z</time>
      </trkpt>
      <trkpt lat="43.15178" lon="5.69392">
        <ele>20.8</ele>
        <time>2021-09-22T10:13:43Z</time>
      </trkpt>
      <trkpt lat="43.15173" lon="5.69395">
        <ele>20.6</ele>
        <time>2021-09-22T10:13:53Z</time>
      </trkpt>
      <trkpt lat="43.15169" lon="5.69399">
        <ele>20.5</ele>
        <time>2021-09-22T10:14:03Z</time>
      </trkpt>
      <trkpt lat="43.15165" lon="5.69401">
        <ele>20.3</ele>
        <time>2021-09-22T10:14:11Z</time>
      </trkpt>
      <trkpt lat="43.15161" lon="5.69404">
        <ele>20</ele>
        <time>2021-09-22T10:14:19Z</time>
      </trkpt>
      <trkpt lat="43.15156" lon="5.69407">
        <ele>19.8</ele>
        <time>2021-09-22T10:14:27Z</time>
      </trkpt>
      <trkpt lat="43.15151" lon="5.6941">
        <ele>19.4</ele>
        <time>2021-09-22T10:14:35Z</time>
      </trkpt>
      <trkpt lat="43.15147" lon="5.69415">
        <ele>19.5</ele>
        <time>2021-09-22T10:14:49Z</time>
      </trkpt>
      <trkpt lat="43.15144" lon="5.6942">
        <ele>19.6</ele>
        <time>2021-09-22T10:15:03Z</time>
      </trkpt>
      <trkpt lat="43.15141" lon="5.69426">
        <ele>20</ele>
        <time>2021-09-22T10:15:11Z</time>
      </trkpt>
      <trkpt lat="43.15137" lon="5.6943">
        <ele>20.2</ele>
        <time>2021-09-22T10:15:19Z</time>
      </trkpt>
      <trkpt lat="43.15134" lon="5.69436">
        <ele>20.6</ele>
        <time>2021-09-22T10:15:27Z</time>
      </trkpt>
      <trkpt lat="43.15134" lon="5.69443">
        <ele>21.6</ele>
        <time>2021-09-22T10:15:37Z</time>
      </trkpt>
      <trkpt lat="43.15134" lon="5.69449">
        <ele>22.5</ele>
        <time>2021-09-22T10:15:47Z</time>
      </trkpt>
      <trkpt lat="43.15132" lon="5.69455">
        <ele>23.1</ele>
        <time>2021-09-22T10:16:01Z</time>
      </trkpt>
      <trkpt lat="43.15128" lon="5.69453">
        <ele>22.4</ele>
        <time>2021-09-22T10:16:09Z</time>
      </trkpt>
      <trkpt lat="43.15123" lon="5.6945">
        <ele>21.7</ele>
        <time>2021-09-22T10:16:17Z</time>
      </trkpt>
      <trkpt lat="43.15118" lon="5.69451">
        <ele>21.3</ele>
        <time>2021-09-22T10:16:23Z</time>
      </trkpt>
      <trkpt lat="43.15113" lon="5.69445">
        <ele>20.1</ele>
        <time>2021-09-22T10:16:31Z</time>
      </trkpt>
      <trkpt lat="43.15111" lon="5.6944">
        <ele>19.1</ele>
        <time>2021-09-22T10:16:37Z</time>
      </trkpt>
      <trkpt lat="43.15108" lon="5.69434">
        <ele>17.8</ele>
        <time>2021-09-22T10:16:45Z</time>
      </trkpt>
      <trkpt lat="43.15106" lon="5.69427">
        <ele>16.5</ele>
        <time>2021-09-22T10:16:53Z</time>
      </trkpt>
      <trkpt lat="43.15105" lon="5.69421">
        <ele>15.3</ele>
        <time>2021-09-22T10:17:01Z</time>
      </trkpt>
      <trkpt lat="43.15105" lon="5.69414">
        <ele>14.3</ele>
        <time>2021-09-22T10:17:07Z</time>
      </trkpt>
      <trkpt lat="43.15103" lon="5.69407">
        <ele>13.4</ele>
        <time>2021-09-22T10:17:17Z</time>
      </trkpt>
      <trkpt lat="43.151" lon="5.69401">
        <ele>12.5</ele>
        <time>2021-09-22T10:17:33Z</time>
      </trkpt>
      <trkpt lat="43.15095" lon="5.69402">
        <ele>12.1</ele>
        <time>2021-09-22T10:18:03Z</time>
      </trkpt>
      <trkpt lat="43.15091" lon="5.69406">
        <ele>11.8</ele>
        <time>2021-09-22T10:18:17Z</time>
      </trkpt>
      <trkpt lat="43.15087" lon="5.69408">
        <ele>11.6</ele>
        <time>2021-09-22T10:18:25Z</time>
      </trkpt>
      <trkpt lat="43.15083" lon="5.69413">
        <ele>11.6</ele>
        <time>2021-09-22T10:18:45Z</time>
      </trkpt>
      <trkpt lat="43.15079" lon="5.69417">
        <ele>11.7</ele>
        <time>2021-09-22T10:18:57Z</time>
      </trkpt>
      <trkpt lat="43.15077" lon="5.69423">
        <ele>12.7</ele>
        <time>2021-09-22T10:19:21Z</time>
      </trkpt>
      <trkpt lat="43.15074" lon="5.69427">
        <ele>13.3</ele>
        <time>2021-09-22T10:19:41Z</time>
      </trkpt>
      <trkpt lat="43.15069" lon="5.6943">
        <ele>13.6</ele>
        <time>2021-09-22T10:19:53Z</time>
      </trkpt>
      <trkpt lat="43.15065" lon="5.69434">
        <ele>14.1</ele>
        <time>2021-09-22T10:20:09Z</time>
      </trkpt>
      <trkpt lat="43.15061" lon="5.69439">
        <ele>14.6</ele>
        <time>2021-09-22T10:20:21Z</time>
      </trkpt>
      <trkpt lat="43.15057" lon="5.69444">
        <ele>15.4</ele>
        <time>2021-09-22T10:20:29Z</time>
      </trkpt>
      <trkpt lat="43.15055" lon="5.6945">
        <ele>16.4</ele>
        <time>2021-09-22T10:20:37Z</time>
      </trkpt>
      <trkpt lat="43.15049" lon="5.69454">
        <ele>16.6</ele>
        <time>2021-09-22T10:20:45Z</time>
      </trkpt>
      <trkpt lat="43.15044" lon="5.69456">
        <ele>16.8</ele>
        <time>2021-09-22T10:20:53Z</time>
      </trkpt>
      <trkpt lat="43.1504" lon="5.6946">
        <ele>17.3</ele>
        <time>2021-09-22T10:21:01Z</time>
      </trkpt>
      <trkpt lat="43.15038" lon="5.69466">
        <ele>18.2</ele>
        <time>2021-09-22T10:21:15Z</time>
      </trkpt>
      <trkpt lat="43.15033" lon="5.6947">
        <ele>18.6</ele>
        <time>2021-09-22T10:21:23Z</time>
      </trkpt>
      <trkpt lat="43.15029" lon="5.69475">
        <ele>19.3</ele>
        <time>2021-09-22T10:21:31Z</time>
      </trkpt>
      <trkpt lat="43.15024" lon="5.69479">
        <ele>19.7</ele>
        <time>2021-09-22T10:21:37Z</time>
      </trkpt>
      <trkpt lat="43.15021" lon="5.69486">
        <ele>20.9</ele>
        <time>2021-09-22T10:21:45Z</time>
      </trkpt>
      <trkpt lat="43.1502" lon="5.69492">
        <ele>21.8</ele>
        <time>2021-09-22T10:21:55Z</time>
      </trkpt>
      <trkpt lat="43.15015" lon="5.69494">
        <ele>21.9</ele>
        <time>2021-09-22T10:22:09Z</time>
      </trkpt>
      <trkpt lat="43.15011" lon="5.69498">
        <ele>22.3</ele>
        <time>2021-09-22T10:22:17Z</time>
      </trkpt>
      <trkpt lat="43.15008" lon="5.69503">
        <ele>23.1</ele>
        <time>2021-09-22T10:22:27Z</time>
      </trkpt>
      <trkpt lat="43.15003" lon="5.69507">
        <ele>23.4</ele>
        <time>2021-09-22T10:22:35Z</time>
      </trkpt>
      <trkpt lat="43.14998" lon="5.69507">
        <ele>22.8</ele>
        <time>2021-09-22T10:22:43Z</time>
      </trkpt>
      <trkpt lat="43.14993" lon="5.69505">
        <ele>21.8</ele>
        <time>2021-09-22T10:22:49Z</time>
      </trkpt>
      <trkpt lat="43.14988" lon="5.69504">
        <ele>20.9</ele>
        <time>2021-09-22T10:22:55Z</time>
      </trkpt>
      <trkpt lat="43.14982" lon="5.69501">
        <ele>19.7</ele>
        <time>2021-09-22T10:23:03Z</time>
      </trkpt>
      <trkpt lat="43.14977" lon="5.69498">
        <ele>18.4</ele>
        <time>2021-09-22T10:23:11Z</time>
      </trkpt>
      <trkpt lat="43.14972" lon="5.69499">
        <ele>17.8</ele>
        <time>2021-09-22T10:23:17Z</time>
      </trkpt>
      <trkpt lat="43.14966" lon="5.69502">
        <ele>17.4</ele>
        <time>2021-09-22T10:23:37Z</time>
      </trkpt>
      <trkpt lat="43.14963" lon="5.69507">
        <ele>18</ele>
        <time>2021-09-22T10:23:43Z</time>
      </trkpt>
      <trkpt lat="43.14961" lon="5.69513">
        <ele>18.8</ele>
        <time>2021-09-22T10:23:51Z</time>
      </trkpt>
      <trkpt lat="43.14959" lon="5.69519">
        <ele>19.5</ele>
        <time>2021-09-22T10:23:57Z</time>
      </trkpt>
      <trkpt lat="43.14955" lon="5.69524">
        <ele>19.9</ele>
        <time>2021-09-22T10:24:09Z</time>
      </trkpt>
      <trkpt lat="43.14951" lon="5.69529">
        <ele>20.3</ele>
        <time>2021-09-22T10:24:15Z</time>
      </trkpt>
      <trkpt lat="43.14948" lon="5.69534">
        <ele>20.6</ele>
        <time>2021-09-22T10:24:21Z</time>
      </trkpt>
      <trkpt lat="43.14943" lon="5.69537">
        <ele>20.6</ele>
        <time>2021-09-22T10:24:27Z</time>
      </trkpt>
      <trkpt lat="43.14938" lon="5.6954">
        <ele>20.6</ele>
        <time>2021-09-22T10:24:33Z</time>
      </trkpt>
      <trkpt lat="43.14934" lon="5.69544">
        <ele>20.6</ele>
        <time>2021-09-22T10:24:41Z</time>
      </trkpt>
      <trkpt lat="43.14929" lon="5.69547">
        <ele>20.5</ele>
        <time>2021-09-22T10:24:47Z</time>
      </trkpt>
      <trkpt lat="43.14925" lon="5.69552">
        <ele>21.1</ele>
        <time>2021-09-22T10:24:55Z</time>
      </trkpt>
      <trkpt lat="43.14921" lon="5.69556">
        <ele>21.3</ele>
        <time>2021-09-22T10:25:05Z</time>
      </trkpt>
      <trkpt lat="43.14917" lon="5.69562">
        <ele>21.8</ele>
        <time>2021-09-22T10:25:15Z</time>
      </trkpt>
      <trkpt lat="43.14913" lon="5.69567">
        <ele>22.9</ele>
        <time>2021-09-22T10:25:23Z</time>
      </trkpt>
      <trkpt lat="43.14908" lon="5.6957">
        <ele>23.4</ele>
        <time>2021-09-22T10:25:31Z</time>
      </trkpt>
      <trkpt lat="43.14902" lon="5.69571">
        <ele>23.5</ele>
        <time>2021-09-22T10:25:37Z</time>
      </trkpt>
      <trkpt lat="43.14899" lon="5.69566">
        <ele>22.6</ele>
        <time>2021-09-22T10:25:43Z</time>
      </trkpt>
      <trkpt lat="43.14897" lon="5.6956">
        <ele>21.6</ele>
        <time>2021-09-22T10:25:49Z</time>
      </trkpt>
      <trkpt lat="43.14893" lon="5.69556">
        <ele>20.9</ele>
        <time>2021-09-22T10:25:55Z</time>
      </trkpt>
      <trkpt lat="43.14889" lon="5.69551">
        <ele>20.3</ele>
        <time>2021-09-22T10:26:01Z</time>
      </trkpt>
      <trkpt lat="43.14884" lon="5.69548">
        <ele>20</ele>
        <time>2021-09-22T10:26:35Z</time>
      </trkpt>
      <trkpt lat="43.1488" lon="5.69545">
        <ele>19.6</ele>
        <time>2021-09-22T10:29:21Z</time>
      </trkpt>
      <trkpt lat="43.14874" lon="5.69545">
        <ele>19.7</ele>
        <time>2021-09-22T10:29:27Z</time>
      </trkpt>
      <trkpt lat="43.14869" lon="5.69541">
        <ele>19.4</ele>
        <time>2021-09-22T10:29:33Z</time>
      </trkpt>
      <trkpt lat="43.14864" lon="5.69538">
        <ele>19.1</ele>
        <time>2021-09-22T10:29:39Z</time>
      </trkpt>
      <trkpt lat="43.14859" lon="5.69534">
        <ele>18.8</ele>
        <time>2021-09-22T10:29:45Z</time>
      </trkpt>
      <trkpt lat="43.14854" lon="5.69531">
        <ele>18.7</ele>
        <time>2021-09-22T10:29:51Z</time>
      </trkpt>
      <trkpt lat="43.14849" lon="5.69528">
        <ele>18.6</ele>
        <time>2021-09-22T10:29:57Z</time>
      </trkpt>
      <trkpt lat="43.14845" lon="5.69524">
        <ele>18.4</ele>
        <time>2021-09-22T10:30:03Z</time>
      </trkpt>
      <trkpt lat="43.14841" lon="5.6952">
        <ele>18.2</ele>
        <time>2021-09-22T10:30:09Z</time>
      </trkpt>
      <trkpt lat="43.14836" lon="5.69516">
        <ele>18.2</ele>
        <time>2021-09-22T10:30:15Z</time>
      </trkpt>
      <trkpt lat="43.14832" lon="5.69512">
        <ele>18</ele>
        <time>2021-09-22T10:30:21Z</time>
      </trkpt>
      <trkpt lat="43.14827" lon="5.69508">
        <ele>17.7</ele>
        <time>2021-09-22T10:30:27Z</time>
      </trkpt>
      <trkpt lat="43.14821" lon="5.69504">
        <ele>17.4</ele>
        <time>2021-09-22T10:30:33Z</time>
      </trkpt>
      <trkpt lat="43.14817" lon="5.69501">
        <ele>17.2</ele>
        <time>2021-09-22T10:30:37Z</time>
      </trkpt>
      <trkpt lat="43.14811" lon="5.69497">
        <ele>17.1</ele>
        <time>2021-09-22T10:30:43Z</time>
      </trkpt>
      <trkpt lat="43.14805" lon="5.69493">
        <ele>16.9</ele>
        <time>2021-09-22T10:30:49Z</time>
      </trkpt>
      <trkpt lat="43.14802" lon="5.69488">
        <ele>16.6</ele>
        <time>2021-09-22T10:30:55Z</time>
      </trkpt>
      <trkpt lat="43.14798" lon="5.69484">
        <ele>16.4</ele>
        <time>2021-09-22T10:31:01Z</time>
      </trkpt>
      <trkpt lat="43.14793" lon="5.69479">
        <ele>16.1</ele>
        <time>2021-09-22T10:31:07Z</time>
      </trkpt>
      <trkpt lat="43.14788" lon="5.69475">
        <ele>15.9</ele>
        <time>2021-09-22T10:31:13Z</time>
      </trkpt>
      <trkpt lat="43.14783" lon="5.6947">
        <ele>15.6</ele>
        <time>2021-09-22T10:31:19Z</time>
      </trkpt>
      <trkpt lat="43.14778" lon="5.69464">
        <ele>15.2</ele>
        <time>2021-09-22T10:31:25Z</time>
      </trkpt>
      <trkpt lat="43.14774" lon="5.69459">
        <ele>14.9</ele>
        <time>2021-09-22T10:31:31Z</time>
      </trkpt>
      <trkpt lat="43.14771" lon="5.69453">
        <ele>14.5</ele>
        <time>2021-09-22T10:31:37Z</time>
      </trkpt>
      <trkpt lat="43.1477" lon="5.69447">
        <ele>14.1</ele>
        <time>2021-09-22T10:31:45Z</time>
      </trkpt>
      <trkpt lat="43.14768" lon="5.69441">
        <ele>13.7</ele>
        <time>2021-09-22T10:31:53Z</time>
      </trkpt>
      <trkpt lat="43.14764" lon="5.69436">
        <ele>13.3</ele>
        <time>2021-09-22T10:31:59Z</time>
      </trkpt>
      <trkpt lat="43.14761" lon="5.69432">
        <ele>13.1</ele>
        <time>2021-09-22T10:32:05Z</time>
      </trkpt>
      <trkpt lat="43.14757" lon="5.69428">
        <ele>12.8</ele>
        <time>2021-09-22T10:32:11Z</time>
      </trkpt>
      <trkpt lat="43.14751" lon="5.69426">
        <ele>12.6</ele>
        <time>2021-09-22T10:32:19Z</time>
      </trkpt>
      <trkpt lat="43.14746" lon="5.69425">
        <ele>12.3</ele>
        <time>2021-09-22T10:32:25Z</time>
      </trkpt>
      <trkpt lat="43.14742" lon="5.69427">
        <ele>11.9</ele>
        <time>2021-09-22T10:32:31Z</time>
      </trkpt>
      <trkpt lat="43.14737" lon="5.69429">
        <ele>11.7</ele>
        <time>2021-09-22T10:32:37Z</time>
      </trkpt>
      <trkpt lat="43.14734" lon="5.69434">
        <ele>11.7</ele>
        <time>2021-09-22T10:32:43Z</time>
      </trkpt>
      <trkpt lat="43.14732" lon="5.69441">
        <ele>12</ele>
        <time>2021-09-22T10:32:51Z</time>
      </trkpt>
      <trkpt lat="43.14729" lon="5.69448">
        <ele>12.2</ele>
        <time>2021-09-22T10:32:59Z</time>
      </trkpt>
      <trkpt lat="43.14726" lon="5.69454">
        <ele>12.3</ele>
        <time>2021-09-22T10:33:07Z</time>
      </trkpt>
      <trkpt lat="43.14723" lon="5.6946">
        <ele>12.5</ele>
        <time>2021-09-22T10:33:15Z</time>
      </trkpt>
      <trkpt lat="43.14719" lon="5.69468">
        <ele>12.7</ele>
        <time>2021-09-22T10:33:21Z</time>
      </trkpt>
      <trkpt lat="43.14717" lon="5.69473">
        <ele>12.9</ele>
        <time>2021-09-22T10:33:25Z</time>
      </trkpt>
      <trkpt lat="43.14714" lon="5.69479">
        <ele>13</ele>
        <time>2021-09-22T10:33:29Z</time>
      </trkpt>
      <trkpt lat="43.14711" lon="5.69486">
        <ele>13.3</ele>
        <time>2021-09-22T10:33:35Z</time>
      </trkpt>
      <trkpt lat="43.14711" lon="5.69494">
        <ele>13.9</ele>
        <time>2021-09-22T10:33:43Z</time>
      </trkpt>
      <trkpt lat="43.14714" lon="5.69502">
        <ele>14.8</ele>
        <time>2021-09-22T10:33:49Z</time>
      </trkpt>
      <trkpt lat="43.14717" lon="5.69509">
        <ele>15.4</ele>
        <time>2021-09-22T10:34:03Z</time>
      </trkpt>
      <trkpt lat="43.14718" lon="5.69517">
        <ele>16.1</ele>
        <time>2021-09-22T10:34:09Z</time>
      </trkpt>
      <trkpt lat="43.1472" lon="5.69523">
        <ele>16.7</ele>
        <time>2021-09-22T10:34:17Z</time>
      </trkpt>
      <trkpt lat="43.14721" lon="5.6953">
        <ele>17.2</ele>
        <time>2021-09-22T10:34:23Z</time>
      </trkpt>
      <trkpt lat="43.14719" lon="5.69537">
        <ele>17.6</ele>
        <time>2021-09-22T10:34:33Z</time>
      </trkpt>
      <trkpt lat="43.14714" lon="5.69537">
        <ele>17.3</ele>
        <time>2021-09-22T10:34:41Z</time>
      </trkpt>
      <trkpt lat="43.14709" lon="5.69538">
        <ele>17.2</ele>
        <time>2021-09-22T10:34:47Z</time>
      </trkpt>
      <trkpt lat="43.14705" lon="5.69536">
        <ele>16.8</ele>
        <time>2021-09-22T10:34:57Z</time>
      </trkpt>
      <trkpt lat="43.147" lon="5.69533">
        <ele>16.3</ele>
        <time>2021-09-22T10:35:07Z</time>
      </trkpt>
      <trkpt lat="43.14694" lon="5.69531">
        <ele>15.9</ele>
        <time>2021-09-22T10:35:15Z</time>
      </trkpt>
      <trkpt lat="43.1469" lon="5.69528">
        <ele>15.3</ele>
        <time>2021-09-22T10:35:25Z</time>
      </trkpt>
      <trkpt lat="43.14685" lon="5.69525">
        <ele>14.7</ele>
        <time>2021-09-22T10:35:31Z</time>
      </trkpt>
      <trkpt lat="43.1468" lon="5.69521">
        <ele>13.9</ele>
        <time>2021-09-22T10:35:41Z</time>
      </trkpt>
      <trkpt lat="43.14675" lon="5.69518">
        <ele>13.3</ele>
        <time>2021-09-22T10:35:51Z</time>
      </trkpt>
      <trkpt lat="43.14671" lon="5.69518">
        <ele>12.9</ele>
        <time>2021-09-22T10:36:03Z</time>
      </trkpt>
      <trkpt lat="43.14666" lon="5.69514">
        <ele>12.1</ele>
        <time>2021-09-22T10:36:11Z</time>
      </trkpt>
      <trkpt lat="43.14662" lon="5.69509">
        <ele>11.9</ele>
        <time>2021-09-22T10:36:19Z</time>
      </trkpt>
      <trkpt lat="43.14659" lon="5.69504">
        <ele>11.6</ele>
        <time>2021-09-22T10:36:29Z</time>
      </trkpt>
      <trkpt lat="43.14657" lon="5.69499">
        <ele>11.3</ele>
        <time>2021-09-22T10:36:37Z</time>
      </trkpt>
      <trkpt lat="43.14656" lon="5.69493">
        <ele>10.8</ele>
        <time>2021-09-22T10:36:45Z</time>
      </trkpt>
      <trkpt lat="43.14655" lon="5.69487">
        <ele>10.5</ele>
        <time>2021-09-22T10:36:57Z</time>
      </trkpt>
      <trkpt lat="43.14656" lon="5.69481">
        <ele>9.9</ele>
        <time>2021-09-22T10:37:03Z</time>
      </trkpt>
      <trkpt lat="43.14655" lon="5.69475">
        <ele>9.5</ele>
        <time>2021-09-22T10:37:09Z</time>
      </trkpt>
      <trkpt lat="43.14655" lon="5.69467">
        <ele>8.8</ele>
        <time>2021-09-22T10:37:17Z</time>
      </trkpt>
      <trkpt lat="43.14655" lon="5.69461">
        <ele>8.3</ele>
        <time>2021-09-22T10:37:23Z</time>
      </trkpt>
      <trkpt lat="43.14652" lon="5.69455">
        <ele>8</ele>
        <time>2021-09-22T10:37:37Z</time>
      </trkpt>
      <trkpt lat="43.14648" lon="5.69456">
        <ele>8.5</ele>
        <time>2021-09-22T10:37:53Z</time>
      </trkpt>
      <trkpt lat="43.14643" lon="5.69456">
        <ele>8.9</ele>
        <time>2021-09-22T10:38:05Z</time>
      </trkpt>
      <trkpt lat="43.14638" lon="5.69459">
        <ele>9.6</ele>
        <time>2021-09-22T10:38:19Z</time>
      </trkpt>
      <trkpt lat="43.14637" lon="5.69465">
        <ele>10.3</ele>
        <time>2021-09-22T10:38:35Z</time>
      </trkpt>
      <trkpt lat="43.14634" lon="5.69469">
        <ele>11.1</ele>
        <time>2021-09-22T10:38:47Z</time>
      </trkpt>
      <trkpt lat="43.14631" lon="5.69475">
        <ele>12</ele>
        <time>2021-09-22T10:38:55Z</time>
      </trkpt>
      <trkpt lat="43.14628" lon="5.6948">
        <ele>12.9</ele>
        <time>2021-09-22T10:39:01Z</time>
      </trkpt>
      <trkpt lat="43.14623" lon="5.69481">
        <ele>13.6</ele>
        <time>2021-09-22T10:39:11Z</time>
      </trkpt>
      <trkpt lat="43.14618" lon="5.69478">
        <ele>13.8</ele>
        <time>2021-09-22T10:39:19Z</time>
      </trkpt>
      <trkpt lat="43.14614" lon="5.69474">
        <ele>13.7</ele>
        <time>2021-09-22T10:39:27Z</time>
      </trkpt>
      <trkpt lat="43.14611" lon="5.69468">
        <ele>13.3</ele>
        <time>2021-09-22T10:39:35Z</time>
      </trkpt>
      <trkpt lat="43.14607" lon="5.69462">
        <ele>12.8</ele>
        <time>2021-09-22T10:39:43Z</time>
      </trkpt>
      <trkpt lat="43.14604" lon="5.69457">
        <ele>12.5</ele>
        <time>2021-09-22T10:39:49Z</time>
      </trkpt>
      <trkpt lat="43.14599" lon="5.69453">
        <ele>12.3</ele>
        <time>2021-09-22T10:39:57Z</time>
      </trkpt>
      <trkpt lat="43.14594" lon="5.69449">
        <ele>12.2</ele>
        <time>2021-09-22T10:40:03Z</time>
      </trkpt>
      <trkpt lat="43.1459" lon="5.69445">
        <ele>11.9</ele>
        <time>2021-09-22T10:40:09Z</time>
      </trkpt>
      <trkpt lat="43.14586" lon="5.69442">
        <ele>11.8</ele>
        <time>2021-09-22T10:40:19Z</time>
      </trkpt>
      <trkpt lat="43.1458" lon="5.69441">
        <ele>11.6</ele>
        <time>2021-09-22T10:40:29Z</time>
      </trkpt>
      <trkpt lat="43.14575" lon="5.69443">
        <ele>11.6</ele>
        <time>2021-09-22T10:40:39Z</time>
      </trkpt>
      <trkpt lat="43.1457" lon="5.69444">
        <ele>11.6</ele>
        <time>2021-09-22T10:40:49Z</time>
      </trkpt>
      <trkpt lat="43.14565" lon="5.69444">
        <ele>11.2</ele>
        <time>2021-09-22T10:40:55Z</time>
      </trkpt>
      <trkpt lat="43.1456" lon="5.69442">
        <ele>10.8</ele>
        <time>2021-09-22T10:41:03Z</time>
      </trkpt>
      <trkpt lat="43.14555" lon="5.69443">
        <ele>10.6</ele>
        <time>2021-09-22T10:41:11Z</time>
      </trkpt>
      <trkpt lat="43.14551" lon="5.69446">
        <ele>10.7</ele>
        <time>2021-09-22T10:41:21Z</time>
      </trkpt>
      <trkpt lat="43.14548" lon="5.69451">
        <ele>11.2</ele>
        <time>2021-09-22T10:41:29Z</time>
      </trkpt>
      <trkpt lat="43.14545" lon="5.69456">
        <ele>11.7</ele>
        <time>2021-09-22T10:41:37Z</time>
      </trkpt>
      <trkpt lat="43.14542" lon="5.69464">
        <ele>12.5</ele>
        <time>2021-09-22T10:41:47Z</time>
      </trkpt>
      <trkpt lat="43.1454" lon="5.6947">
        <ele>13.1</ele>
        <time>2021-09-22T10:41:55Z</time>
      </trkpt>
      <trkpt lat="43.14539" lon="5.69477">
        <ele>13.8</ele>
        <time>2021-09-22T10:42:03Z</time>
      </trkpt>
      <trkpt lat="43.14538" lon="5.69484">
        <ele>14.6</ele>
        <time>2021-09-22T10:42:11Z</time>
      </trkpt>
      <trkpt lat="43.14534" lon="5.69487">
        <ele>14.7</ele>
        <time>2021-09-22T10:42:23Z</time>
      </trkpt>
      <trkpt lat="43.14529" lon="5.6949">
        <ele>14.6</ele>
        <time>2021-09-22T10:42:41Z</time>
      </trkpt>
      <trkpt lat="43.14525" lon="5.69493">
        <ele>14.7</ele>
        <time>2021-09-22T10:42:47Z</time>
      </trkpt>
      <trkpt lat="43.14524" lon="5.69499">
        <ele>15.2</ele>
        <time>2021-09-22T10:42:59Z</time>
      </trkpt>
      <trkpt lat="43.14521" lon="5.69504">
        <ele>15.8</ele>
        <time>2021-09-22T10:43:11Z</time>
      </trkpt>
      <trkpt lat="43.14518" lon="5.6951">
        <ele>16.7</ele>
        <time>2021-09-22T10:43:21Z</time>
      </trkpt>
      <trkpt lat="43.14513" lon="5.69511">
        <ele>16.5</ele>
        <time>2021-09-22T10:43:31Z</time>
      </trkpt>
      <trkpt lat="43.14508" lon="5.69512">
        <ele>16.1</ele>
        <time>2021-09-22T10:43:41Z</time>
      </trkpt>
      <trkpt lat="43.14505" lon="5.69516">
        <ele>16.8</ele>
        <time>2021-09-22T10:43:59Z</time>
      </trkpt>
      <trkpt lat="43.14501" lon="5.69521">
        <ele>17.6</ele>
        <time>2021-09-22T10:44:13Z</time>
      </trkpt>
      <trkpt lat="43.14497" lon="5.69523">
        <ele>17.8</ele>
        <time>2021-09-22T10:44:21Z</time>
      </trkpt>
      <trkpt lat="43.14492" lon="5.69526">
        <ele>18.1</ele>
        <time>2021-09-22T10:44:35Z</time>
      </trkpt>
      <trkpt lat="43.14487" lon="5.6953">
        <ele>18.6</ele>
        <time>2021-09-22T10:44:45Z</time>
      </trkpt>
      <trkpt lat="43.14482" lon="5.6953">
        <ele>18.2</ele>
        <time>2021-09-22T10:44:59Z</time>
      </trkpt>
      <trkpt lat="43.14478" lon="5.69532">
        <ele>18.3</ele>
        <time>2021-09-22T10:45:09Z</time>
      </trkpt>
      <trkpt lat="43.14472" lon="5.69535">
        <ele>18.5</ele>
        <time>2021-09-22T10:45:15Z</time>
      </trkpt>
      <trkpt lat="43.14466" lon="5.69536">
        <ele>18.1</ele>
        <time>2021-09-22T10:45:23Z</time>
      </trkpt>
      <trkpt lat="43.14462" lon="5.6954">
        <ele>18.6</ele>
        <time>2021-09-22T10:45:31Z</time>
      </trkpt>
      <trkpt lat="43.14457" lon="5.69543">
        <ele>18.9</ele>
        <time>2021-09-22T10:45:37Z</time>
      </trkpt>
      <trkpt lat="43.14452" lon="5.69546">
        <ele>19.1</ele>
        <time>2021-09-22T10:45:45Z</time>
      </trkpt>
      <trkpt lat="43.14446" lon="5.69546">
        <ele>18.5</ele>
        <time>2021-09-22T10:45:53Z</time>
      </trkpt>
      <trkpt lat="43.14441" lon="5.6955">
        <ele>18.9</ele>
        <time>2021-09-22T10:45:59Z</time>
      </trkpt>
      <trkpt lat="43.14437" lon="5.69552">
        <ele>19.1</ele>
        <time>2021-09-22T10:46:05Z</time>
      </trkpt>
      <trkpt lat="43.14432" lon="5.69553">
        <ele>18.9</ele>
        <time>2021-09-22T10:46:11Z</time>
      </trkpt>
      <trkpt lat="43.14427" lon="5.69557">
        <ele>19.1</ele>
        <time>2021-09-22T10:47:37Z</time>
      </trkpt>
      <trkpt lat="43.14423" lon="5.69562">
        <ele>19.7</ele>
        <time>2021-09-22T10:47:45Z</time>
      </trkpt>
      <trkpt lat="43.14419" lon="5.69559">
        <ele>18.8</ele>
        <time>2021-09-22T10:47:55Z</time>
      </trkpt>
      <trkpt lat="43.14415" lon="5.69554">
        <ele>17.8</ele>
        <time>2021-09-22T10:48:03Z</time>
      </trkpt>
      <trkpt lat="43.14416" lon="5.69548">
        <ele>16.7</ele>
        <time>2021-09-22T10:48:11Z</time>
      </trkpt>
      <trkpt lat="43.14419" lon="5.69554">
        <ele>17.9</ele>
        <time>2021-09-22T10:52:25Z</time>
      </trkpt>
      <trkpt lat="43.1442" lon="5.69561">
        <ele>19.2</ele>
        <time>2021-09-22T10:52:31Z</time>
      </trkpt>
      <trkpt lat="43.14419" lon="5.69569">
        <ele>20.7</ele>
        <time>2021-09-22T10:52:37Z</time>
      </trkpt>
      <trkpt lat="43.14417" lon="5.69576">
        <ele>21.7</ele>
        <time>2021-09-22T10:52:43Z</time>
      </trkpt>
      <trkpt lat="43.14412" lon="5.6958">
        <ele>22.4</ele>
        <time>2021-09-22T10:52:49Z</time>
      </trkpt>
      <trkpt lat="43.14409" lon="5.69588">
        <ele>23.2</ele>
        <time>2021-09-22T10:52:55Z</time>
      </trkpt>
      <trkpt lat="43.14407" lon="5.69595">
        <ele>23.3</ele>
        <time>2021-09-22T10:53:03Z</time>
      </trkpt>
      <trkpt lat="43.14404" lon="5.69601">
        <ele>23.4</ele>
        <time>2021-09-22T10:53:09Z</time>
      </trkpt>
      <trkpt lat="43.14402" lon="5.69607">
        <ele>23.4</ele>
        <time>2021-09-22T10:53:19Z</time>
      </trkpt>
      <trkpt lat="43.14401" lon="5.69614">
        <ele>23.4</ele>
        <time>2021-09-22T10:53:31Z</time>
      </trkpt>
      <trkpt lat="43.144" lon="5.69621">
        <ele>23.3</ele>
        <time>2021-09-22T10:53:37Z</time>
      </trkpt>
      <trkpt lat="43.14398" lon="5.69629">
        <ele>23.2</ele>
        <time>2021-09-22T10:53:45Z</time>
      </trkpt>
      <trkpt lat="43.14395" lon="5.69635">
        <ele>22.7</ele>
        <time>2021-09-22T10:53:51Z</time>
      </trkpt>
      <trkpt lat="43.14392" lon="5.69643">
        <ele>22.1</ele>
        <time>2021-09-22T10:53:57Z</time>
      </trkpt>
      <trkpt lat="43.1439" lon="5.69651">
        <ele>21.6</ele>
        <time>2021-09-22T10:54:03Z</time>
      </trkpt>
      <trkpt lat="43.14388" lon="5.69658">
        <ele>20.9</ele>
        <time>2021-09-22T10:54:11Z</time>
      </trkpt>
      <trkpt lat="43.14385" lon="5.69664">
        <ele>20.1</ele>
        <time>2021-09-22T10:54:17Z</time>
      </trkpt>
      <trkpt lat="43.14381" lon="5.6967">
        <ele>18.9</ele>
        <time>2021-09-22T10:54:23Z</time>
      </trkpt>
      <trkpt lat="43.14379" lon="5.69676">
        <ele>18.1</ele>
        <time>2021-09-22T10:54:31Z</time>
      </trkpt>
      <trkpt lat="43.14377" lon="5.69682">
        <ele>17.4</ele>
        <time>2021-09-22T10:54:39Z</time>
      </trkpt>
      <trkpt lat="43.14372" lon="5.69684">
        <ele>16.3</ele>
        <time>2021-09-22T10:55:01Z</time>
      </trkpt>
      <trkpt lat="43.14371" lon="5.69691">
        <ele>15.8</ele>
        <time>2021-09-22T10:55:09Z</time>
      </trkpt>
      <trkpt lat="43.14368" lon="5.69696">
        <ele>14.9</ele>
        <time>2021-09-22T10:55:17Z</time>
      </trkpt>
      <trkpt lat="43.14367" lon="5.69703">
        <ele>14.5</ele>
        <time>2021-09-22T10:55:27Z</time>
      </trkpt>
      <trkpt lat="43.14368" lon="5.69709">
        <ele>14.7</ele>
        <time>2021-09-22T10:55:37Z</time>
      </trkpt>
      <trkpt lat="43.14373" lon="5.6971">
        <ele>15.8</ele>
        <time>2021-09-22T10:55:49Z</time>
      </trkpt>
      <trkpt lat="43.14378" lon="5.69711">
        <ele>17</ele>
        <time>2021-09-22T10:55:59Z</time>
      </trkpt>
      <trkpt lat="43.14385" lon="5.69709">
        <ele>18.4</ele>
        <time>2021-09-22T10:56:05Z</time>
      </trkpt>
      <trkpt lat="43.1439" lon="5.6971">
        <ele>19.6</ele>
        <time>2021-09-22T10:56:11Z</time>
      </trkpt>
      <trkpt lat="43.14393" lon="5.69715">
        <ele>20.1</ele>
        <time>2021-09-22T10:56:17Z</time>
      </trkpt>
      <trkpt lat="43.14394" lon="5.69722">
        <ele>20.3</ele>
        <time>2021-09-22T10:56:23Z</time>
      </trkpt>
      <trkpt lat="43.14396" lon="5.69728">
        <ele>20.3</ele>
        <time>2021-09-22T10:56:29Z</time>
      </trkpt>
      <trkpt lat="43.14396" lon="5.69734">
        <ele>20.2</ele>
        <time>2021-09-22T10:56:35Z</time>
      </trkpt>
      <trkpt lat="43.14398" lon="5.69742">
        <ele>20.3</ele>
        <time>2021-09-22T10:56:45Z</time>
      </trkpt>
      <trkpt lat="43.14401" lon="5.69747">
        <ele>20.6</ele>
        <time>2021-09-22T10:56:55Z</time>
      </trkpt>
      <trkpt lat="43.14402" lon="5.69754">
        <ele>20.7</ele>
        <time>2021-09-22T10:57:43Z</time>
      </trkpt>
      <trkpt lat="43.14404" lon="5.69761">
        <ele>20.8</ele>
        <time>2021-09-22T10:57:49Z</time>
      </trkpt>
      <trkpt lat="43.14407" lon="5.69766">
        <ele>21.5</ele>
        <time>2021-09-22T10:57:59Z</time>
      </trkpt>
      <trkpt lat="43.14411" lon="5.69772">
        <ele>22</ele>
        <time>2021-09-22T10:58:05Z</time>
      </trkpt>
      <trkpt lat="43.14414" lon="5.69778">
        <ele>22.5</ele>
        <time>2021-09-22T10:58:11Z</time>
      </trkpt>
      <trkpt lat="43.14417" lon="5.69783">
        <ele>23</ele>
        <time>2021-09-22T10:58:15Z</time>
      </trkpt>
      <trkpt lat="43.14418" lon="5.69791">
        <ele>23</ele>
        <time>2021-09-22T10:58:21Z</time>
      </trkpt>
      <trkpt lat="43.14422" lon="5.69796">
        <ele>23.8</ele>
        <time>2021-09-22T10:58:25Z</time>
      </trkpt>
      <trkpt lat="43.14425" lon="5.69803">
        <ele>24.3</ele>
        <time>2021-09-22T10:58:31Z</time>
      </trkpt>
      <trkpt lat="43.14424" lon="5.6981">
        <ele>24.1</ele>
        <time>2021-09-22T10:58:37Z</time>
      </trkpt>
      <trkpt lat="43.14427" lon="5.69817">
        <ele>24.8</ele>
        <time>2021-09-22T10:58:51Z</time>
      </trkpt>
      <trkpt lat="43.1443" lon="5.69823">
        <ele>25.4</ele>
        <time>2021-09-22T10:58:57Z</time>
      </trkpt>
      <trkpt lat="43.14433" lon="5.69829">
        <ele>26.2</ele>
        <time>2021-09-22T10:59:05Z</time>
      </trkpt>
      <trkpt lat="43.14438" lon="5.69831">
        <ele>27.7</ele>
        <time>2021-09-22T10:59:11Z</time>
      </trkpt>
      <trkpt lat="43.14442" lon="5.69835">
        <ele>28.9</ele>
        <time>2021-09-22T10:59:19Z</time>
      </trkpt>
      <trkpt lat="43.1444" lon="5.69842">
        <ele>28.7</ele>
        <time>2021-09-22T10:59:25Z</time>
      </trkpt>
      <trkpt lat="43.14441" lon="5.69848">
        <ele>29.5</ele>
        <time>2021-09-22T10:59:31Z</time>
      </trkpt>
      <trkpt lat="43.14443" lon="5.69854">
        <ele>30.4</ele>
        <time>2021-09-22T10:59:41Z</time>
      </trkpt>
      <trkpt lat="43.14445" lon="5.69861">
        <ele>31.3</ele>
        <time>2021-09-22T10:59:47Z</time>
      </trkpt>
      <trkpt lat="43.14447" lon="5.69867">
        <ele>32.1</ele>
        <time>2021-09-22T10:59:53Z</time>
      </trkpt>
      <trkpt lat="43.14448" lon="5.69873">
        <ele>32.8</ele>
        <time>2021-09-22T10:59:59Z</time>
      </trkpt>
      <trkpt lat="43.14449" lon="5.6988">
        <ele>33.3</ele>
        <time>2021-09-22T11:00:07Z</time>
      </trkpt>
      <trkpt lat="43.1445" lon="5.69887">
        <ele>34</ele>
        <time>2021-09-22T11:00:17Z</time>
      </trkpt>
      <trkpt lat="43.1445" lon="5.69893">
        <ele>34.3</ele>
        <time>2021-09-22T11:00:25Z</time>
      </trkpt>
      <trkpt lat="43.14448" lon="5.699">
        <ele>34.2</ele>
        <time>2021-09-22T11:00:33Z</time>
      </trkpt>
      <trkpt lat="43.14448" lon="5.69906">
        <ele>34.5</ele>
        <time>2021-09-22T11:00:43Z</time>
      </trkpt>
      <trkpt lat="43.14447" lon="5.69913">
        <ele>34.4</ele>
        <time>2021-09-22T11:00:49Z</time>
      </trkpt>
      <trkpt lat="43.14446" lon="5.6992">
        <ele>34.5</ele>
        <time>2021-09-22T11:00:57Z</time>
      </trkpt>
      <trkpt lat="43.14445" lon="5.69926">
        <ele>34.7</ele>
        <time>2021-09-22T11:01:17Z</time>
      </trkpt>
      <trkpt lat="43.14441" lon="5.69931">
        <ele>33.9</ele>
        <time>2021-09-22T11:01:23Z</time>
      </trkpt>
      <trkpt lat="43.14438" lon="5.69936">
        <ele>33.2</ele>
        <time>2021-09-22T11:01:29Z</time>
      </trkpt>
      <trkpt lat="43.14437" lon="5.69943">
        <ele>33.2</ele>
        <time>2021-09-22T11:01:39Z</time>
      </trkpt>
      <trkpt lat="43.14433" lon="5.69949">
        <ele>32.4</ele>
        <time>2021-09-22T11:01:45Z</time>
      </trkpt>
      <trkpt lat="43.14432" lon="5.69957">
        <ele>32.6</ele>
        <time>2021-09-22T11:02:05Z</time>
      </trkpt>
      <trkpt lat="43.1443" lon="5.69963">
        <ele>32.4</ele>
        <time>2021-09-22T11:02:09Z</time>
      </trkpt>
      <trkpt lat="43.14429" lon="5.6997">
        <ele>32.6</ele>
        <time>2021-09-22T11:02:17Z</time>
      </trkpt>
      <trkpt lat="43.14429" lon="5.69976">
        <ele>33</ele>
        <time>2021-09-22T11:02:31Z</time>
      </trkpt>
      <trkpt lat="43.14429" lon="5.69985">
        <ele>33.4</ele>
        <time>2021-09-22T11:02:41Z</time>
      </trkpt>
      <trkpt lat="43.1443" lon="5.69992">
        <ele>34</ele>
        <time>2021-09-22T11:02:51Z</time>
      </trkpt>
      <trkpt lat="43.14431" lon="5.7">
        <ele>34.8</ele>
        <time>2021-09-22T11:03:01Z</time>
      </trkpt>
      <trkpt lat="43.1443" lon="5.70007">
        <ele>34.6</ele>
        <time>2021-09-22T11:03:09Z</time>
      </trkpt>
      <trkpt lat="43.14429" lon="5.70013">
        <ele>34.5</ele>
        <time>2021-09-22T11:03:17Z</time>
      </trkpt>
      <trkpt lat="43.14428" lon="5.70019">
        <ele>34.6</ele>
        <time>2021-09-22T11:03:25Z</time>
      </trkpt>
      <trkpt lat="43.14429" lon="5.70027">
        <ele>34.9</ele>
        <time>2021-09-22T11:03:37Z</time>
      </trkpt>
      <trkpt lat="43.14429" lon="5.70034">
        <ele>35.3</ele>
        <time>2021-09-22T11:03:45Z</time>
      </trkpt>
      <trkpt lat="43.14428" lon="5.70043">
        <ele>35.3</ele>
        <time>2021-09-22T11:03:51Z</time>
      </trkpt>
      <trkpt lat="43.14426" lon="5.7005">
        <ele>34.9</ele>
        <time>2021-09-22T11:03:59Z</time>
      </trkpt>
      <trkpt lat="43.14424" lon="5.70057">
        <ele>34.7</ele>
        <time>2021-09-22T11:04:07Z</time>
      </trkpt>
      <trkpt lat="43.14422" lon="5.70063">
        <ele>34.5</ele>
        <time>2021-09-22T11:04:15Z</time>
      </trkpt>
      <trkpt lat="43.14421" lon="5.70071">
        <ele>34.5</ele>
        <time>2021-09-22T11:04:25Z</time>
      </trkpt>
      <trkpt lat="43.14421" lon="5.70078">
        <ele>34.7</ele>
        <time>2021-09-22T11:04:33Z</time>
      </trkpt>
      <trkpt lat="43.14421" lon="5.70086">
        <ele>34.9</ele>
        <time>2021-09-22T11:04:39Z</time>
      </trkpt>
      <trkpt lat="43.1442" lon="5.70093">
        <ele>34.5</ele>
        <time>2021-09-22T11:04:47Z</time>
      </trkpt>
      <trkpt lat="43.14419" lon="5.70099">
        <ele>34</ele>
        <time>2021-09-22T11:04:55Z</time>
      </trkpt>
      <trkpt lat="43.14417" lon="5.70105">
        <ele>33.4</ele>
        <time>2021-09-22T11:05:13Z</time>
      </trkpt>
      <trkpt lat="43.14416" lon="5.70112">
        <ele>33.1</ele>
        <time>2021-09-22T11:05:23Z</time>
      </trkpt>
      <trkpt lat="43.14415" lon="5.70119">
        <ele>32.6</ele>
        <time>2021-09-22T11:05:29Z</time>
      </trkpt>
      <trkpt lat="43.14413" lon="5.70127">
        <ele>31.9</ele>
        <time>2021-09-22T11:05:35Z</time>
      </trkpt>
      <trkpt lat="43.14412" lon="5.70134">
        <ele>31.5</ele>
        <time>2021-09-22T11:05:41Z</time>
      </trkpt>
      <trkpt lat="43.14412" lon="5.70141">
        <ele>31.3</ele>
        <time>2021-09-22T11:06:05Z</time>
      </trkpt>
      <trkpt lat="43.14413" lon="5.70147">
        <ele>31.4</ele>
        <time>2021-09-22T11:06:11Z</time>
      </trkpt>
      <trkpt lat="43.14413" lon="5.70156">
        <ele>31.2</ele>
        <time>2021-09-22T11:06:17Z</time>
      </trkpt>
      <trkpt lat="43.14412" lon="5.70162">
        <ele>30.9</ele>
        <time>2021-09-22T11:06:23Z</time>
      </trkpt>
      <trkpt lat="43.14412" lon="5.7017">
        <ele>30.5</ele>
        <time>2021-09-22T11:06:31Z</time>
      </trkpt>
      <trkpt lat="43.1441" lon="5.70177">
        <ele>29.2</ele>
        <time>2021-09-22T11:06:37Z</time>
      </trkpt>
      <trkpt lat="43.14411" lon="5.70184">
        <ele>28.9</ele>
        <time>2021-09-22T11:06:47Z</time>
      </trkpt>
      <trkpt lat="43.14417" lon="5.70182">
        <ele>30.7</ele>
        <time>2021-09-22T11:06:57Z</time>
      </trkpt>
      <trkpt lat="43.14422" lon="5.70181">
        <ele>31.7</ele>
        <time>2021-09-22T11:07:11Z</time>
      </trkpt>
      <trkpt lat="43.14427" lon="5.70184">
        <ele>32.5</ele>
        <time>2021-09-22T11:07:23Z</time>
      </trkpt>
      <trkpt lat="43.14431" lon="5.70188">
        <ele>33.2</ele>
        <time>2021-09-22T11:07:29Z</time>
      </trkpt>
      <trkpt lat="43.14435" lon="5.70192">
        <ele>33.7</ele>
        <time>2021-09-22T11:07:35Z</time>
      </trkpt>
      <trkpt lat="43.14435" lon="5.70199">
        <ele>33.1</ele>
        <time>2021-09-22T11:07:43Z</time>
      </trkpt>
      <trkpt lat="43.14439" lon="5.70204">
        <ele>33.5</ele>
        <time>2021-09-22T11:07:49Z</time>
      </trkpt>
      <trkpt lat="43.1444" lon="5.7021">
        <ele>33.3</ele>
        <time>2021-09-22T11:07:59Z</time>
      </trkpt>
      <trkpt lat="43.14445" lon="5.70216">
        <ele>34</ele>
        <time>2021-09-22T11:08:21Z</time>
      </trkpt>
      <trkpt lat="43.14449" lon="5.70219">
        <ele>34.9</ele>
        <time>2021-09-22T11:08:27Z</time>
      </trkpt>
      <trkpt lat="43.14451" lon="5.70227">
        <ele>34.7</ele>
        <time>2021-09-22T11:08:37Z</time>
      </trkpt>
      <trkpt lat="43.14453" lon="5.70235">
        <ele>34.5</ele>
        <time>2021-09-22T11:08:43Z</time>
      </trkpt>
      <trkpt lat="43.14452" lon="5.70242">
        <ele>33.8</ele>
        <time>2021-09-22T11:08:47Z</time>
      </trkpt>
      <trkpt lat="43.14455" lon="5.70246">
        <ele>34.3</ele>
        <time>2021-09-22T11:09:21Z</time>
      </trkpt>
      <trkpt lat="43.14455" lon="5.70253">
        <ele>33.7</ele>
        <time>2021-09-22T11:09:31Z</time>
      </trkpt>
      <trkpt lat="43.14452" lon="5.70258">
        <ele>32.6</ele>
        <time>2021-09-22T11:09:41Z</time>
      </trkpt>
      <trkpt lat="43.14452" lon="5.70267">
        <ele>31.9</ele>
        <time>2021-09-22T11:09:49Z</time>
      </trkpt>
      <trkpt lat="43.14456" lon="5.70273">
        <ele>32.4</ele>
        <time>2021-09-22T11:09:57Z</time>
      </trkpt>
      <trkpt lat="43.14461" lon="5.70278">
        <ele>33.1</ele>
        <time>2021-09-22T11:10:03Z</time>
      </trkpt>
      <trkpt lat="43.14465" lon="5.70283">
        <ele>33.7</ele>
        <time>2021-09-22T11:10:09Z</time>
      </trkpt>
      <trkpt lat="43.14466" lon="5.70292">
        <ele>33.4</ele>
        <time>2021-09-22T11:10:15Z</time>
      </trkpt>
      <trkpt lat="43.14467" lon="5.70299">
        <ele>33</ele>
        <time>2021-09-22T11:10:21Z</time>
      </trkpt>
      <trkpt lat="43.1447" lon="5.70304">
        <ele>33.5</ele>
        <time>2021-09-22T11:10:29Z</time>
      </trkpt>
      <trkpt lat="43.14472" lon="5.70311">
        <ele>33.3</ele>
        <time>2021-09-22T11:10:37Z</time>
      </trkpt>
      <trkpt lat="43.14475" lon="5.70317">
        <ele>33.5</ele>
        <time>2021-09-22T11:10:45Z</time>
      </trkpt>
      <trkpt lat="43.14478" lon="5.70322">
        <ele>33.8</ele>
        <time>2021-09-22T11:10:51Z</time>
      </trkpt>
      <trkpt lat="43.14482" lon="5.70325">
        <ele>34.8</ele>
        <time>2021-09-22T11:10:57Z</time>
      </trkpt>
      <trkpt lat="43.14486" lon="5.70328">
        <ele>35.7</ele>
        <time>2021-09-22T11:11:05Z</time>
      </trkpt>
      <trkpt lat="43.1449" lon="5.70335">
        <ele>35.9</ele>
        <time>2021-09-22T11:11:17Z</time>
      </trkpt>
      <trkpt lat="43.14494" lon="5.70338">
        <ele>36.5</ele>
        <time>2021-09-22T11:11:31Z</time>
      </trkpt>
      <trkpt lat="43.14498" lon="5.70344">
        <ele>36.8</ele>
        <time>2021-09-22T11:11:39Z</time>
      </trkpt>
      <trkpt lat="43.14505" lon="5.70344">
        <ele>38.2</ele>
        <time>2021-09-22T11:11:45Z</time>
      </trkpt>
      <trkpt lat="43.14509" lon="5.70346">
        <ele>38.9</ele>
        <time>2021-09-22T11:11:57Z</time>
      </trkpt>
      <trkpt lat="43.14514" lon="5.70351">
        <ele>39.2</ele>
        <time>2021-09-22T11:12:15Z</time>
      </trkpt>
      <trkpt lat="43.1452" lon="5.7036">
        <ele>39.5</ele>
        <time>2021-09-22T11:12:21Z</time>
      </trkpt>
      <trkpt lat="43.14525" lon="5.70366">
        <ele>40.1</ele>
        <time>2021-09-22T11:12:25Z</time>
      </trkpt>
      <trkpt lat="43.14529" lon="5.7037">
        <ele>40.5</ele>
        <time>2021-09-22T11:12:29Z</time>
      </trkpt>
      <trkpt lat="43.14534" lon="5.70375">
        <ele>41.3</ele>
        <time>2021-09-22T11:12:37Z</time>
      </trkpt>
      <trkpt lat="43.14536" lon="5.70382">
        <ele>41.2</ele>
        <time>2021-09-22T11:12:45Z</time>
      </trkpt>
      <trkpt lat="43.1454" lon="5.70388">
        <ele>41.6</ele>
        <time>2021-09-22T11:12:51Z</time>
      </trkpt>
      <trkpt lat="43.14543" lon="5.70395">
        <ele>42</ele>
        <time>2021-09-22T11:12:57Z</time>
      </trkpt>
      <trkpt lat="43.14548" lon="5.70396">
        <ele>43.6</ele>
        <time>2021-09-22T11:13:03Z</time>
      </trkpt>
      <trkpt lat="43.1455" lon="5.70404">
        <ele>43.5</ele>
        <time>2021-09-22T11:13:23Z</time>
      </trkpt>
      <trkpt lat="43.1455" lon="5.70411">
        <ele>43.1</ele>
        <time>2021-09-22T11:13:27Z</time>
      </trkpt>
      <trkpt lat="43.14552" lon="5.70418">
        <ele>43.1</ele>
        <time>2021-09-22T11:13:33Z</time>
      </trkpt>
      <trkpt lat="43.14553" lon="5.70424">
        <ele>43.2</ele>
        <time>2021-09-22T11:13:41Z</time>
      </trkpt>
      <trkpt lat="43.14554" lon="5.70431">
        <ele>43.4</ele>
        <time>2021-09-22T11:14:01Z</time>
      </trkpt>
      <trkpt lat="43.14553" lon="5.70438">
        <ele>42.8</ele>
        <time>2021-09-22T11:14:13Z</time>
      </trkpt>
      <trkpt lat="43.14553" lon="5.70445">
        <ele>42.8</ele>
        <time>2021-09-22T11:14:21Z</time>
      </trkpt>
      <trkpt lat="43.14551" lon="5.70452">
        <ele>41.9</ele>
        <time>2021-09-22T11:14:29Z</time>
      </trkpt>
      <trkpt lat="43.1455" lon="5.70459">
        <ele>41.2</ele>
        <time>2021-09-22T11:14:39Z</time>
      </trkpt>
      <trkpt lat="43.14554" lon="5.70462">
        <ele>42.5</ele>
        <time>2021-09-22T11:14:51Z</time>
      </trkpt>
      <trkpt lat="43.14556" lon="5.70469">
        <ele>43.1</ele>
        <time>2021-09-22T11:15:07Z</time>
      </trkpt>
      <trkpt lat="43.14558" lon="5.70474">
        <ele>43.9</ele>
        <time>2021-09-22T11:16:29Z</time>
      </trkpt>
      <trkpt lat="43.14557" lon="5.70481">
        <ele>43.4</ele>
        <time>2021-09-22T11:17:07Z</time>
      </trkpt>
      <trkpt lat="43.1456" lon="5.70487">
        <ele>44.2</ele>
        <time>2021-09-22T11:17:21Z</time>
      </trkpt>
      <trkpt lat="43.14563" lon="5.70492">
        <ele>45.5</ele>
        <time>2021-09-22T11:17:29Z</time>
      </trkpt>
      <trkpt lat="43.14569" lon="5.70496">
        <ele>47.6</ele>
        <time>2021-09-22T11:17:35Z</time>
      </trkpt>
      <trkpt lat="43.14573" lon="5.705">
        <ele>48.9</ele>
        <time>2021-09-22T11:17:41Z</time>
      </trkpt>
      <trkpt lat="43.14578" lon="5.70498">
        <ele>50.9</ele>
        <time>2021-09-22T11:17:49Z</time>
      </trkpt>
      <trkpt lat="43.14582" lon="5.70495">
        <ele>52.5</ele>
        <time>2021-09-22T11:17:57Z</time>
      </trkpt>
      <trkpt lat="43.14587" lon="5.70495">
        <ele>53.8</ele>
        <time>2021-09-22T11:18:05Z</time>
      </trkpt>
      <trkpt lat="43.1459" lon="5.70505">
        <ele>54</ele>
        <time>2021-09-22T11:18:17Z</time>
      </trkpt>
      <trkpt lat="43.14592" lon="5.70512">
        <ele>53.7</ele>
        <time>2021-09-22T11:18:21Z</time>
      </trkpt>
      <trkpt lat="43.14593" lon="5.70519">
        <ele>53.5</ele>
        <time>2021-09-22T11:18:25Z</time>
      </trkpt>
      <trkpt lat="43.14597" lon="5.70525">
        <ele>53.8</ele>
        <time>2021-09-22T11:18:31Z</time>
      </trkpt>
      <trkpt lat="43.14598" lon="5.70532">
        <ele>53.4</ele>
        <time>2021-09-22T11:18:43Z</time>
      </trkpt>
      <trkpt lat="43.14594" lon="5.70536">
        <ele>52.2</ele>
        <time>2021-09-22T11:18:49Z</time>
      </trkpt>
      <trkpt lat="43.14592" lon="5.70545">
        <ele>51</ele>
        <time>2021-09-22T11:18:55Z</time>
      </trkpt>
      <trkpt lat="43.1459" lon="5.70552">
        <ele>49.9</ele>
        <time>2021-09-22T11:18:59Z</time>
      </trkpt>
      <trkpt lat="43.14589" lon="5.7056">
        <ele>49.1</ele>
        <time>2021-09-22T11:19:03Z</time>
      </trkpt>
      <trkpt lat="43.14588" lon="5.70568">
        <ele>48.2</ele>
        <time>2021-09-22T11:19:07Z</time>
      </trkpt>
      <trkpt lat="43.14586" lon="5.70574">
        <ele>47.4</ele>
        <time>2021-09-22T11:19:13Z</time>
      </trkpt>
      <trkpt lat="43.14585" lon="5.7058">
        <ele>46.5</ele>
        <time>2021-09-22T11:19:19Z</time>
      </trkpt>
      <trkpt lat="43.14582" lon="5.70586">
        <ele>45.7</ele>
        <time>2021-09-22T11:19:23Z</time>
      </trkpt>
      <trkpt lat="43.14579" lon="5.70592">
        <ele>45</ele>
        <time>2021-09-22T11:19:27Z</time>
      </trkpt>
      <trkpt lat="43.14577" lon="5.70597">
        <ele>44.2</ele>
        <time>2021-09-22T11:19:31Z</time>
      </trkpt>
      <trkpt lat="43.14574" lon="5.70604">
        <ele>43.2</ele>
        <time>2021-09-22T11:19:35Z</time>
      </trkpt>
      <trkpt lat="43.1457" lon="5.70612">
        <ele>41.9</ele>
        <time>2021-09-22T11:19:41Z</time>
      </trkpt>
      <trkpt lat="43.14567" lon="5.70618">
        <ele>40.8</ele>
        <time>2021-09-22T11:19:49Z</time>
      </trkpt>
      <trkpt lat="43.14564" lon="5.70624">
        <ele>39.7</ele>
        <time>2021-09-22T11:19:55Z</time>
      </trkpt>
      <trkpt lat="43.14561" lon="5.7063">
        <ele>38.3</ele>
        <time>2021-09-22T11:20:01Z</time>
      </trkpt>
      <trkpt lat="43.14558" lon="5.70637">
        <ele>36.7</ele>
        <time>2021-09-22T11:20:07Z</time>
      </trkpt>
      <trkpt lat="43.14555" lon="5.70644">
        <ele>34.9</ele>
        <time>2021-09-22T11:20:13Z</time>
      </trkpt>
      <trkpt lat="43.14552" lon="5.70651">
        <ele>33.1</ele>
        <time>2021-09-22T11:20:19Z</time>
      </trkpt>
      <trkpt lat="43.1455" lon="5.70656">
        <ele>31.7</ele>
        <time>2021-09-22T11:20:23Z</time>
      </trkpt>
      <trkpt lat="43.14547" lon="5.70663">
        <ele>29.9</ele>
        <time>2021-09-22T11:20:31Z</time>
      </trkpt>
      <trkpt lat="43.14544" lon="5.70668">
        <ele>28.3</ele>
        <time>2021-09-22T11:20:39Z</time>
      </trkpt>
      <trkpt lat="43.14542" lon="5.70674">
        <ele>26.9</ele>
        <time>2021-09-22T11:20:49Z</time>
      </trkpt>
      <trkpt lat="43.14547" lon="5.70678">
        <ele>27.1</ele>
        <time>2021-09-22T11:20:59Z</time>
      </trkpt>
      <trkpt lat="43.14552" lon="5.70678">
        <ele>28</ele>
        <time>2021-09-22T11:21:05Z</time>
      </trkpt>
      <trkpt lat="43.14557" lon="5.70679">
        <ele>28.9</ele>
        <time>2021-09-22T11:21:13Z</time>
      </trkpt>
      <trkpt lat="43.14563" lon="5.7068">
        <ele>29.7</ele>
        <time>2021-09-22T11:21:27Z</time>
      </trkpt>
      <trkpt lat="43.14569" lon="5.70679">
        <ele>31</ele>
        <time>2021-09-22T11:21:35Z</time>
      </trkpt>
      <trkpt lat="43.14574" lon="5.70682">
        <ele>31.4</ele>
        <time>2021-09-22T11:21:43Z</time>
      </trkpt>
      <trkpt lat="43.1458" lon="5.70685">
        <ele>31.7</ele>
        <time>2021-09-22T11:21:51Z</time>
      </trkpt>
      <trkpt lat="43.14586" lon="5.70685">
        <ele>32.4</ele>
        <time>2021-09-22T11:21:59Z</time>
      </trkpt>
      <trkpt lat="43.14592" lon="5.70684">
        <ele>33</ele>
        <time>2021-09-22T11:22:05Z</time>
      </trkpt>
      <trkpt lat="43.14597" lon="5.70686">
        <ele>32.6</ele>
        <time>2021-09-22T11:22:11Z</time>
      </trkpt>
      <trkpt lat="43.14601" lon="5.70688">
        <ele>32.5</ele>
        <time>2021-09-22T11:22:17Z</time>
      </trkpt>
      <trkpt lat="43.14606" lon="5.70688">
        <ele>32.7</ele>
        <time>2021-09-22T11:22:21Z</time>
      </trkpt>
      <trkpt lat="43.14613" lon="5.70688">
        <ele>33</ele>
        <time>2021-09-22T11:22:27Z</time>
      </trkpt>
      <trkpt lat="43.14617" lon="5.70686">
        <ele>33.7</ele>
        <time>2021-09-22T11:22:31Z</time>
      </trkpt>
      <trkpt lat="43.14623" lon="5.70685">
        <ele>34.2</ele>
        <time>2021-09-22T11:22:37Z</time>
      </trkpt>
      <trkpt lat="43.14628" lon="5.70684">
        <ele>34.5</ele>
        <time>2021-09-22T11:22:45Z</time>
      </trkpt>
      <trkpt lat="43.14633" lon="5.70684">
        <ele>34.7</ele>
        <time>2021-09-22T11:22:55Z</time>
      </trkpt>
      <trkpt lat="43.14638" lon="5.70683">
        <ele>35.2</ele>
        <time>2021-09-22T11:23:01Z</time>
      </trkpt>
      <trkpt lat="43.14642" lon="5.70686">
        <ele>34.8</ele>
        <time>2021-09-22T11:23:17Z</time>
      </trkpt>
      <trkpt lat="43.14648" lon="5.70686">
        <ele>34.9</ele>
        <time>2021-09-22T11:23:25Z</time>
      </trkpt>
      <trkpt lat="43.14653" lon="5.70687">
        <ele>34.9</ele>
        <time>2021-09-22T11:23:35Z</time>
      </trkpt>
      <trkpt lat="43.14658" lon="5.70685">
        <ele>35.7</ele>
        <time>2021-09-22T11:23:43Z</time>
      </trkpt>
      <trkpt lat="43.14664" lon="5.70686">
        <ele>35.8</ele>
        <time>2021-09-22T11:23:55Z</time>
      </trkpt>
      <trkpt lat="43.1467" lon="5.70686">
        <ele>36.2</ele>
        <time>2021-09-22T11:24:03Z</time>
      </trkpt>
      <trkpt lat="43.14675" lon="5.70686">
        <ele>36.4</ele>
        <time>2021-09-22T11:24:13Z</time>
      </trkpt>
      <trkpt lat="43.14679" lon="5.70685">
        <ele>37</ele>
        <time>2021-09-22T11:24:27Z</time>
      </trkpt>
      <trkpt lat="43.14684" lon="5.70685">
        <ele>37.5</ele>
        <time>2021-09-22T11:24:33Z</time>
      </trkpt>
      <trkpt lat="43.14689" lon="5.70685">
        <ele>37.7</ele>
        <time>2021-09-22T11:24:41Z</time>
      </trkpt>
      <trkpt lat="43.14694" lon="5.70687">
        <ele>37.9</ele>
        <time>2021-09-22T11:24:49Z</time>
      </trkpt>
      <trkpt lat="43.14698" lon="5.70692">
        <ele>37.5</ele>
        <time>2021-09-22T11:25:01Z</time>
      </trkpt>
      <trkpt lat="43.14702" lon="5.70696">
        <ele>37.4</ele>
        <time>2021-09-22T11:25:07Z</time>
      </trkpt>
      <trkpt lat="43.14701" lon="5.70702">
        <ele>36.4</ele>
        <time>2021-09-22T11:29:15Z</time>
      </trkpt>
      <trkpt lat="43.14698" lon="5.70697">
        <ele>36.7</ele>
        <time>2021-09-22T11:29:43Z</time>
      </trkpt>
      <trkpt lat="43.14696" lon="5.70703">
        <ele>35.6</ele>
        <time>2021-09-22T11:30:45Z</time>
      </trkpt>
      <trkpt lat="43.14691" lon="5.70707">
        <ele>34.5</ele>
        <time>2021-09-22T11:30:51Z</time>
      </trkpt>
      <trkpt lat="43.14688" lon="5.70711">
        <ele>33.4</ele>
        <time>2021-09-22T11:30:57Z</time>
      </trkpt>
      <trkpt lat="43.14685" lon="5.70716">
        <ele>32.1</ele>
        <time>2021-09-22T11:31:01Z</time>
      </trkpt>
      <trkpt lat="43.1468" lon="5.70719">
        <ele>30.7</ele>
        <time>2021-09-22T11:31:09Z</time>
      </trkpt>
      <trkpt lat="43.14676" lon="5.70724">
        <ele>29.2</ele>
        <time>2021-09-22T11:31:19Z</time>
      </trkpt>
      <trkpt lat="43.14675" lon="5.7073">
        <ele>27.8</ele>
        <time>2021-09-22T11:31:27Z</time>
      </trkpt>
      <trkpt lat="43.14674" lon="5.70738">
        <ele>26.2</ele>
        <time>2021-09-22T11:31:37Z</time>
      </trkpt>
      <trkpt lat="43.14672" lon="5.70744">
        <ele>24.4</ele>
        <time>2021-09-22T11:31:45Z</time>
      </trkpt>
      <trkpt lat="43.14675" lon="5.7074">
        <ele>25.9</ele>
        <time>2021-09-22T11:33:19Z</time>
      </trkpt>
      <trkpt lat="43.14681" lon="5.70739">
        <ele>27.3</ele>
        <time>2021-09-22T11:34:07Z</time>
      </trkpt>
      <trkpt lat="43.14679" lon="5.70745">
        <ele>25.7</ele>
        <time>2021-09-22T11:35:01Z</time>
      </trkpt>
      <trkpt lat="43.14678" lon="5.70739">
        <ele>26.7</ele>
        <time>2021-09-22T11:49:43Z</time>
      </trkpt>
      <trkpt lat="43.14682" lon="5.70736">
        <ele>28</ele>
        <time>2021-09-22T12:36:45Z</time>
      </trkpt>
      <trkpt lat="43.14682" lon="5.70743">
        <ele>26.9</ele>
        <time>2021-09-22T13:05:03Z</time>
      </trkpt>
      <trkpt lat="43.14684" lon="5.70749">
        <ele>26.2</ele>
        <time>2021-09-22T13:05:49Z</time>
      </trkpt>
      <trkpt lat="43.14684" lon="5.70742">
        <ele>27.3</ele>
        <time>2021-09-22T13:15:21Z</time>
      </trkpt>
      <trkpt lat="43.14681" lon="5.70737">
        <ele>27.6</ele>
        <time>2021-09-22T13:16:05Z</time>
      </trkpt>
      <trkpt lat="43.14683" lon="5.7073">
        <ele>29.3</ele>
        <time>2021-09-22T13:16:21Z</time>
      </trkpt>
      <trkpt lat="43.14683" lon="5.70723">
        <ele>30.6</ele>
        <time>2021-09-22T13:16:27Z</time>
      </trkpt>
      <trkpt lat="43.14683" lon="5.70715">
        <ele>31.9</ele>
        <time>2021-09-22T13:16:35Z</time>
      </trkpt>
      <trkpt lat="43.14686" lon="5.70708">
        <ele>33.5</ele>
        <time>2021-09-22T13:16:41Z</time>
      </trkpt>
      <trkpt lat="43.14688" lon="5.70702">
        <ele>34.8</ele>
        <time>2021-09-22T13:16:47Z</time>
      </trkpt>
      <trkpt lat="43.14692" lon="5.70697">
        <ele>36.1</ele>
        <time>2021-09-22T13:16:55Z</time>
      </trkpt>
      <trkpt lat="43.14696" lon="5.70693">
        <ele>37.1</ele>
        <time>2021-09-22T13:17:19Z</time>
      </trkpt>
      <trkpt lat="43.14698" lon="5.70699">
        <ele>36.5</ele>
        <time>2021-09-22T13:17:29Z</time>
      </trkpt>
      <trkpt lat="43.14702" lon="5.70706">
        <ele>36</ele>
        <time>2021-09-22T13:17:37Z</time>
      </trkpt>
      <trkpt lat="43.14702" lon="5.70714">
        <ele>34.8</ele>
        <time>2021-09-22T13:17:45Z</time>
      </trkpt>
      <trkpt lat="43.14701" lon="5.70722">
        <ele>33.6</ele>
        <time>2021-09-22T13:17:51Z</time>
      </trkpt>
      <trkpt lat="43.14698" lon="5.7073">
        <ele>32.1</ele>
        <time>2021-09-22T13:17:59Z</time>
      </trkpt>
      <trkpt lat="43.14699" lon="5.70737">
        <ele>31.2</ele>
        <time>2021-09-22T13:18:07Z</time>
      </trkpt>
      <trkpt lat="43.14698" lon="5.70743">
        <ele>30.2</ele>
        <time>2021-09-22T13:18:23Z</time>
      </trkpt>
      <trkpt lat="43.14696" lon="5.7075">
        <ele>28.7</ele>
        <time>2021-09-22T13:18:33Z</time>
      </trkpt>
      <trkpt lat="43.14696" lon="5.70757">
        <ele>28</ele>
        <time>2021-09-22T13:18:39Z</time>
      </trkpt>
      <trkpt lat="43.14697" lon="5.70764">
        <ele>27.7</ele>
        <time>2021-09-22T13:18:49Z</time>
      </trkpt>
      <trkpt lat="43.14698" lon="5.70772">
        <ele>27.4</ele>
        <time>2021-09-22T13:18:57Z</time>
      </trkpt>
      <trkpt lat="43.14695" lon="5.70779">
        <ele>26.1</ele>
        <time>2021-09-22T13:19:07Z</time>
      </trkpt>
      <trkpt lat="43.14694" lon="5.70785">
        <ele>25.2</ele>
        <time>2021-09-22T13:19:21Z</time>
      </trkpt>
      <trkpt lat="43.14692" lon="5.70791">
        <ele>24.3</ele>
        <time>2021-09-22T13:19:29Z</time>
      </trkpt>
      <trkpt lat="43.14693" lon="5.70798">
        <ele>23.8</ele>
        <time>2021-09-22T13:19:37Z</time>
      </trkpt>
      <trkpt lat="43.14696" lon="5.70804">
        <ele>24.1</ele>
        <time>2021-09-22T13:19:43Z</time>
      </trkpt>
      <trkpt lat="43.14692" lon="5.70809">
        <ele>22.8</ele>
        <time>2021-09-22T13:19:53Z</time>
      </trkpt>
      <trkpt lat="43.14691" lon="5.70816">
        <ele>21.6</ele>
        <time>2021-09-22T13:20:03Z</time>
      </trkpt>
      <trkpt lat="43.14688" lon="5.70821">
        <ele>20.4</ele>
        <time>2021-09-22T13:20:17Z</time>
      </trkpt>
      <trkpt lat="43.14687" lon="5.70828">
        <ele>19.5</ele>
        <time>2021-09-22T13:20:23Z</time>
      </trkpt>
      <trkpt lat="43.14688" lon="5.70834">
        <ele>18.9</ele>
        <time>2021-09-22T13:20:29Z</time>
      </trkpt>
      <trkpt lat="43.14688" lon="5.70841">
        <ele>18.4</ele>
        <time>2021-09-22T13:20:35Z</time>
      </trkpt>
      <trkpt lat="43.14688" lon="5.7085">
        <ele>17.5</ele>
        <time>2021-09-22T13:20:41Z</time>
      </trkpt>
      <trkpt lat="43.14688" lon="5.70857">
        <ele>16.9</ele>
        <time>2021-09-22T13:20:47Z</time>
      </trkpt>
      <trkpt lat="43.14689" lon="5.70864">
        <ele>16.4</ele>
        <time>2021-09-22T13:20:53Z</time>
      </trkpt>
      <trkpt lat="43.14689" lon="5.7087">
        <ele>15.8</ele>
        <time>2021-09-22T13:20:59Z</time>
      </trkpt>
      <trkpt lat="43.14689" lon="5.70877">
        <ele>15.1</ele>
        <time>2021-09-22T13:21:05Z</time>
      </trkpt>
      <trkpt lat="43.14691" lon="5.70883">
        <ele>14.9</ele>
        <time>2021-09-22T13:21:11Z</time>
      </trkpt>
      <trkpt lat="43.14696" lon="5.70887">
        <ele>15.6</ele>
        <time>2021-09-22T13:21:39Z</time>
      </trkpt>
      <trkpt lat="43.147" lon="5.7089">
        <ele>16.3</ele>
        <time>2021-09-22T13:21:51Z</time>
      </trkpt>
      <trkpt lat="43.14704" lon="5.70893">
        <ele>16.6</ele>
        <time>2021-09-22T13:22:01Z</time>
      </trkpt>
      <trkpt lat="43.14709" lon="5.70897">
        <ele>16.9</ele>
        <time>2021-09-22T13:22:09Z</time>
      </trkpt>
      <trkpt lat="43.14714" lon="5.70901">
        <ele>17.2</ele>
        <time>2021-09-22T13:22:17Z</time>
      </trkpt>
      <trkpt lat="43.14717" lon="5.70905">
        <ele>17.2</ele>
        <time>2021-09-22T13:22:27Z</time>
      </trkpt>
      <trkpt lat="43.14722" lon="5.70908">
        <ele>17.5</ele>
        <time>2021-09-22T13:22:37Z</time>
      </trkpt>
      <trkpt lat="43.14726" lon="5.70912">
        <ele>17.6</ele>
        <time>2021-09-22T13:22:49Z</time>
      </trkpt>
      <trkpt lat="43.14731" lon="5.70914">
        <ele>17.8</ele>
        <time>2021-09-22T13:22:59Z</time>
      </trkpt>
      <trkpt lat="43.14735" lon="5.70917">
        <ele>17.8</ele>
        <time>2021-09-22T13:23:17Z</time>
      </trkpt>
      <trkpt lat="43.14737" lon="5.70924">
        <ele>17.5</ele>
        <time>2021-09-22T13:23:31Z</time>
      </trkpt>
      <trkpt lat="43.1474" lon="5.70929">
        <ele>17.6</ele>
        <time>2021-09-22T13:23:43Z</time>
      </trkpt>
      <trkpt lat="43.14745" lon="5.70932">
        <ele>17.9</ele>
        <time>2021-09-22T13:23:53Z</time>
      </trkpt>
      <trkpt lat="43.14747" lon="5.70939">
        <ele>17.5</ele>
        <time>2021-09-22T13:24:15Z</time>
      </trkpt>
      <trkpt lat="43.14748" lon="5.70946">
        <ele>17</ele>
        <time>2021-09-22T13:24:23Z</time>
      </trkpt>
      <trkpt lat="43.14754" lon="5.7095">
        <ele>17.3</ele>
        <time>2021-09-22T13:24:29Z</time>
      </trkpt>
      <trkpt lat="43.14757" lon="5.70955">
        <ele>17.3</ele>
        <time>2021-09-22T13:24:35Z</time>
      </trkpt>
      <trkpt lat="43.14761" lon="5.70961">
        <ele>17.4</ele>
        <time>2021-09-22T13:24:45Z</time>
      </trkpt>
      <trkpt lat="43.14766" lon="5.70965">
        <ele>17.5</ele>
        <time>2021-09-22T13:24:51Z</time>
      </trkpt>
      <trkpt lat="43.1477" lon="5.70971">
        <ele>17.5</ele>
        <time>2021-09-22T13:25:07Z</time>
      </trkpt>
      <trkpt lat="43.14774" lon="5.70974">
        <ele>17.6</ele>
        <time>2021-09-22T13:25:15Z</time>
      </trkpt>
      <trkpt lat="43.1478" lon="5.70975">
        <ele>18.3</ele>
        <time>2021-09-22T13:25:23Z</time>
      </trkpt>
      <trkpt lat="43.14786" lon="5.70976">
        <ele>18.9</ele>
        <time>2021-09-22T13:25:29Z</time>
      </trkpt>
      <trkpt lat="43.14792" lon="5.70978">
        <ele>19.6</ele>
        <time>2021-09-22T13:25:35Z</time>
      </trkpt>
      <trkpt lat="43.14797" lon="5.70979">
        <ele>20.1</ele>
        <time>2021-09-22T13:25:39Z</time>
      </trkpt>
      <trkpt lat="43.14803" lon="5.70978">
        <ele>20.9</ele>
        <time>2021-09-22T13:25:45Z</time>
      </trkpt>
      <trkpt lat="43.1481" lon="5.70978">
        <ele>21.8</ele>
        <time>2021-09-22T13:25:51Z</time>
      </trkpt>
      <trkpt lat="43.14814" lon="5.70978">
        <ele>22.5</ele>
        <time>2021-09-22T13:25:55Z</time>
      </trkpt>
      <trkpt lat="43.1482" lon="5.70978">
        <ele>23.1</ele>
        <time>2021-09-22T13:25:59Z</time>
      </trkpt>
      <trkpt lat="43.14826" lon="5.7098">
        <ele>23.7</ele>
        <time>2021-09-22T13:26:03Z</time>
      </trkpt>
      <trkpt lat="43.1483" lon="5.70981">
        <ele>24.1</ele>
        <time>2021-09-22T13:26:07Z</time>
      </trkpt>
      <trkpt lat="43.14835" lon="5.70982">
        <ele>24.6</ele>
        <time>2021-09-22T13:26:11Z</time>
      </trkpt>
      <trkpt lat="43.1484" lon="5.70983">
        <ele>24.9</ele>
        <time>2021-09-22T13:26:15Z</time>
      </trkpt>
      <trkpt lat="43.14845" lon="5.70984">
        <ele>25.1</ele>
        <time>2021-09-22T13:26:19Z</time>
      </trkpt>
      <trkpt lat="43.14849" lon="5.70985">
        <ele>25.4</ele>
        <time>2021-09-22T13:26:23Z</time>
      </trkpt>
      <trkpt lat="43.14855" lon="5.70986">
        <ele>25.7</ele>
        <time>2021-09-22T13:26:27Z</time>
      </trkpt>
      <trkpt lat="43.14859" lon="5.70988">
        <ele>25.7</ele>
        <time>2021-09-22T13:26:31Z</time>
      </trkpt>
      <trkpt lat="43.14865" lon="5.70993">
        <ele>25.6</ele>
        <time>2021-09-22T13:26:37Z</time>
      </trkpt>
      <trkpt lat="43.14869" lon="5.70997">
        <ele>25.4</ele>
        <time>2021-09-22T13:26:41Z</time>
      </trkpt>
      <trkpt lat="43.14871" lon="5.71004">
        <ele>25.3</ele>
        <time>2021-09-22T13:26:47Z</time>
      </trkpt>
      <trkpt lat="43.14872" lon="5.7101">
        <ele>25.5</ele>
        <time>2021-09-22T13:26:51Z</time>
      </trkpt>
      <trkpt lat="43.14872" lon="5.71018">
        <ele>25.6</ele>
        <time>2021-09-22T13:26:57Z</time>
      </trkpt>
      <trkpt lat="43.14872" lon="5.71025">
        <ele>25.7</ele>
        <time>2021-09-22T13:27:03Z</time>
      </trkpt>
      <trkpt lat="43.1487" lon="5.71033">
        <ele>25.8</ele>
        <time>2021-09-22T13:27:09Z</time>
      </trkpt>
      <trkpt lat="43.1487" lon="5.7104">
        <ele>25.9</ele>
        <time>2021-09-22T13:27:13Z</time>
      </trkpt>
      <trkpt lat="43.14871" lon="5.71046">
        <ele>26.1</ele>
        <time>2021-09-22T13:27:17Z</time>
      </trkpt>
      <trkpt lat="43.14873" lon="5.71054">
        <ele>26.4</ele>
        <time>2021-09-22T13:27:23Z</time>
      </trkpt>
      <trkpt lat="43.14876" lon="5.71061">
        <ele>26.7</ele>
        <time>2021-09-22T13:27:29Z</time>
      </trkpt>
      <trkpt lat="43.14878" lon="5.71067">
        <ele>26.9</ele>
        <time>2021-09-22T13:27:33Z</time>
      </trkpt>
      <trkpt lat="43.14877" lon="5.71074">
        <ele>27</ele>
        <time>2021-09-22T13:27:39Z</time>
      </trkpt>
      <trkpt lat="43.14877" lon="5.7108">
        <ele>27</ele>
        <time>2021-09-22T13:27:45Z</time>
      </trkpt>
      <trkpt lat="43.14877" lon="5.71087">
        <ele>27.2</ele>
        <time>2021-09-22T13:27:53Z</time>
      </trkpt>
      <trkpt lat="43.14879" lon="5.71093">
        <ele>27.4</ele>
        <time>2021-09-22T13:27:59Z</time>
      </trkpt>
      <trkpt lat="43.14883" lon="5.71099">
        <ele>27.6</ele>
        <time>2021-09-22T13:28:03Z</time>
      </trkpt>
      <trkpt lat="43.14886" lon="5.71108">
        <ele>27.8</ele>
        <time>2021-09-22T13:28:09Z</time>
      </trkpt>
      <trkpt lat="43.14886" lon="5.71116">
        <ele>27.9</ele>
        <time>2021-09-22T13:28:15Z</time>
      </trkpt>
      <trkpt lat="43.14886" lon="5.71124">
        <ele>28</ele>
        <time>2021-09-22T13:28:21Z</time>
      </trkpt>
      <trkpt lat="43.14889" lon="5.71131">
        <ele>28</ele>
        <time>2021-09-22T13:28:27Z</time>
      </trkpt>
      <trkpt lat="43.14889" lon="5.71137">
        <ele>28.1</ele>
        <time>2021-09-22T13:28:35Z</time>
      </trkpt>
      <trkpt lat="43.14891" lon="5.71143">
        <ele>28.1</ele>
        <time>2021-09-22T13:28:47Z</time>
      </trkpt>
      <trkpt lat="43.14893" lon="5.71149">
        <ele>28.1</ele>
        <time>2021-09-22T13:28:53Z</time>
      </trkpt>
      <trkpt lat="43.14893" lon="5.71156">
        <ele>28.1</ele>
        <time>2021-09-22T13:28:59Z</time>
      </trkpt>
      <trkpt lat="43.14891" lon="5.71164">
        <ele>28.2</ele>
        <time>2021-09-22T13:29:09Z</time>
      </trkpt>
      <trkpt lat="43.14888" lon="5.7117">
        <ele>28.4</ele>
        <time>2021-09-22T13:29:15Z</time>
      </trkpt>
      <trkpt lat="43.14889" lon="5.71177">
        <ele>28.4</ele>
        <time>2021-09-22T13:29:21Z</time>
      </trkpt>
      <trkpt lat="43.14889" lon="5.71183">
        <ele>28.3</ele>
        <time>2021-09-22T13:29:25Z</time>
      </trkpt>
      <trkpt lat="43.14889" lon="5.71189">
        <ele>28.3</ele>
        <time>2021-09-22T13:29:31Z</time>
      </trkpt>
      <trkpt lat="43.14888" lon="5.71195">
        <ele>28.4</ele>
        <time>2021-09-22T13:29:49Z</time>
      </trkpt>
      <trkpt lat="43.14887" lon="5.71202">
        <ele>28.4</ele>
        <time>2021-09-22T13:29:59Z</time>
      </trkpt>
      <trkpt lat="43.14887" lon="5.71211">
        <ele>28.4</ele>
        <time>2021-09-22T13:30:07Z</time>
      </trkpt>
      <trkpt lat="43.14886" lon="5.71219">
        <ele>28.5</ele>
        <time>2021-09-22T13:30:13Z</time>
      </trkpt>
      <trkpt lat="43.14885" lon="5.71225">
        <ele>28.5</ele>
        <time>2021-09-22T13:30:19Z</time>
      </trkpt>
      <trkpt lat="43.14884" lon="5.71231">
        <ele>28.5</ele>
        <time>2021-09-22T13:30:27Z</time>
      </trkpt>
      <trkpt lat="43.14885" lon="5.71239">
        <ele>28.5</ele>
        <time>2021-09-22T13:30:35Z</time>
      </trkpt>
      <trkpt lat="43.14885" lon="5.71246">
        <ele>28.5</ele>
        <time>2021-09-22T13:30:41Z</time>
      </trkpt>
      <trkpt lat="43.14884" lon="5.71252">
        <ele>28.6</ele>
        <time>2021-09-22T13:30:47Z</time>
      </trkpt>
      <trkpt lat="43.14881" lon="5.71258">
        <ele>28.7</ele>
        <time>2021-09-22T13:30:53Z</time>
      </trkpt>
      <trkpt lat="43.14878" lon="5.71264">
        <ele>29</ele>
        <time>2021-09-22T13:31:01Z</time>
      </trkpt>
      <trkpt lat="43.14874" lon="5.7127">
        <ele>29.2</ele>
        <time>2021-09-22T13:31:09Z</time>
      </trkpt>
      <trkpt lat="43.14872" lon="5.71277">
        <ele>29.3</ele>
        <time>2021-09-22T13:31:17Z</time>
      </trkpt>
      <trkpt lat="43.1487" lon="5.71284">
        <ele>29.4</ele>
        <time>2021-09-22T13:31:27Z</time>
      </trkpt>
      <trkpt lat="43.1487" lon="5.7129">
        <ele>29.5</ele>
        <time>2021-09-22T13:31:31Z</time>
      </trkpt>
      <trkpt lat="43.14871" lon="5.71296">
        <ele>29.5</ele>
        <time>2021-09-22T13:31:35Z</time>
      </trkpt>
      <trkpt lat="43.14871" lon="5.71303">
        <ele>29.5</ele>
        <time>2021-09-22T13:31:39Z</time>
      </trkpt>
      <trkpt lat="43.1487" lon="5.7131">
        <ele>29.6</ele>
        <time>2021-09-22T13:31:43Z</time>
      </trkpt>
      <trkpt lat="43.14871" lon="5.71318">
        <ele>29.6</ele>
        <time>2021-09-22T13:31:49Z</time>
      </trkpt>
      <trkpt lat="43.14873" lon="5.71324">
        <ele>29.5</ele>
        <time>2021-09-22T13:31:55Z</time>
      </trkpt>
      <trkpt lat="43.14876" lon="5.71331">
        <ele>29.4</ele>
        <time>2021-09-22T13:32:01Z</time>
      </trkpt>
      <trkpt lat="43.1488" lon="5.71337">
        <ele>29.1</ele>
        <time>2021-09-22T13:32:07Z</time>
      </trkpt>
      <trkpt lat="43.14885" lon="5.71344">
        <ele>28.6</ele>
        <time>2021-09-22T13:32:13Z</time>
      </trkpt>
      <trkpt lat="43.14888" lon="5.71349">
        <ele>28.3</ele>
        <time>2021-09-22T13:32:17Z</time>
      </trkpt>
      <trkpt lat="43.1489" lon="5.71356">
        <ele>27.8</ele>
        <time>2021-09-22T13:32:23Z</time>
      </trkpt>
      <trkpt lat="43.14893" lon="5.71363">
        <ele>27.4</ele>
        <time>2021-09-22T13:32:29Z</time>
      </trkpt>
      <trkpt lat="43.14898" lon="5.71365">
        <ele>26.8</ele>
        <time>2021-09-22T13:32:33Z</time>
      </trkpt>
      <trkpt lat="43.14903" lon="5.71367">
        <ele>26.2</ele>
        <time>2021-09-22T13:32:37Z</time>
      </trkpt>
      <trkpt lat="43.14907" lon="5.7137">
        <ele>25.7</ele>
        <time>2021-09-22T13:32:41Z</time>
      </trkpt>
      <trkpt lat="43.14911" lon="5.71374">
        <ele>25.1</ele>
        <time>2021-09-22T13:32:47Z</time>
      </trkpt>
      <trkpt lat="43.14916" lon="5.71377">
        <ele>24.5</ele>
        <time>2021-09-22T13:32:57Z</time>
      </trkpt>
      <trkpt lat="43.1492" lon="5.7138">
        <ele>24.4</ele>
        <time>2021-09-22T13:33:01Z</time>
      </trkpt>
      <trkpt lat="43.14924" lon="5.71384">
        <ele>24.4</ele>
        <time>2021-09-22T13:33:05Z</time>
      </trkpt>
      <trkpt lat="43.14928" lon="5.71391">
        <ele>24.1</ele>
        <time>2021-09-22T13:33:11Z</time>
      </trkpt>
      <trkpt lat="43.1493" lon="5.71397">
        <ele>23.7</ele>
        <time>2021-09-22T13:33:15Z</time>
      </trkpt>
      <trkpt lat="43.14932" lon="5.71403">
        <ele>23.3</ele>
        <time>2021-09-22T13:33:19Z</time>
      </trkpt>
      <trkpt lat="43.14937" lon="5.71407">
        <ele>23.1</ele>
        <time>2021-09-22T13:33:25Z</time>
      </trkpt>
      <trkpt lat="43.14939" lon="5.71413">
        <ele>22.6</ele>
        <time>2021-09-22T13:33:29Z</time>
      </trkpt>
      <trkpt lat="43.1494" lon="5.7142">
        <ele>22.4</ele>
        <time>2021-09-22T13:33:33Z</time>
      </trkpt>
      <trkpt lat="43.14944" lon="5.71426">
        <ele>22.8</ele>
        <time>2021-09-22T13:33:39Z</time>
      </trkpt>
      <trkpt lat="43.14948" lon="5.71432">
        <ele>23.1</ele>
        <time>2021-09-22T13:33:45Z</time>
      </trkpt>
      <trkpt lat="43.14951" lon="5.71437">
        <ele>23.3</ele>
        <time>2021-09-22T13:33:49Z</time>
      </trkpt>
      <trkpt lat="43.14954" lon="5.71444">
        <ele>23.6</ele>
        <time>2021-09-22T13:33:53Z</time>
      </trkpt>
      <trkpt lat="43.14955" lon="5.7145">
        <ele>23.8</ele>
        <time>2021-09-22T13:33:57Z</time>
      </trkpt>
      <trkpt lat="43.1496" lon="5.71455">
        <ele>23.8</ele>
        <time>2021-09-22T13:34:03Z</time>
      </trkpt>
      <trkpt lat="43.14965" lon="5.71459">
        <ele>23.8</ele>
        <time>2021-09-22T13:34:09Z</time>
      </trkpt>
      <trkpt lat="43.1497" lon="5.71462">
        <ele>23.7</ele>
        <time>2021-09-22T13:34:15Z</time>
      </trkpt>
      <trkpt lat="43.14974" lon="5.71463">
        <ele>23.5</ele>
        <time>2021-09-22T13:34:25Z</time>
      </trkpt>
      <trkpt lat="43.14978" lon="5.71468">
        <ele>23.4</ele>
        <time>2021-09-22T13:34:41Z</time>
      </trkpt>
      <trkpt lat="43.14983" lon="5.7147">
        <ele>23.2</ele>
        <time>2021-09-22T13:34:47Z</time>
      </trkpt>
      <trkpt lat="43.14987" lon="5.71471">
        <ele>23</ele>
        <time>2021-09-22T13:34:53Z</time>
      </trkpt>
      <trkpt lat="43.14992" lon="5.71469">
        <ele>22.8</ele>
        <time>2021-09-22T13:34:59Z</time>
      </trkpt>
      <trkpt lat="43.14997" lon="5.71469">
        <ele>22.5</ele>
        <time>2021-09-22T13:35:09Z</time>
      </trkpt>
      <trkpt lat="43.15004" lon="5.71469">
        <ele>22.6</ele>
        <time>2021-09-22T13:35:15Z</time>
      </trkpt>
      <trkpt lat="43.15008" lon="5.71469">
        <ele>22.8</ele>
        <time>2021-09-22T13:35:19Z</time>
      </trkpt>
      <trkpt lat="43.15014" lon="5.71469">
        <ele>23.2</ele>
        <time>2021-09-22T13:35:23Z</time>
      </trkpt>
      <trkpt lat="43.1502" lon="5.71467">
        <ele>23.5</ele>
        <time>2021-09-22T13:35:27Z</time>
      </trkpt>
      <trkpt lat="43.15027" lon="5.71465">
        <ele>23.9</ele>
        <time>2021-09-22T13:35:31Z</time>
      </trkpt>
      <trkpt lat="43.15032" lon="5.71463">
        <ele>24.2</ele>
        <time>2021-09-22T13:35:35Z</time>
      </trkpt>
      <trkpt lat="43.15037" lon="5.71464">
        <ele>24.5</ele>
        <time>2021-09-22T13:35:41Z</time>
      </trkpt>
      <trkpt lat="43.15043" lon="5.71465">
        <ele>24.8</ele>
        <time>2021-09-22T13:35:47Z</time>
      </trkpt>
      <trkpt lat="43.15049" lon="5.71463">
        <ele>25.1</ele>
        <time>2021-09-22T13:35:53Z</time>
      </trkpt>
      <trkpt lat="43.15054" lon="5.71461">
        <ele>25.4</ele>
        <time>2021-09-22T13:35:59Z</time>
      </trkpt>
      <trkpt lat="43.15059" lon="5.7146">
        <ele>25.7</ele>
        <time>2021-09-22T13:36:07Z</time>
      </trkpt>
      <trkpt lat="43.15064" lon="5.7146">
        <ele>26</ele>
        <time>2021-09-22T13:36:11Z</time>
      </trkpt>
      <trkpt lat="43.1507" lon="5.7146">
        <ele>26.3</ele>
        <time>2021-09-22T13:36:17Z</time>
      </trkpt>
      <trkpt lat="43.15075" lon="5.7146">
        <ele>26.5</ele>
        <time>2021-09-22T13:36:23Z</time>
      </trkpt>
      <trkpt lat="43.15081" lon="5.71461">
        <ele>26.9</ele>
        <time>2021-09-22T13:36:29Z</time>
      </trkpt>
      <trkpt lat="43.15087" lon="5.71464">
        <ele>26.9</ele>
        <time>2021-09-22T13:36:35Z</time>
      </trkpt>
      <trkpt lat="43.15092" lon="5.71465">
        <ele>26.8</ele>
        <time>2021-09-22T13:36:39Z</time>
      </trkpt>
      <trkpt lat="43.15098" lon="5.71466">
        <ele>26.7</ele>
        <time>2021-09-22T13:36:45Z</time>
      </trkpt>
      <trkpt lat="43.15103" lon="5.71468">
        <ele>26.6</ele>
        <time>2021-09-22T13:36:51Z</time>
      </trkpt>
      <trkpt lat="43.15109" lon="5.71469">
        <ele>26.4</ele>
        <time>2021-09-22T13:37:03Z</time>
      </trkpt>
      <trkpt lat="43.15114" lon="5.71471">
        <ele>26.3</ele>
        <time>2021-09-22T13:37:11Z</time>
      </trkpt>
      <trkpt lat="43.15118" lon="5.71475">
        <ele>26.1</ele>
        <time>2021-09-22T13:37:17Z</time>
      </trkpt>
      <trkpt lat="43.15123" lon="5.71477">
        <ele>26</ele>
        <time>2021-09-22T13:37:57Z</time>
      </trkpt>
      <trkpt lat="43.15129" lon="5.71477">
        <ele>25.8</ele>
        <time>2021-09-22T13:39:43Z</time>
      </trkpt>
      <trkpt lat="43.15134" lon="5.71477">
        <ele>25.7</ele>
        <time>2021-09-22T13:39:49Z</time>
      </trkpt>
      <trkpt lat="43.15139" lon="5.71479">
        <ele>25.5</ele>
        <time>2021-09-22T13:39:55Z</time>
      </trkpt>
      <trkpt lat="43.15143" lon="5.71484">
        <ele>25.3</ele>
        <time>2021-09-22T13:40:01Z</time>
      </trkpt>
      <trkpt lat="43.15148" lon="5.71487">
        <ele>25</ele>
        <time>2021-09-22T13:40:15Z</time>
      </trkpt>
      <trkpt lat="43.15153" lon="5.7149">
        <ele>24.8</ele>
        <time>2021-09-22T13:40:21Z</time>
      </trkpt>
      <trkpt lat="43.15158" lon="5.71493">
        <ele>24.5</ele>
        <time>2021-09-22T13:40:27Z</time>
      </trkpt>
      <trkpt lat="43.15163" lon="5.71498">
        <ele>24.2</ele>
        <time>2021-09-22T13:40:35Z</time>
      </trkpt>
      <trkpt lat="43.15167" lon="5.71501">
        <ele>24.2</ele>
        <time>2021-09-22T13:40:41Z</time>
      </trkpt>
      <trkpt lat="43.15172" lon="5.71504">
        <ele>24.9</ele>
        <time>2021-09-22T13:40:47Z</time>
      </trkpt>
      <trkpt lat="43.15177" lon="5.71506">
        <ele>25.4</ele>
        <time>2021-09-22T13:40:53Z</time>
      </trkpt>
      <trkpt lat="43.15182" lon="5.71509">
        <ele>26</ele>
        <time>2021-09-22T13:41:01Z</time>
      </trkpt>
      <trkpt lat="43.15187" lon="5.7151">
        <ele>26.3</ele>
        <time>2021-09-22T13:41:15Z</time>
      </trkpt>
      <trkpt lat="43.15188" lon="5.71504">
        <ele>25.2</ele>
        <time>2021-09-22T13:41:41Z</time>
      </trkpt>
      <trkpt lat="43.15193" lon="5.71506">
        <ele>25.6</ele>
        <time>2021-09-22T13:42:03Z</time>
      </trkpt>
      <trkpt lat="43.15198" lon="5.71508">
        <ele>26.2</ele>
        <time>2021-09-22T13:42:11Z</time>
      </trkpt>
      <trkpt lat="43.15204" lon="5.71505">
        <ele>25.7</ele>
        <time>2021-09-22T13:42:17Z</time>
      </trkpt>
      <trkpt lat="43.15209" lon="5.71501">
        <ele>25.2</ele>
        <time>2021-09-22T13:42:21Z</time>
      </trkpt>
      <trkpt lat="43.15214" lon="5.71501">
        <ele>25.3</ele>
        <time>2021-09-22T13:42:25Z</time>
      </trkpt>
      <trkpt lat="43.15218" lon="5.71502">
        <ele>25.5</ele>
        <time>2021-09-22T13:42:29Z</time>
      </trkpt>
      <trkpt lat="43.15225" lon="5.71502">
        <ele>25.8</ele>
        <time>2021-09-22T13:42:35Z</time>
      </trkpt>
      <trkpt lat="43.1523" lon="5.71502">
        <ele>25.9</ele>
        <time>2021-09-22T13:42:41Z</time>
      </trkpt>
      <trkpt lat="43.15236" lon="5.71504">
        <ele>26.2</ele>
        <time>2021-09-22T13:42:47Z</time>
      </trkpt>
      <trkpt lat="43.15241" lon="5.71503">
        <ele>26.2</ele>
        <time>2021-09-22T13:42:53Z</time>
      </trkpt>
      <trkpt lat="43.15247" lon="5.71499">
        <ele>26</ele>
        <time>2021-09-22T13:42:59Z</time>
      </trkpt>
      <trkpt lat="43.15251" lon="5.71496">
        <ele>26.2</ele>
        <time>2021-09-22T13:43:05Z</time>
      </trkpt>
      <trkpt lat="43.15257" lon="5.71494">
        <ele>26.6</ele>
        <time>2021-09-22T13:43:11Z</time>
      </trkpt>
      <trkpt lat="43.15263" lon="5.71496">
        <ele>26.9</ele>
        <time>2021-09-22T13:43:17Z</time>
      </trkpt>
      <trkpt lat="43.15268" lon="5.71495">
        <ele>27.2</ele>
        <time>2021-09-22T13:43:23Z</time>
      </trkpt>
      <trkpt lat="43.15273" lon="5.71495">
        <ele>27.5</ele>
        <time>2021-09-22T13:43:31Z</time>
      </trkpt>
      <trkpt lat="43.15276" lon="5.71491">
        <ele>27.8</ele>
        <time>2021-09-22T13:43:37Z</time>
      </trkpt>
      <trkpt lat="43.15281" lon="5.71487">
        <ele>28.1</ele>
        <time>2021-09-22T13:43:43Z</time>
      </trkpt>
      <trkpt lat="43.15286" lon="5.71484">
        <ele>28.4</ele>
        <time>2021-09-22T13:43:49Z</time>
      </trkpt>
      <trkpt lat="43.15291" lon="5.71479">
        <ele>28.7</ele>
        <time>2021-09-22T13:43:55Z</time>
      </trkpt>
      <trkpt lat="43.15295" lon="5.71475">
        <ele>29</ele>
        <time>2021-09-22T13:44:01Z</time>
      </trkpt>
      <trkpt lat="43.15299" lon="5.71469">
        <ele>29.2</ele>
        <time>2021-09-22T13:44:07Z</time>
      </trkpt>
      <trkpt lat="43.15303" lon="5.71464">
        <ele>29.4</ele>
        <time>2021-09-22T13:44:13Z</time>
      </trkpt>
      <trkpt lat="43.15308" lon="5.71461">
        <ele>29.6</ele>
        <time>2021-09-22T13:44:19Z</time>
      </trkpt>
      <trkpt lat="43.15313" lon="5.71457">
        <ele>29.8</ele>
        <time>2021-09-22T13:44:25Z</time>
      </trkpt>
      <trkpt lat="43.15318" lon="5.71452">
        <ele>29.9</ele>
        <time>2021-09-22T13:44:31Z</time>
      </trkpt>
      <trkpt lat="43.15323" lon="5.71449">
        <ele>30.1</ele>
        <time>2021-09-22T13:44:37Z</time>
      </trkpt>
      <trkpt lat="43.15328" lon="5.71449">
        <ele>30.2</ele>
        <time>2021-09-22T13:44:43Z</time>
      </trkpt>
      <trkpt lat="43.15333" lon="5.71447">
        <ele>30.3</ele>
        <time>2021-09-22T13:44:55Z</time>
      </trkpt>
      <trkpt lat="43.15339" lon="5.71445">
        <ele>30.7</ele>
        <time>2021-09-22T13:45:03Z</time>
      </trkpt>
      <trkpt lat="43.15344" lon="5.71443">
        <ele>31</ele>
        <time>2021-09-22T13:45:07Z</time>
      </trkpt>
      <trkpt lat="43.15349" lon="5.71441">
        <ele>31.3</ele>
        <time>2021-09-22T13:45:13Z</time>
      </trkpt>
      <trkpt lat="43.15355" lon="5.7144">
        <ele>31.6</ele>
        <time>2021-09-22T13:45:19Z</time>
      </trkpt>
      <trkpt lat="43.1536" lon="5.7144">
        <ele>31.9</ele>
        <time>2021-09-22T13:45:23Z</time>
      </trkpt>
      <trkpt lat="43.15365" lon="5.71439">
        <ele>32.2</ele>
        <time>2021-09-22T13:45:27Z</time>
      </trkpt>
      <trkpt lat="43.15372" lon="5.71438">
        <ele>32.6</ele>
        <time>2021-09-22T13:45:33Z</time>
      </trkpt>
      <trkpt lat="43.15377" lon="5.71438">
        <ele>32.9</ele>
        <time>2021-09-22T13:45:39Z</time>
      </trkpt>
      <trkpt lat="43.15382" lon="5.71438">
        <ele>33.2</ele>
        <time>2021-09-22T13:45:45Z</time>
      </trkpt>
      <trkpt lat="43.15387" lon="5.71436">
        <ele>33.4</ele>
        <time>2021-09-22T13:45:51Z</time>
      </trkpt>
      <trkpt lat="43.15388" lon="5.7143">
        <ele>33.2</ele>
        <time>2021-09-22T13:45:59Z</time>
      </trkpt>
      <trkpt lat="43.15383" lon="5.71427">
        <ele>32.8</ele>
        <time>2021-09-22T13:46:09Z</time>
      </trkpt>
      <trkpt lat="43.15378" lon="5.71427">
        <ele>32.5</ele>
        <time>2021-09-22T13:46:15Z</time>
      </trkpt>
      <trkpt lat="43.15372" lon="5.71426">
        <ele>32.2</ele>
        <time>2021-09-22T13:46:21Z</time>
      </trkpt>
      <trkpt lat="43.15368" lon="5.71425">
        <ele>31.9</ele>
        <time>2021-09-22T13:46:25Z</time>
      </trkpt>
      <trkpt lat="43.15366" lon="5.7142">
        <ele>31.6</ele>
        <time>2021-09-22T13:46:33Z</time>
      </trkpt>
      <trkpt lat="43.15367" lon="5.71413">
        <ele>31.6</ele>
        <time>2021-09-22T13:46:43Z</time>
      </trkpt>
      <trkpt lat="43.15368" lon="5.71405">
        <ele>31.7</ele>
        <time>2021-09-22T13:46:49Z</time>
      </trkpt>
      <trkpt lat="43.1537" lon="5.71397">
        <ele>31.8</ele>
        <time>2021-09-22T13:46:55Z</time>
      </trkpt>
      <trkpt lat="43.15371" lon="5.71391">
        <ele>31.9</ele>
        <time>2021-09-22T13:47:01Z</time>
      </trkpt>
      <trkpt lat="43.15373" lon="5.71384">
        <ele>31.9</ele>
        <time>2021-09-22T13:47:07Z</time>
      </trkpt>
      <trkpt lat="43.15376" lon="5.7138">
        <ele>32</ele>
        <time>2021-09-22T13:47:13Z</time>
      </trkpt>
      <trkpt lat="43.15379" lon="5.71374">
        <ele>32.1</ele>
        <time>2021-09-22T13:47:19Z</time>
      </trkpt>
      <trkpt lat="43.1538" lon="5.71367">
        <ele>32.1</ele>
        <time>2021-09-22T13:47:25Z</time>
      </trkpt>
      <trkpt lat="43.15382" lon="5.7136">
        <ele>32.1</ele>
        <time>2021-09-22T13:47:31Z</time>
      </trkpt>
      <trkpt lat="43.15383" lon="5.71354">
        <ele>32.1</ele>
        <time>2021-09-22T13:47:37Z</time>
      </trkpt>
      <trkpt lat="43.15385" lon="5.71347">
        <ele>32.1</ele>
        <time>2021-09-22T13:47:43Z</time>
      </trkpt>
      <trkpt lat="43.15387" lon="5.71339">
        <ele>32</ele>
        <time>2021-09-22T13:47:49Z</time>
      </trkpt>
      <trkpt lat="43.15389" lon="5.71332">
        <ele>32.1</ele>
        <time>2021-09-22T13:47:55Z</time>
      </trkpt>
      <trkpt lat="43.15391" lon="5.71324">
        <ele>32.5</ele>
        <time>2021-09-22T13:48:01Z</time>
      </trkpt>
      <trkpt lat="43.15393" lon="5.71317">
        <ele>32.9</ele>
        <time>2021-09-22T13:48:07Z</time>
      </trkpt>
      <trkpt lat="43.15395" lon="5.71309">
        <ele>33.3</ele>
        <time>2021-09-22T13:48:13Z</time>
      </trkpt>
      <trkpt lat="43.15397" lon="5.71302">
        <ele>33.6</ele>
        <time>2021-09-22T13:48:19Z</time>
      </trkpt>
      <trkpt lat="43.15399" lon="5.71296">
        <ele>33.9</ele>
        <time>2021-09-22T13:48:25Z</time>
      </trkpt>
      <trkpt lat="43.15401" lon="5.71288">
        <ele>34.3</ele>
        <time>2021-09-22T13:48:33Z</time>
      </trkpt>
      <trkpt lat="43.15403" lon="5.71281">
        <ele>34.6</ele>
        <time>2021-09-22T13:48:41Z</time>
      </trkpt>
      <trkpt lat="43.15406" lon="5.71275">
        <ele>34.9</ele>
        <time>2021-09-22T13:48:49Z</time>
      </trkpt>
      <trkpt lat="43.15408" lon="5.71269">
        <ele>35.2</ele>
        <time>2021-09-22T13:48:57Z</time>
      </trkpt>
      <trkpt lat="43.1541" lon="5.71262">
        <ele>35.5</ele>
        <time>2021-09-22T13:49:05Z</time>
      </trkpt>
      <trkpt lat="43.15412" lon="5.71256">
        <ele>35.8</ele>
        <time>2021-09-22T13:49:11Z</time>
      </trkpt>
      <trkpt lat="43.15414" lon="5.7125">
        <ele>36</ele>
        <time>2021-09-22T13:49:17Z</time>
      </trkpt>
      <trkpt lat="43.15414" lon="5.71242">
        <ele>36.9</ele>
        <time>2021-09-22T13:49:25Z</time>
      </trkpt>
      <trkpt lat="43.15415" lon="5.71235">
        <ele>37.7</ele>
        <time>2021-09-22T13:49:33Z</time>
      </trkpt>
      <trkpt lat="43.1542" lon="5.71231">
        <ele>37.9</ele>
        <time>2021-09-22T13:49:39Z</time>
      </trkpt>
      <trkpt lat="43.15424" lon="5.71227">
        <ele>38.2</ele>
        <time>2021-09-22T13:49:45Z</time>
      </trkpt>
      <trkpt lat="43.15425" lon="5.7122">
        <ele>38.8</ele>
        <time>2021-09-22T13:49:53Z</time>
      </trkpt>
      <trkpt lat="43.15428" lon="5.71214">
        <ele>39.4</ele>
        <time>2021-09-22T13:50:03Z</time>
      </trkpt>
      <trkpt lat="43.15429" lon="5.71208">
        <ele>40.1</ele>
        <time>2021-09-22T13:50:11Z</time>
      </trkpt>
      <trkpt lat="43.1543" lon="5.71201">
        <ele>40.8</ele>
        <time>2021-09-22T13:50:17Z</time>
      </trkpt>
      <trkpt lat="43.15431" lon="5.71192">
        <ele>41.7</ele>
        <time>2021-09-22T13:50:23Z</time>
      </trkpt>
      <trkpt lat="43.15433" lon="5.71185">
        <ele>42.4</ele>
        <time>2021-09-22T13:50:29Z</time>
      </trkpt>
      <trkpt lat="43.15435" lon="5.71177">
        <ele>43.2</ele>
        <time>2021-09-22T13:50:35Z</time>
      </trkpt>
      <trkpt lat="43.15436" lon="5.71171">
        <ele>43.8</ele>
        <time>2021-09-22T13:50:41Z</time>
      </trkpt>
      <trkpt lat="43.15438" lon="5.71164">
        <ele>44.5</ele>
        <time>2021-09-22T13:50:49Z</time>
      </trkpt>
      <trkpt lat="43.15439" lon="5.71158">
        <ele>45.2</ele>
        <time>2021-09-22T13:50:55Z</time>
      </trkpt>
      <trkpt lat="43.15441" lon="5.7115">
        <ele>45.9</ele>
        <time>2021-09-22T13:51:03Z</time>
      </trkpt>
      <trkpt lat="43.15443" lon="5.71143">
        <ele>46.6</ele>
        <time>2021-09-22T13:51:11Z</time>
      </trkpt>
      <trkpt lat="43.15446" lon="5.71136">
        <ele>47.2</ele>
        <time>2021-09-22T13:51:19Z</time>
      </trkpt>
      <trkpt lat="43.15448" lon="5.7113">
        <ele>47.7</ele>
        <time>2021-09-22T13:51:25Z</time>
      </trkpt>
      <trkpt lat="43.1545" lon="5.71125">
        <ele>48.2</ele>
        <time>2021-09-22T13:51:31Z</time>
      </trkpt>
      <trkpt lat="43.15452" lon="5.71118">
        <ele>48.8</ele>
        <time>2021-09-22T13:51:37Z</time>
      </trkpt>
      <trkpt lat="43.15454" lon="5.71112">
        <ele>49.4</ele>
        <time>2021-09-22T13:51:43Z</time>
      </trkpt>
      <trkpt lat="43.15454" lon="5.71105">
        <ele>50.1</ele>
        <time>2021-09-22T13:51:49Z</time>
      </trkpt>
      <trkpt lat="43.15455" lon="5.71099">
        <ele>50.6</ele>
        <time>2021-09-22T13:51:57Z</time>
      </trkpt>
      <trkpt lat="43.15457" lon="5.71093">
        <ele>51.1</ele>
        <time>2021-09-22T13:52:07Z</time>
      </trkpt>
      <trkpt lat="43.15461" lon="5.71088">
        <ele>51.3</ele>
        <time>2021-09-22T13:52:15Z</time>
      </trkpt>
      <trkpt lat="43.15464" lon="5.71083">
        <ele>51.6</ele>
        <time>2021-09-22T13:52:23Z</time>
      </trkpt>
      <trkpt lat="43.15468" lon="5.71079">
        <ele>51.7</ele>
        <time>2021-09-22T13:52:29Z</time>
      </trkpt>
      <trkpt lat="43.15474" lon="5.71077">
        <ele>51.6</ele>
        <time>2021-09-22T13:52:37Z</time>
      </trkpt>
      <trkpt lat="43.15475" lon="5.71069">
        <ele>52.4</ele>
        <time>2021-09-22T13:52:45Z</time>
      </trkpt>
      <trkpt lat="43.15476" lon="5.71063">
        <ele>53</ele>
        <time>2021-09-22T13:52:51Z</time>
      </trkpt>
      <trkpt lat="43.15481" lon="5.71058">
        <ele>53.3</ele>
        <time>2021-09-22T13:52:59Z</time>
      </trkpt>
      <trkpt lat="43.15485" lon="5.71053">
        <ele>53.7</ele>
        <time>2021-09-22T13:53:05Z</time>
      </trkpt>
      <trkpt lat="43.15488" lon="5.71048">
        <ele>54.1</ele>
        <time>2021-09-22T13:53:11Z</time>
      </trkpt>
      <trkpt lat="43.15492" lon="5.71044">
        <ele>54.5</ele>
        <time>2021-09-22T13:53:17Z</time>
      </trkpt>
      <trkpt lat="43.1549" lon="5.71037">
        <ele>55.5</ele>
        <time>2021-09-22T13:53:25Z</time>
      </trkpt>
      <trkpt lat="43.1549" lon="5.7103">
        <ele>56.4</ele>
        <time>2021-09-22T13:53:33Z</time>
      </trkpt>
      <trkpt lat="43.15492" lon="5.71022">
        <ele>57.3</ele>
        <time>2021-09-22T13:53:41Z</time>
      </trkpt>
      <trkpt lat="43.15493" lon="5.71016">
        <ele>58</ele>
        <time>2021-09-22T13:53:47Z</time>
      </trkpt>
      <trkpt lat="43.15496" lon="5.7101">
        <ele>58.7</ele>
        <time>2021-09-22T13:53:53Z</time>
      </trkpt>
      <trkpt lat="43.15499" lon="5.71007">
        <ele>59.1</ele>
        <time>2021-09-22T13:53:59Z</time>
      </trkpt>
      <trkpt lat="43.15501" lon="5.71">
        <ele>59.9</ele>
        <time>2021-09-22T13:54:05Z</time>
      </trkpt>
      <trkpt lat="43.15503" lon="5.70993">
        <ele>60.6</ele>
        <time>2021-09-22T13:54:13Z</time>
      </trkpt>
      <trkpt lat="43.15505" lon="5.70987">
        <ele>61.2</ele>
        <time>2021-09-22T13:54:21Z</time>
      </trkpt>
      <trkpt lat="43.15508" lon="5.70981">
        <ele>61.7</ele>
        <time>2021-09-22T13:54:27Z</time>
      </trkpt>
      <trkpt lat="43.15512" lon="5.70977">
        <ele>61.9</ele>
        <time>2021-09-22T13:54:35Z</time>
      </trkpt>
      <trkpt lat="43.15516" lon="5.70974">
        <ele>61.9</ele>
        <time>2021-09-22T13:54:41Z</time>
      </trkpt>
      <trkpt lat="43.1552" lon="5.7097">
        <ele>62</ele>
        <time>2021-09-22T13:54:47Z</time>
      </trkpt>
      <trkpt lat="43.15523" lon="5.70965">
        <ele>62.3</ele>
        <time>2021-09-22T13:54:53Z</time>
      </trkpt>
      <trkpt lat="43.15526" lon="5.70959">
        <ele>62.7</ele>
        <time>2021-09-22T13:55:01Z</time>
      </trkpt>
      <trkpt lat="43.15528" lon="5.70951">
        <ele>63.4</ele>
        <time>2021-09-22T13:55:09Z</time>
      </trkpt>
      <trkpt lat="43.1553" lon="5.70945">
        <ele>64</ele>
        <time>2021-09-22T13:55:17Z</time>
      </trkpt>
      <trkpt lat="43.15532" lon="5.70938">
        <ele>64.6</ele>
        <time>2021-09-22T13:55:27Z</time>
      </trkpt>
      <trkpt lat="43.15533" lon="5.70932">
        <ele>65.1</ele>
        <time>2021-09-22T13:55:35Z</time>
      </trkpt>
      <trkpt lat="43.15534" lon="5.70924">
        <ele>65.9</ele>
        <time>2021-09-22T13:57:43Z</time>
      </trkpt>
      <trkpt lat="43.15539" lon="5.7092">
        <ele>66</ele>
        <time>2021-09-22T13:57:51Z</time>
      </trkpt>
      <trkpt lat="43.15543" lon="5.70915">
        <ele>65.9</ele>
        <time>2021-09-22T13:57:59Z</time>
      </trkpt>
      <trkpt lat="43.15546" lon="5.7091">
        <ele>66.1</ele>
        <time>2021-09-22T13:58:05Z</time>
      </trkpt>
      <trkpt lat="43.15547" lon="5.70902">
        <ele>66.6</ele>
        <time>2021-09-22T13:58:11Z</time>
      </trkpt>
      <trkpt lat="43.15547" lon="5.70895">
        <ele>67.1</ele>
        <time>2021-09-22T13:58:17Z</time>
      </trkpt>
      <trkpt lat="43.15547" lon="5.70889">
        <ele>67.6</ele>
        <time>2021-09-22T13:58:23Z</time>
      </trkpt>
      <trkpt lat="43.15549" lon="5.70882">
        <ele>68</ele>
        <time>2021-09-22T13:58:29Z</time>
      </trkpt>
      <trkpt lat="43.15554" lon="5.70879">
        <ele>67.9</ele>
        <time>2021-09-22T13:58:37Z</time>
      </trkpt>
      <trkpt lat="43.15559" lon="5.70878">
        <ele>67.7</ele>
        <time>2021-09-22T13:59:05Z</time>
      </trkpt>
      <trkpt lat="43.15563" lon="5.70872">
        <ele>68</ele>
        <time>2021-09-22T13:59:13Z</time>
      </trkpt>
      <trkpt lat="43.15567" lon="5.70867">
        <ele>68.2</ele>
        <time>2021-09-22T13:59:19Z</time>
      </trkpt>
      <trkpt lat="43.15571" lon="5.70861">
        <ele>68.6</ele>
        <time>2021-09-22T13:59:25Z</time>
      </trkpt>
      <trkpt lat="43.15574" lon="5.70855">
        <ele>69.1</ele>
        <time>2021-09-22T13:59:31Z</time>
      </trkpt>
      <trkpt lat="43.15578" lon="5.70849">
        <ele>69.5</ele>
        <time>2021-09-22T13:59:37Z</time>
      </trkpt>
      <trkpt lat="43.15582" lon="5.70844">
        <ele>69.9</ele>
        <time>2021-09-22T13:59:43Z</time>
      </trkpt>
      <trkpt lat="43.15586" lon="5.70839">
        <ele>70.2</ele>
        <time>2021-09-22T13:59:49Z</time>
      </trkpt>
      <trkpt lat="43.15591" lon="5.70834">
        <ele>70.4</ele>
        <time>2021-09-22T13:59:55Z</time>
      </trkpt>
      <trkpt lat="43.15595" lon="5.70829">
        <ele>70.7</ele>
        <time>2021-09-22T14:00:01Z</time>
      </trkpt>
      <trkpt lat="43.15599" lon="5.70824">
        <ele>70.9</ele>
        <time>2021-09-22T14:00:07Z</time>
      </trkpt>
      <trkpt lat="43.15604" lon="5.7082">
        <ele>71</ele>
        <time>2021-09-22T14:00:15Z</time>
      </trkpt>
      <trkpt lat="43.15608" lon="5.70817">
        <ele>71.1</ele>
        <time>2021-09-22T14:00:21Z</time>
      </trkpt>
      <trkpt lat="43.15613" lon="5.70814">
        <ele>71.2</ele>
        <time>2021-09-22T14:00:27Z</time>
      </trkpt>
      <trkpt lat="43.15619" lon="5.70812">
        <ele>70.9</ele>
        <time>2021-09-22T14:00:35Z</time>
      </trkpt>
      <trkpt lat="43.15623" lon="5.70808">
        <ele>71</ele>
        <time>2021-09-22T14:00:41Z</time>
      </trkpt>
      <trkpt lat="43.15628" lon="5.70805">
        <ele>71</ele>
        <time>2021-09-22T14:00:47Z</time>
      </trkpt>
      <trkpt lat="43.15633" lon="5.70802">
        <ele>71</ele>
        <time>2021-09-22T14:00:53Z</time>
      </trkpt>
      <trkpt lat="43.15637" lon="5.70798">
        <ele>71.1</ele>
        <time>2021-09-22T14:00:59Z</time>
      </trkpt>
      <trkpt lat="43.1564" lon="5.70795">
        <ele>71.2</ele>
        <time>2021-09-22T14:01:11Z</time>
      </trkpt>
      <trkpt lat="43.15644" lon="5.7079">
        <ele>71.5</ele>
        <time>2021-09-22T14:01:25Z</time>
      </trkpt>
      <trkpt lat="43.15648" lon="5.70786">
        <ele>71.6</ele>
        <time>2021-09-22T14:01:33Z</time>
      </trkpt>
      <trkpt lat="43.15653" lon="5.70784">
        <ele>71.4</ele>
        <time>2021-09-22T14:01:41Z</time>
      </trkpt>
      <trkpt lat="43.15659" lon="5.70782">
        <ele>71.1</ele>
        <time>2021-09-22T14:01:49Z</time>
      </trkpt>
      <trkpt lat="43.15665" lon="5.70781">
        <ele>70.8</ele>
        <time>2021-09-22T14:01:57Z</time>
      </trkpt>
      <trkpt lat="43.15669" lon="5.70782">
        <ele>70.4</ele>
        <time>2021-09-22T14:02:03Z</time>
      </trkpt>
      <trkpt lat="43.15675" lon="5.70783">
        <ele>69.7</ele>
        <time>2021-09-22T14:02:09Z</time>
      </trkpt>
      <trkpt lat="43.1568" lon="5.70787">
        <ele>69</ele>
        <time>2021-09-22T14:02:15Z</time>
      </trkpt>
      <trkpt lat="43.15684" lon="5.70792">
        <ele>68.2</ele>
        <time>2021-09-22T14:02:23Z</time>
      </trkpt>
      <trkpt lat="43.15689" lon="5.70795">
        <ele>67.6</ele>
        <time>2021-09-22T14:02:29Z</time>
      </trkpt>
      <trkpt lat="43.15694" lon="5.70798">
        <ele>66.9</ele>
        <time>2021-09-22T14:02:35Z</time>
      </trkpt>
      <trkpt lat="43.15699" lon="5.70801">
        <ele>66.4</ele>
        <time>2021-09-22T14:02:41Z</time>
      </trkpt>
      <trkpt lat="43.15704" lon="5.70802">
        <ele>65.9</ele>
        <time>2021-09-22T14:02:49Z</time>
      </trkpt>
      <trkpt lat="43.15708" lon="5.70807">
        <ele>65.2</ele>
        <time>2021-09-22T14:02:57Z</time>
      </trkpt>
      <trkpt lat="43.15708" lon="5.70814">
        <ele>64.7</ele>
        <time>2021-09-22T14:03:17Z</time>
      </trkpt>
      <trkpt lat="43.15709" lon="5.70822">
        <ele>64</ele>
        <time>2021-09-22T14:03:27Z</time>
      </trkpt>
      <trkpt lat="43.1571" lon="5.70829">
        <ele>63.3</ele>
        <time>2021-09-22T14:03:35Z</time>
      </trkpt>
      <trkpt lat="43.1571" lon="5.70836">
        <ele>62.7</ele>
        <time>2021-09-22T14:03:41Z</time>
      </trkpt>
      <trkpt lat="43.1571" lon="5.70844">
        <ele>62</ele>
        <time>2021-09-22T14:03:47Z</time>
      </trkpt>
      <trkpt lat="43.15711" lon="5.70852">
        <ele>61.3</ele>
        <time>2021-09-22T14:03:53Z</time>
      </trkpt>
      <trkpt lat="43.15711" lon="5.70859">
        <ele>60.7</ele>
        <time>2021-09-22T14:03:59Z</time>
      </trkpt>
      <trkpt lat="43.15711" lon="5.70866">
        <ele>60.2</ele>
        <time>2021-09-22T14:04:05Z</time>
      </trkpt>
      <trkpt lat="43.15711" lon="5.70873">
        <ele>59.5</ele>
        <time>2021-09-22T14:04:23Z</time>
      </trkpt>
      <trkpt lat="43.15711" lon="5.7088">
        <ele>59</ele>
        <time>2021-09-22T14:04:31Z</time>
      </trkpt>
      <trkpt lat="43.15712" lon="5.70886">
        <ele>58.4</ele>
        <time>2021-09-22T14:04:39Z</time>
      </trkpt>
      <trkpt lat="43.15713" lon="5.70892">
        <ele>57.8</ele>
        <time>2021-09-22T14:04:45Z</time>
      </trkpt>
      <trkpt lat="43.15714" lon="5.709">
        <ele>57.2</ele>
        <time>2021-09-22T14:04:51Z</time>
      </trkpt>
      <trkpt lat="43.15714" lon="5.70908">
        <ele>56.5</ele>
        <time>2021-09-22T14:04:57Z</time>
      </trkpt>
      <trkpt lat="43.15716" lon="5.70915">
        <ele>55.8</ele>
        <time>2021-09-22T14:05:03Z</time>
      </trkpt>
      <trkpt lat="43.15719" lon="5.70921">
        <ele>55</ele>
        <time>2021-09-22T14:05:09Z</time>
      </trkpt>
      <trkpt lat="43.1572" lon="5.70928">
        <ele>54.4</ele>
        <time>2021-09-22T14:05:15Z</time>
      </trkpt>
      <trkpt lat="43.1572" lon="5.70934">
        <ele>53.8</ele>
        <time>2021-09-22T14:05:21Z</time>
      </trkpt>
      <trkpt lat="43.15722" lon="5.70941">
        <ele>53</ele>
        <time>2021-09-22T14:05:27Z</time>
      </trkpt>
      <trkpt lat="43.15724" lon="5.70947">
        <ele>52.3</ele>
        <time>2021-09-22T14:05:33Z</time>
      </trkpt>
      <trkpt lat="43.15725" lon="5.70954">
        <ele>51.6</ele>
        <time>2021-09-22T14:05:39Z</time>
      </trkpt>
      <trkpt lat="43.15728" lon="5.7096">
        <ele>51</ele>
        <time>2021-09-22T14:05:45Z</time>
      </trkpt>
      <trkpt lat="43.15731" lon="5.70965">
        <ele>50.3</ele>
        <time>2021-09-22T14:05:51Z</time>
      </trkpt>
      <trkpt lat="43.15733" lon="5.70973">
        <ele>49.4</ele>
        <time>2021-09-22T14:05:57Z</time>
      </trkpt>
      <trkpt lat="43.15735" lon="5.70981">
        <ele>48.6</ele>
        <time>2021-09-22T14:06:03Z</time>
      </trkpt>
      <trkpt lat="43.15737" lon="5.70987">
        <ele>47.8</ele>
        <time>2021-09-22T14:06:09Z</time>
      </trkpt>
      <trkpt lat="43.1574" lon="5.70994">
        <ele>47.1</ele>
        <time>2021-09-22T14:06:15Z</time>
      </trkpt>
      <trkpt lat="43.15743" lon="5.70999">
        <ele>46.4</ele>
        <time>2021-09-22T14:06:23Z</time>
      </trkpt>
      <trkpt lat="43.15739" lon="5.70996">
        <ele>46.9</ele>
        <time>2021-09-22T14:06:51Z</time>
      </trkpt>
      <trkpt lat="43.15743" lon="5.70991">
        <ele>47.2</ele>
        <time>2021-09-22T14:07:02Z</time>
      </trkpt>
      <trkpt lat="43.15747" lon="5.70989">
        <ele>47.2</ele>
        <time>2021-09-22T14:07:08Z</time>
      </trkpt>
      <trkpt lat="43.15751" lon="5.70986">
        <ele>47.4</ele>
        <time>2021-09-22T14:07:14Z</time>
      </trkpt>
      <trkpt lat="43.15755" lon="5.70982">
        <ele>47.7</ele>
        <time>2021-09-22T14:07:20Z</time>
      </trkpt>
      <trkpt lat="43.1576" lon="5.70978">
        <ele>48</ele>
        <time>2021-09-22T14:07:28Z</time>
      </trkpt>
      <trkpt lat="43.15765" lon="5.70972">
        <ele>48.4</ele>
        <time>2021-09-22T14:07:34Z</time>
      </trkpt>
      <trkpt lat="43.15769" lon="5.70968">
        <ele>48.7</ele>
        <time>2021-09-22T14:07:40Z</time>
      </trkpt>
      <trkpt lat="43.15771" lon="5.70961">
        <ele>49.1</ele>
        <time>2021-09-22T14:07:46Z</time>
      </trkpt>
      <trkpt lat="43.15774" lon="5.70955">
        <ele>49.5</ele>
        <time>2021-09-22T14:07:54Z</time>
      </trkpt>
      <trkpt lat="43.15777" lon="5.7095">
        <ele>49.8</ele>
        <time>2021-09-22T14:08:00Z</time>
      </trkpt>
      <trkpt lat="43.1578" lon="5.70945">
        <ele>49.9</ele>
        <time>2021-09-22T14:08:16Z</time>
      </trkpt>
      <trkpt lat="43.15783" lon="5.7094">
        <ele>50.1</ele>
        <time>2021-09-22T14:08:26Z</time>
      </trkpt>
      <trkpt lat="43.15787" lon="5.70935">
        <ele>50.2</ele>
        <time>2021-09-22T14:08:40Z</time>
      </trkpt>
      <trkpt lat="43.1579" lon="5.7093">
        <ele>50.4</ele>
        <time>2021-09-22T14:08:46Z</time>
      </trkpt>
      <trkpt lat="43.15794" lon="5.70924">
        <ele>50.5</ele>
        <time>2021-09-22T14:08:52Z</time>
      </trkpt>
      <trkpt lat="43.15797" lon="5.70918">
        <ele>50.6</ele>
        <time>2021-09-22T14:09:00Z</time>
      </trkpt>
      <trkpt lat="43.15801" lon="5.70912">
        <ele>50.6</ele>
        <time>2021-09-22T14:09:08Z</time>
      </trkpt>
      <trkpt lat="43.15804" lon="5.70907">
        <ele>50.8</ele>
        <time>2021-09-22T14:09:16Z</time>
      </trkpt>
      <trkpt lat="43.15807" lon="5.70901">
        <ele>50.8</ele>
        <time>2021-09-22T14:09:22Z</time>
      </trkpt>
      <trkpt lat="43.1581" lon="5.70895">
        <ele>50.9</ele>
        <time>2021-09-22T14:09:28Z</time>
      </trkpt>
      <trkpt lat="43.15812" lon="5.70888">
        <ele>51.2</ele>
        <time>2021-09-22T14:09:34Z</time>
      </trkpt>
      <trkpt lat="43.15814" lon="5.70882">
        <ele>51.3</ele>
        <time>2021-09-22T14:09:40Z</time>
      </trkpt>
      <trkpt lat="43.15816" lon="5.70876">
        <ele>51.5</ele>
        <time>2021-09-22T14:09:46Z</time>
      </trkpt>
      <trkpt lat="43.15819" lon="5.70869">
        <ele>51.6</ele>
        <time>2021-09-22T14:09:54Z</time>
      </trkpt>
      <trkpt lat="43.15822" lon="5.70863">
        <ele>51.7</ele>
        <time>2021-09-22T14:10:00Z</time>
      </trkpt>
      <trkpt lat="43.15824" lon="5.70857">
        <ele>51.8</ele>
        <time>2021-09-22T14:10:06Z</time>
      </trkpt>
      <trkpt lat="43.15825" lon="5.70851">
        <ele>52</ele>
        <time>2021-09-22T14:10:12Z</time>
      </trkpt>
      <trkpt lat="43.15828" lon="5.70845">
        <ele>52</ele>
        <time>2021-09-22T14:10:18Z</time>
      </trkpt>
      <trkpt lat="43.1583" lon="5.70839">
        <ele>52.1</ele>
        <time>2021-09-22T14:10:24Z</time>
      </trkpt>
      <trkpt lat="43.15834" lon="5.70832">
        <ele>52.1</ele>
        <time>2021-09-22T14:10:32Z</time>
      </trkpt>
      <trkpt lat="43.15837" lon="5.70826">
        <ele>53.3</ele>
        <time>2021-09-22T14:10:40Z</time>
      </trkpt>
      <trkpt lat="43.1584" lon="5.70818">
        <ele>54.4</ele>
        <time>2021-09-22T14:10:48Z</time>
      </trkpt>
      <trkpt lat="43.15843" lon="5.7081">
        <ele>55.6</ele>
        <time>2021-09-22T14:10:54Z</time>
      </trkpt>
      <trkpt lat="43.15845" lon="5.70802">
        <ele>56.6</ele>
        <time>2021-09-22T14:11:00Z</time>
      </trkpt>
      <trkpt lat="43.1585" lon="5.70796">
        <ele>57.8</ele>
        <time>2021-09-22T14:11:06Z</time>
      </trkpt>
      <trkpt lat="43.15854" lon="5.70791">
        <ele>58.7</ele>
        <time>2021-09-22T14:11:12Z</time>
      </trkpt>
      <trkpt lat="43.15858" lon="5.70787">
        <ele>59.5</ele>
        <time>2021-09-22T14:11:16Z</time>
      </trkpt>
      <trkpt lat="43.15862" lon="5.7078">
        <ele>60.5</ele>
        <time>2021-09-22T14:11:22Z</time>
      </trkpt>
      <trkpt lat="43.15865" lon="5.70772">
        <ele>61.5</ele>
        <time>2021-09-22T14:11:28Z</time>
      </trkpt>
      <trkpt lat="43.15869" lon="5.70767">
        <ele>62.4</ele>
        <time>2021-09-22T14:11:34Z</time>
      </trkpt>
      <trkpt lat="43.15876" lon="5.70767">
        <ele>63</ele>
        <time>2021-09-22T14:11:40Z</time>
      </trkpt>
      <trkpt lat="43.15879" lon="5.70772">
        <ele>62.9</ele>
        <time>2021-09-22T14:11:44Z</time>
      </trkpt>
      <trkpt lat="43.15881" lon="5.70778">
        <ele>62.5</ele>
        <time>2021-09-22T14:11:50Z</time>
      </trkpt>
      <trkpt lat="43.15885" lon="5.70784">
        <ele>62.4</ele>
        <time>2021-09-22T14:11:56Z</time>
      </trkpt>
      <trkpt lat="43.15889" lon="5.70787">
        <ele>62.6</ele>
        <time>2021-09-22T14:12:02Z</time>
      </trkpt>
      <trkpt lat="43.15893" lon="5.70789">
        <ele>62.8</ele>
        <time>2021-09-22T14:12:10Z</time>
      </trkpt>
      <trkpt lat="43.15899" lon="5.70789">
        <ele>63.4</ele>
        <time>2021-09-22T14:12:20Z</time>
      </trkpt>
      <trkpt lat="43.15901" lon="5.70784">
        <ele>64.1</ele>
        <time>2021-09-22T14:12:26Z</time>
      </trkpt>
      <trkpt lat="43.15904" lon="5.70777">
        <ele>64.9</ele>
        <time>2021-09-22T14:12:32Z</time>
      </trkpt>
      <trkpt lat="43.15905" lon="5.70771">
        <ele>65.4</ele>
        <time>2021-09-22T14:12:38Z</time>
      </trkpt>
      <trkpt lat="43.15907" lon="5.70763">
        <ele>66.1</ele>
        <time>2021-09-22T14:12:46Z</time>
      </trkpt>
      <trkpt lat="43.15909" lon="5.70757">
        <ele>66.8</ele>
        <time>2021-09-22T14:12:52Z</time>
      </trkpt>
      <trkpt lat="43.15911" lon="5.7075">
        <ele>67.5</ele>
        <time>2021-09-22T14:13:00Z</time>
      </trkpt>
      <trkpt lat="43.15914" lon="5.70743">
        <ele>67.5</ele>
        <time>2021-09-22T14:13:08Z</time>
      </trkpt>
      <trkpt lat="43.15918" lon="5.70737">
        <ele>67.5</ele>
        <time>2021-09-22T14:13:14Z</time>
      </trkpt>
      <trkpt lat="43.1592" lon="5.70731">
        <ele>67.4</ele>
        <time>2021-09-22T14:13:18Z</time>
      </trkpt>
      <trkpt lat="43.15924" lon="5.70727">
        <ele>67.3</ele>
        <time>2021-09-22T14:13:24Z</time>
      </trkpt>
      <trkpt lat="43.15928" lon="5.70721">
        <ele>67.3</ele>
        <time>2021-09-22T14:13:30Z</time>
      </trkpt>
      <trkpt lat="43.15931" lon="5.70715">
        <ele>67.2</ele>
        <time>2021-09-22T14:13:36Z</time>
      </trkpt>
      <trkpt lat="43.15933" lon="5.70708">
        <ele>67.1</ele>
        <time>2021-09-22T14:13:42Z</time>
      </trkpt>
      <trkpt lat="43.15936" lon="5.70702">
        <ele>67.1</ele>
        <time>2021-09-22T14:13:48Z</time>
      </trkpt>
      <trkpt lat="43.1594" lon="5.70694">
        <ele>67</ele>
        <time>2021-09-22T14:13:54Z</time>
      </trkpt>
      <trkpt lat="43.15945" lon="5.70691">
        <ele>67.1</ele>
        <time>2021-09-22T14:14:00Z</time>
      </trkpt>
      <trkpt lat="43.15948" lon="5.70685">
        <ele>67.2</ele>
        <time>2021-09-22T14:14:08Z</time>
      </trkpt>
      <trkpt lat="43.15953" lon="5.70685">
        <ele>67.5</ele>
        <time>2021-09-22T14:14:14Z</time>
      </trkpt>
      <trkpt lat="43.15958" lon="5.70684">
        <ele>67.7</ele>
        <time>2021-09-22T14:14:20Z</time>
      </trkpt>
      <trkpt lat="43.15963" lon="5.70683">
        <ele>67.9</ele>
        <time>2021-09-22T14:14:24Z</time>
      </trkpt>
      <trkpt lat="43.15968" lon="5.70683">
        <ele>68.2</ele>
        <time>2021-09-22T14:14:30Z</time>
      </trkpt>
      <trkpt lat="43.15974" lon="5.70682">
        <ele>68.5</ele>
        <time>2021-09-22T14:14:38Z</time>
      </trkpt>
      <trkpt lat="43.15979" lon="5.70681">
        <ele>68.7</ele>
        <time>2021-09-22T14:14:48Z</time>
      </trkpt>
      <trkpt lat="43.15984" lon="5.70683">
        <ele>69</ele>
        <time>2021-09-22T14:14:56Z</time>
      </trkpt>
      <trkpt lat="43.15989" lon="5.70684">
        <ele>69.3</ele>
        <time>2021-09-22T14:15:04Z</time>
      </trkpt>
      <trkpt lat="43.15994" lon="5.70683">
        <ele>69.5</ele>
        <time>2021-09-22T14:15:14Z</time>
      </trkpt>
      <trkpt lat="43.15999" lon="5.7068">
        <ele>69.8</ele>
        <time>2021-09-22T14:15:20Z</time>
      </trkpt>
      <trkpt lat="43.16003" lon="5.70677">
        <ele>70.2</ele>
        <time>2021-09-22T14:15:26Z</time>
      </trkpt>
      <trkpt lat="43.16008" lon="5.70673">
        <ele>70.7</ele>
        <time>2021-09-22T14:15:32Z</time>
      </trkpt>
      <trkpt lat="43.16012" lon="5.7067">
        <ele>71.3</ele>
        <time>2021-09-22T14:15:40Z</time>
      </trkpt>
      <trkpt lat="43.16012" lon="5.70663">
        <ele>71.3</ele>
        <time>2021-09-22T14:15:50Z</time>
      </trkpt>
      <trkpt lat="43.16011" lon="5.70657">
        <ele>71.2</ele>
        <time>2021-09-22T14:16:00Z</time>
      </trkpt>
      <trkpt lat="43.1601" lon="5.7065">
        <ele>71.1</ele>
        <time>2021-09-22T14:18:26Z</time>
      </trkpt>
      <trkpt lat="43.1601" lon="5.70642">
        <ele>71.1</ele>
        <time>2021-09-22T14:18:46Z</time>
      </trkpt>
      <trkpt lat="43.1601" lon="5.70635">
        <ele>71.1</ele>
        <time>2021-09-22T14:18:52Z</time>
      </trkpt>
      <trkpt lat="43.1601" lon="5.70628">
        <ele>71</ele>
        <time>2021-09-22T14:18:58Z</time>
      </trkpt>
      <trkpt lat="43.1601" lon="5.7062">
        <ele>71</ele>
        <time>2021-09-22T14:19:04Z</time>
      </trkpt>
      <trkpt lat="43.16009" lon="5.70612">
        <ele>71</ele>
        <time>2021-09-22T14:19:10Z</time>
      </trkpt>
      <trkpt lat="43.16009" lon="5.70605">
        <ele>71</ele>
        <time>2021-09-22T14:19:16Z</time>
      </trkpt>
      <trkpt lat="43.16009" lon="5.70597">
        <ele>71</ele>
        <time>2021-09-22T14:19:22Z</time>
      </trkpt>
      <trkpt lat="43.1601" lon="5.70589">
        <ele>71.1</ele>
        <time>2021-09-22T14:19:28Z</time>
      </trkpt>
      <trkpt lat="43.1601" lon="5.7058">
        <ele>71.1</ele>
        <time>2021-09-22T14:19:34Z</time>
      </trkpt>
      <trkpt lat="43.1601" lon="5.70573">
        <ele>71.1</ele>
        <time>2021-09-22T14:19:40Z</time>
      </trkpt>
      <trkpt lat="43.1601" lon="5.70566">
        <ele>71.1</ele>
        <time>2021-09-22T14:19:46Z</time>
      </trkpt>
      <trkpt lat="43.1601" lon="5.70557">
        <ele>71</ele>
        <time>2021-09-22T14:19:52Z</time>
      </trkpt>
      <trkpt lat="43.16009" lon="5.70549">
        <ele>71</ele>
        <time>2021-09-22T14:19:58Z</time>
      </trkpt>
      <trkpt lat="43.16009" lon="5.70542">
        <ele>70.9</ele>
        <time>2021-09-22T14:20:04Z</time>
      </trkpt>
      <trkpt lat="43.16009" lon="5.70534">
        <ele>70.9</ele>
        <time>2021-09-22T14:20:10Z</time>
      </trkpt>
      <trkpt lat="43.1601" lon="5.70526">
        <ele>71</ele>
        <time>2021-09-22T14:20:16Z</time>
      </trkpt>
      <trkpt lat="43.16012" lon="5.70519">
        <ele>71.2</ele>
        <time>2021-09-22T14:20:22Z</time>
      </trkpt>
      <trkpt lat="43.16013" lon="5.70512">
        <ele>71.2</ele>
        <time>2021-09-22T14:20:26Z</time>
      </trkpt>
      <trkpt lat="43.16013" lon="5.70505">
        <ele>71.2</ele>
        <time>2021-09-22T14:20:30Z</time>
      </trkpt>
      <trkpt lat="43.16014" lon="5.70499">
        <ele>71.4</ele>
        <time>2021-09-22T14:20:36Z</time>
      </trkpt>
      <trkpt lat="43.16015" lon="5.70492">
        <ele>71.6</ele>
        <time>2021-09-22T14:20:42Z</time>
      </trkpt>
      <trkpt lat="43.16015" lon="5.70484">
        <ele>71.8</ele>
        <time>2021-09-22T14:20:48Z</time>
      </trkpt>
      <trkpt lat="43.16014" lon="5.70474">
        <ele>72.1</ele>
        <time>2021-09-22T14:20:54Z</time>
      </trkpt>
      <trkpt lat="43.16014" lon="5.70467">
        <ele>72.3</ele>
        <time>2021-09-22T14:20:58Z</time>
      </trkpt>
      <trkpt lat="43.16015" lon="5.70459">
        <ele>72.5</ele>
        <time>2021-09-22T14:21:04Z</time>
      </trkpt>
      <trkpt lat="43.16015" lon="5.70451">
        <ele>72.8</ele>
        <time>2021-09-22T14:21:10Z</time>
      </trkpt>
      <trkpt lat="43.16017" lon="5.70443">
        <ele>73.1</ele>
        <time>2021-09-22T14:21:16Z</time>
      </trkpt>
      <trkpt lat="43.16018" lon="5.70435">
        <ele>73.4</ele>
        <time>2021-09-22T14:21:22Z</time>
      </trkpt>
      <trkpt lat="43.16019" lon="5.70427">
        <ele>73.7</ele>
        <time>2021-09-22T14:21:28Z</time>
      </trkpt>
      <trkpt lat="43.16022" lon="5.7042">
        <ele>74</ele>
        <time>2021-09-22T14:21:34Z</time>
      </trkpt>
      <trkpt lat="43.16027" lon="5.70418">
        <ele>74.3</ele>
        <time>2021-09-22T14:21:40Z</time>
      </trkpt>
      <trkpt lat="43.16033" lon="5.70419">
        <ele>74.5</ele>
        <time>2021-09-22T14:21:46Z</time>
      </trkpt>
      <trkpt lat="43.16038" lon="5.70419">
        <ele>74.8</ele>
        <time>2021-09-22T14:21:52Z</time>
      </trkpt>
      <trkpt lat="43.16043" lon="5.70422">
        <ele>75</ele>
        <time>2021-09-22T14:21:58Z</time>
      </trkpt>
      <trkpt lat="43.16048" lon="5.70426">
        <ele>75.2</ele>
        <time>2021-09-22T14:22:04Z</time>
      </trkpt>
      <trkpt lat="43.16052" lon="5.70429">
        <ele>75.4</ele>
        <time>2021-09-22T14:22:14Z</time>
      </trkpt>
      <trkpt lat="43.16056" lon="5.70432">
        <ele>75.6</ele>
        <time>2021-09-22T14:22:22Z</time>
      </trkpt>
      <trkpt lat="43.1606" lon="5.70436">
        <ele>75.9</ele>
        <time>2021-09-22T14:22:38Z</time>
      </trkpt>
    </trkseg>
  </trk>
</gpx>